Provisional Data: Blockhouse Creek near English Center, PA


Please select a monitoring station.
Please select start date.
Please select start date.

Toggle Unit: C/F Toggle Unit: C/F
Sample Time Temperature (C) Temperature (F) Specific Conductivity (mS/cm) pH   Turbidity (NTU+) DO (mg/L)
10/22/2021 12:00:00 AM 13.21 55.778 0.092 7.2 18.76 10.02
10/22/2021 12:15:00 AM 13.2 55.76 0.092 7.21 18.8 10.03
10/22/2021 12:30:00 AM 13.18 55.724 0.092 7.21 19.14 10.03
10/22/2021 12:45:00 AM 13.15 55.67 0.092 7.2 19.39 10.04
10/22/2021 1:00:00 AM 13.11 55.598 0.092 7.2 19.39 10.05
10/22/2021 1:15:00 AM 13.07 55.526 0.093 7.23 19.5 10.07
10/22/2021 1:30:00 AM 13.03 55.454 0.093 7.21 20.03 10.09
10/22/2021 1:45:00 AM 12.99 55.382 0.093 7.2 19.99 10.1
10/22/2021 2:00:00 AM 12.94 55.292 0.094 7.21 19.74 10.12
10/22/2021 2:15:00 AM 12.88 55.184 0.094 7.21 19.29 10.13
10/22/2021 2:30:00 AM 12.83 55.094 0.094 7.21 18.86 10.15
10/22/2021 2:45:00 AM 12.78 55.004 0.095 7.22 18.57 10.17
10/22/2021 3:00:00 AM 12.74 54.932 0.096 7.21 18.61 10.18
10/22/2021 3:15:00 AM 12.7 54.86 0.097 7.23 18.38 10.19
10/22/2021 3:30:00 AM 12.67 54.806 0.097 7.22 17.78 10.2
10/22/2021 3:45:00 AM 12.65 54.77 0.098 7.23 17.71 10.21
10/22/2021 4:00:00 AM 12.62 54.716 0.098 7.24 17.77 10.23
10/22/2021 4:15:00 AM 12.59 54.662 0.099 7.22 17.55 10.24
10/22/2021 4:30:00 AM 12.56 54.608 0.099 7.23 16.89 10.25
10/22/2021 4:45:00 AM 12.53 54.554 0.1 7.24 16.36 10.26
10/22/2021 5:00:00 AM 12.51 54.518 0.101 7.24 15.27 10.27
10/22/2021 5:15:00 AM 12.48 54.464 0.102 7.25 14.51 10.27
10/22/2021 5:30:00 AM 12.46 54.428 0.102 7.26 13.93 10.28
10/22/2021 5:45:00 AM 12.45 54.41 0.102 7.25 13.73 10.28
10/22/2021 6:00:00 AM 12.43 54.374 0.102 7.26 13.75 10.29
10/22/2021 6:15:00 AM 12.42 54.356 0.102 7.26 13.46 10.29
10/22/2021 6:30:00 AM 12.41 54.338 0.102 7.25 13.53 10.29
10/22/2021 6:45:00 AM 12.4 54.32 0.102 7.24 13.27 10.29
10/22/2021 7:00:00 AM 12.39 54.302 0.102 7.25 13.24 10.3
10/22/2021 7:15:00 AM 12.38 54.284 0.102 7.25 13.25 10.3
10/22/2021 7:30:00 AM 12.37 54.266 0.103 7.26 13.12 10.31
10/22/2021 7:45:00 AM 12.36 54.248 0.103 7.26 12.98 10.32
10/22/2021 8:00:00 AM 12.35 54.23 0.103 7.26 12.76 10.33
10/22/2021 8:15:00 AM 12.35 54.23 0.103 7.25 12.71 10.35
10/22/2021 8:30:00 AM 12.35 54.23 0.103 7.26 12.69 10.39
10/22/2021 8:45:00 AM 12.35 54.23 0.103 7.26 12.55 10.42
10/22/2021 9:00:00 AM 12.36 54.248 0.103 7.28 12.52 10.48
10/22/2021 9:15:00 AM 12.37 54.266 0.103 7.29 12.43 10.57
10/22/2021 9:30:00 AM 12.38 54.284 0.103 7.31 12.39 10.64
10/22/2021 9:45:00 AM 12.41 54.338 0.103 7.33 12.26 10.75
10/22/2021 10:00:00 AM 12.45 54.41 0.103 7.35 12.15 10.85
10/22/2021 10:15:00 AM 12.47 54.446 0.102 7.38 12.17 10.87
10/22/2021 10:30:00 AM 12.51 54.518 0.102 7.4 11.96 10.91
10/22/2021 10:45:00 AM 12.54 54.572 0.102 7.42 12 10.97
10/22/2021 11:00:00 AM 12.58 54.644 0.102 7.44 11.86 11
10/22/2021 11:15:00 AM 12.64 54.752 0.102 7.47 11.72 11.06
10/22/2021 11:30:00 AM 12.7 54.86 0.102 7.5 11.53 11.12
10/22/2021 11:45:00 AM 12.71 54.878 0.102 7.51 11.57 11.03
10/22/2021 12:00:00 PM 12.71 54.878 0.102 7.48 11.44 10.96
10/22/2021 12:15:00 PM 12.74 54.932 0.102 7.5 11.37 11.01
10/22/2021 12:30:00 PM 12.78 55.004 0.101 7.52 11.24 11.07
10/22/2021 12:45:00 PM 12.79 55.022 0.101 7.52 11.19 11.05
10/22/2021 1:00:00 PM 12.79 55.022 0.101 7.52 11.15 11.02
10/22/2021 1:15:00 PM 12.79 55.022 0.101 7.52 11.13 10.97
10/22/2021 1:30:00 PM 12.78 55.004 0.101 7.52 11.05 10.98
10/22/2021 1:45:00 PM 12.79 55.022 0.1 7.52 11.09 10.96
10/22/2021 2:00:00 PM 12.81 55.058 0.1 7.52 11.04 11
10/22/2021 2:15:00 PM 12.87 55.166 0.1 7.55 11.07 11.11
10/22/2021 2:30:00 PM 12.89 55.202 0.1 7.58 10.97 11.13
10/22/2021 2:45:00 PM 12.93 55.274 0.099 7.59 11.01 11.11
10/22/2021 3:00:00 PM 12.98 55.364 0.099 7.59 10.99 11.1
10/22/2021 3:15:00 PM 13.02 55.436 0.099 7.61 11.01 11.11
10/22/2021 3:30:00 PM 13.02 55.436 0.099 7.6 10.98 11.02
10/22/2021 3:45:00 PM 13.02 55.436 0.099 7.57 11.03 10.91
10/22/2021 4:00:00 PM 13.01 55.418 0.098 7.54 11.07 10.86
10/22/2021 4:15:00 PM 13.04 55.472 0.098 7.55 11.01 10.96
10/22/2021 4:30:00 PM 13.02 55.436 0.098 7.56 11.08 10.94
10/22/2021 4:45:00 PM 13.01 55.418 0.098 7.56 11.07 10.92
10/22/2021 5:00:00 PM 13 55.4 0.098 7.54 11.14 10.88
10/22/2021 5:15:00 PM 12.98 55.364 0.098 7.52 11.14 10.83
10/22/2021 5:30:00 PM 12.94 55.292 0.098 7.49 11.21 10.71
10/22/2021 5:45:00 PM 12.91 55.238 0.098 7.46 11.16 10.62
10/22/2021 6:00:00 PM 12.87 55.166 0.098 7.43 11.14 10.55
10/22/2021 6:15:00 PM 12.82 55.076 0.098 7.4 11.15 10.48
10/22/2021 6:30:00 PM 12.8 55.04 0.098 7.38 11.21 10.42
10/22/2021 6:45:00 PM 12.75 54.95 0.098 7.35 11.34 10.37
10/22/2021 7:00:00 PM 12.7 54.86 0.098 7.32 11.4 10.35
10/22/2021 7:15:00 PM 12.64 54.752 0.098 7.31 11.49 10.33
10/22/2021 7:30:00 PM 12.58 54.644 0.098 7.3 11.47 10.32
10/22/2021 7:45:00 PM 12.52 54.536 0.098 7.29 11.51 10.33
10/22/2021 8:00:00 PM 12.46 54.428 0.098 7.28 11.46 10.33
10/22/2021 8:15:00 PM 12.4 54.32 0.098 7.27 11.53 10.34
10/22/2021 8:30:00 PM 12.36 54.248 0.098 7.26 11.58 10.35
10/22/2021 8:45:00 PM 12.31 54.158 0.098 7.26 11.58 10.36
10/22/2021 9:00:00 PM 12.26 54.068 0.098 7.25 11.61 10.37
10/22/2021 9:15:00 PM 12.2 53.96 0.098 7.26 11.69 10.38
10/22/2021 9:30:00 PM 12.13 53.834 0.098 7.25 11.71 10.4
10/22/2021 9:45:00 PM 12.07 53.726 0.098 7.25 11.81 10.41
10/22/2021 10:00:00 PM 12 53.6 0.098 7.24 11.77 10.43
10/22/2021 10:15:00 PM 11.93 53.474 0.098 7.24 11.79 10.45
10/22/2021 10:30:00 PM 11.85 53.33 0.098 7.24 11.84 10.47
10/22/2021 10:45:00 PM 11.8 53.24 0.098 7.23 11.82 10.49
10/22/2021 11:00:00 PM 11.75 53.15 0.098 7.23 11.88 10.5
10/22/2021 11:15:00 PM 11.7 53.06 0.098 7.23 11.99 10.51
10/22/2021 11:30:00 PM 11.66 52.988 0.098 7.24 11.99 10.53
10/22/2021 11:45:00 PM 11.62 52.916 0.098 7.24 11.98 10.54
10/23/2021 12:00:00 AM 11.58 52.844 0.098 7.23 11.92 10.55
10/23/2021 12:15:00 AM 11.54 52.772 0.098 7.24 12.04 10.56
10/23/2021 12:30:00 AM 11.51 52.718 0.098 7.23 11.99 10.57
10/23/2021 12:45:00 AM 11.48 52.664 0.098 7.23 12.02 10.58
10/23/2021 1:00:00 AM 11.44 52.592 0.098 7.23 12.05 10.59
10/23/2021 1:15:00 AM 11.4 52.52 0.098 7.24 12.18 10.6
10/23/2021 1:30:00 AM 11.36 52.448 0.098 7.22 12.18 10.61
10/23/2021 1:45:00 AM 11.33 52.394 0.098 7.22 12.28 10.62
10/23/2021 2:00:00 AM 11.29 52.322 0.098 7.23 12.25 10.63
10/23/2021 2:15:00 AM 11.26 52.268 0.098 7.23 12.24 10.64
10/23/2021 2:30:00 AM 11.22 52.196 0.098 7.22 12.18 10.65
10/23/2021 2:45:00 AM 11.18 52.124 0.098 7.23 12.38 10.65
10/23/2021 3:00:00 AM 11.14 52.052 0.098 7.22 12.24 10.66
10/23/2021 3:15:00 AM 11.11 51.998 0.098 7.22 12.27 10.67
10/23/2021 3:30:00 AM 11.07 51.926 0.098 7.22 12.3 10.68
10/23/2021 3:45:00 AM 11.04 51.872 0.098 7.22 12.42 10.69
10/23/2021 4:00:00 AM 11.01 51.818 0.098 7.22 12.31 10.7
10/23/2021 4:15:00 AM 10.98 51.764 0.098 7.22 12.33 10.71
10/23/2021 4:30:00 AM 10.95 51.71 0.098 7.22 12.42 10.71
10/23/2021 4:45:00 AM 10.92 51.656 0.098 7.22 12.44 10.73
10/23/2021 5:00:00 AM 10.88 51.584 0.098 7.22 12.55 10.73
10/23/2021 5:15:00 AM 10.84 51.512 0.098 7.22 12.48 10.74
10/23/2021 5:30:00 AM 10.82 51.476 0.098 7.21 12.54 10.75
10/23/2021 5:45:00 AM 10.78 51.404 0.098 7.21 12.69 10.76
10/23/2021 6:00:00 AM 10.76 51.368 0.098 7.22 12.68 10.77
10/23/2021 6:15:00 AM 10.73 51.314 0.098 7.22 12.61 10.78
10/23/2021 6:30:00 AM 10.71 51.278 0.098 7.21 12.58 10.79
10/23/2021 6:45:00 AM 10.68 51.224 0.098 7.21 12.63 10.8
10/23/2021 7:00:00 AM 10.66 51.188 0.098 7.21 12.64 10.81
10/23/2021 7:15:00 AM 10.64 51.152 0.098 7.21 12.71 10.82
10/23/2021 7:30:00 AM 10.62 51.116 0.098 7.22 12.74 10.83
10/23/2021 7:45:00 AM 10.59 51.062 0.098 7.22 12.71 10.86
10/23/2021 8:00:00 AM 10.58 51.044 0.098 7.23 12.73 10.92
10/23/2021 8:15:00 AM 10.58 51.044 0.098 7.24 12.66 11.04
10/23/2021 8:30:00 AM 10.58 51.044 0.098 7.27 12.74 11.11
10/23/2021 8:45:00 AM 10.57 51.026 0.097 7.27 12.65 11.14
10/23/2021 9:00:00 AM 10.57 51.026 0.097 7.29 12.69 11.16
10/23/2021 9:15:00 AM 10.57 51.026 0.097 7.3 12.64 11.23
10/23/2021 9:30:00 AM 10.58 51.044 0.097 7.32 12.67 11.33
10/23/2021 9:45:00 AM 10.59 51.062 0.097 7.34 12.69 11.41
10/23/2021 10:00:00 AM 10.6 51.08 0.097 7.36 12.63 11.46
10/23/2021 10:15:00 AM 10.63 51.134 0.097 7.39 12.65 11.57
10/23/2021 10:30:00 AM 10.65 51.17 0.097 7.41 12.56 11.62
10/23/2021 10:45:00 AM 10.66 51.188 0.097 7.43 12.65 11.63
10/23/2021 11:00:00 AM 10.68 51.224 0.096 7.46 12.69 11.67
10/23/2021 11:15:00 AM 10.71 51.278 0.096 7.48 12.51 11.72
10/23/2021 11:30:00 AM 10.75 51.35 0.096 7.51 12.55 11.77
10/23/2021 11:45:00 AM 10.78 51.404 0.096 7.53 12.5 11.79
10/23/2021 12:00:00 PM 10.82 51.476 0.096 7.55 12.52 11.8
10/23/2021 12:15:00 PM 10.86 51.548 0.096 7.57 12.49 11.81
10/23/2021 12:30:00 PM 10.91 51.638 0.095 7.59 12.29 11.85
10/23/2021 12:45:00 PM 10.95 51.71 0.095 7.61 12.3 11.84
10/23/2021 1:00:00 PM 11 51.8 0.095 7.63 12.17 11.86
10/23/2021 1:15:00 PM 11.03 51.854 0.095 7.64 12.03 11.83
10/23/2021 1:30:00 PM 11.06 51.908 0.095 7.65 12.38 11.78
10/23/2021 1:45:00 PM 11.07 51.926 0.095 7.64 12.35 11.72
10/23/2021 2:00:00 PM 11.1 51.98 0.095 7.64 12.38 11.72
10/23/2021 2:15:00 PM 11.13 52.034 0.095 7.64 12.27 11.71
10/23/2021 2:30:00 PM 11.14 52.052 0.095 7.63 12.36 11.65
10/23/2021 2:45:00 PM 11.15 52.07 0.095 7.61 12.46 11.54
10/23/2021 3:00:00 PM 11.13 52.034 0.095 7.55 12.62 11.36
10/23/2021 3:15:00 PM 11.14 52.052 0.095 7.51 12.61 11.3
10/23/2021 3:30:00 PM 11.17 52.106 0.095 7.52 12.77 11.43
10/23/2021 3:45:00 PM 11.18 52.124 0.095 7.55 12.75 11.52
10/23/2021 4:00:00 PM 11.21 52.178 0.095 7.56 12.83 11.55
10/23/2021 4:15:00 PM 11.23 52.214 0.095 7.58 12.68 11.57
10/23/2021 4:30:00 PM 11.25 52.25 0.095 7.59 12.66 11.56
10/23/2021 4:45:00 PM 11.26 52.268 0.095 7.58 12.6 11.52
10/23/2021 5:00:00 PM 11.27 52.286 0.095 7.57 12.62 11.49
10/23/2021 5:15:00 PM 11.27 52.286 0.095 7.56 12.64 11.43
10/23/2021 5:30:00 PM 11.25 52.25 0.095 7.53 12.83 11.33
10/23/2021 5:45:00 PM 11.23 52.214 0.095 7.49 12.82 11.22
10/23/2021 6:00:00 PM 11.2 52.16 0.095 7.46 12.86 11.11
10/23/2021 6:15:00 PM 11.16 52.088 0.095 7.42 12.91 11.01
10/23/2021 6:30:00 PM 11.12 52.016 0.095 7.39 12.97 10.93
10/23/2021 6:45:00 PM 11.08 51.944 0.095 7.36 13.08 10.87
10/23/2021 7:00:00 PM 11.03 51.854 0.095 7.34 13.04 10.84
10/23/2021 7:15:00 PM 10.98 51.764 0.095 7.32 13.26 10.83
10/23/2021 7:30:00 PM 10.94 51.692 0.096 7.29 13.28 10.82
10/23/2021 7:45:00 PM 10.91 51.638 0.096 7.29 13.42 10.81
10/23/2021 8:00:00 PM 10.88 51.584 0.096 7.28 13.4 10.81
10/23/2021 8:15:00 PM 10.85 51.53 0.096 7.27 13.44 10.8
10/23/2021 8:30:00 PM 10.83 51.494 0.096 7.27 13.5 10.8
10/23/2021 8:45:00 PM 10.79 51.422 0.096 7.26 13.56 10.81
10/23/2021 9:00:00 PM 10.75 51.35 0.096 7.25 13.45 10.82
10/23/2021 9:15:00 PM 10.72 51.296 0.096 7.25 13.57 10.82
10/23/2021 9:30:00 PM 10.68 51.224 0.096 7.25 13.73 10.83
10/23/2021 9:45:00 PM 10.64 51.152 0.096 7.25 13.77 10.84
10/23/2021 10:00:00 PM 10.6 51.08 0.096 7.23 13.63 10.85
10/23/2021 10:15:00 PM 10.57 51.026 0.096 7.24 13.69 10.86
10/23/2021 10:30:00 PM 10.54 50.972 0.096 7.23 13.71 10.87
10/23/2021 10:45:00 PM 10.51 50.918 0.096 7.24 13.76 10.88
10/23/2021 11:00:00 PM 10.49 50.882 0.096 7.23 13.68 10.88
10/23/2021 11:15:00 PM 10.46 50.828 0.096 7.23 13.92 10.89
10/23/2021 11:30:00 PM 10.45 50.81 0.097 7.23 13.84 10.9
10/23/2021 11:45:00 PM 10.43 50.774 0.097 7.23 13.88 10.91
10/24/2021 12:00:00 AM 10.41 50.738 0.097 7.23 13.73 10.91
10/24/2021 12:15:00 AM 10.39 50.702 0.097 7.23 13.81 10.92
10/24/2021 12:30:00 AM 10.37 50.666 0.097 7.23 13.72 10.93
10/24/2021 12:45:00 AM 10.35 50.63 0.097 7.23 13.84 10.93
10/24/2021 1:00:00 AM 10.32 50.576 0.097 7.22 13.75 10.94
10/24/2021 1:15:00 AM 10.31 50.558 0.097 7.24 14.02 10.94
10/24/2021 1:30:00 AM 10.3 50.54 0.097 7.23 13.93 10.95
10/24/2021 1:45:00 AM 10.28 50.504 0.097 7.22 13.91 10.95
10/24/2021 2:00:00 AM 10.27 50.486 0.097 7.22 14.04 10.96
10/24/2021 2:15:00 AM 10.25 50.45 0.097 7.22 14.19 10.97
10/24/2021 2:30:00 AM 10.23 50.414 0.097 7.22 14.02 10.97
10/24/2021 2:45:00 AM 10.21 50.378 0.097 7.23 14.13 10.98
10/24/2021 3:00:00 AM 10.2 50.36 0.097 7.23 14.22 10.99
10/24/2021 3:15:00 AM 10.19 50.342 0.097 7.22 14.16 10.99
10/24/2021 3:30:00 AM 10.17 50.306 0.097 7.22 14.2 10.99
10/24/2021 3:45:00 AM 10.16 50.288 0.098 7.22 14.12 11
10/24/2021 4:00:00 AM 10.14 50.252 0.098 7.22 14.12 11
10/24/2021 4:15:00 AM 10.12 50.216 0.098 7.23 14.24 11.01
10/24/2021 4:30:00 AM 10.1 50.18 0.098 7.23 14.13 11.02
10/24/2021 4:45:00 AM 10.08 50.144 0.098 7.22 14.13 11.03
10/24/2021 5:00:00 AM 10.06 50.108 0.098 7.22 14.16 11.03
10/24/2021 5:15:00 AM 10.05 50.09 0.098 7.22 14.23 11.04
10/24/2021 5:30:00 AM 10.04 50.072 0.098 7.23 14.29 11.04
10/24/2021 5:45:00 AM 10.02 50.036 0.098 7.23 14.33 11.05
10/24/2021 6:00:00 AM 10.01 50.018 0.098 7.23 14.29 11.05
10/24/2021 6:15:00 AM 9.99 49.982 0.098 7.22 14.35 11.06
10/24/2021 6:30:00 AM 9.98 49.964 0.098 7.22 14.31 11.06
10/24/2021 6:45:00 AM 9.96 49.928 0.098 7.22 14.43 11.07
10/24/2021 7:00:00 AM 9.95 49.91 0.098 7.22 14.4 11.07
10/24/2021 7:15:00 AM 9.94 49.892 0.098 7.23 14.59 11.08
10/24/2021 7:30:00 AM 9.94 49.892 0.098 7.23 14.49 11.08
10/24/2021 7:45:00 AM 9.93 49.874 0.098 7.23 14.49 11.1
10/24/2021 8:00:00 AM 9.93 49.874 0.098 7.23 14.51 11.13
10/24/2021 8:15:00 AM 9.93 49.874 0.098 7.25 14.44 11.19
10/24/2021 8:30:00 AM 9.93 49.874 0.097 7.25 14.42 11.29
10/24/2021 8:45:00 AM 9.95 49.91 0.097 7.28 14.5 11.36
10/24/2021 9:00:00 AM 9.96 49.928 0.097 7.29 14.43 11.43
10/24/2021 9:15:00 AM 9.98 49.964 0.097 7.31 14.47 11.54
10/24/2021 9:30:00 AM 9.99 49.982 0.097 7.33 14.45 11.59
10/24/2021 9:45:00 AM 10.02 50.036 0.097 7.35 14.47 11.64
10/24/2021 10:00:00 AM 10.04 50.072 0.097 7.37 14.46 11.7
10/24/2021 10:15:00 AM 10.07 50.126 0.097 7.4 14.26 11.82
10/24/2021 10:30:00 AM 10.11 50.198 0.097 7.43 14.3 11.91
10/24/2021 10:45:00 AM 10.15 50.27 0.097 7.46 14.38 11.92
10/24/2021 11:00:00 AM 10.19 50.342 0.097 7.49 14.35 11.92
10/24/2021 11:15:00 AM 10.23 50.414 0.097 7.51 14.3 11.94
10/24/2021 11:30:00 AM 10.27 50.486 0.097 7.52 14.17 11.99
10/24/2021 11:45:00 AM 10.32 50.576 0.097 7.56 14.31 12.04
10/24/2021 12:00:00 PM 10.37 50.666 0.097 7.59 14.28 12.05
10/24/2021 12:15:00 PM 10.39 50.702 0.097 7.59 14.25 11.92
10/24/2021 12:30:00 PM 10.43 50.774 0.097 7.58 14.31 11.9
10/24/2021 12:45:00 PM 10.46 50.828 0.097 7.58 14.34 11.94
10/24/2021 1:00:00 PM 10.52 50.936 0.097 7.61 14.24 12
10/24/2021 1:15:00 PM 10.58 51.044 0.096 7.64 14.18 12.06
10/24/2021 1:30:00 PM 10.67 51.206 0.096 7.69 14.16 12.09
10/24/2021 1:45:00 PM 10.7 51.26 0.096 7.7 14.12 12.02
10/24/2021 2:00:00 PM 10.72 51.296 0.096 7.69 14.19 11.96
10/24/2021 2:15:00 PM 10.73 51.314 0.096 7.67 14.17 11.88
10/24/2021 2:30:00 PM 10.73 51.314 0.096 7.64 14.23 11.79
10/24/2021 2:45:00 PM 10.73 51.314 0.096 7.61 14.25 11.68
10/24/2021 3:00:00 PM 10.74 51.332 0.096 7.59 14.35 11.69
10/24/2021 3:15:00 PM 10.76 51.368 0.096 7.6 14.42 11.73
10/24/2021 3:30:00 PM 10.77 51.386 0.096 7.58 14.25 11.67
10/24/2021 3:45:00 PM 10.77 51.386 0.096 7.56 14.38 11.54
10/24/2021 4:00:00 PM 10.77 51.386 0.096 7.53 14.49 11.45
10/24/2021 4:15:00 PM 10.77 51.386 0.096 7.5 14.54 11.39
10/24/2021 4:30:00 PM 10.78 51.404 0.096 7.47 14.5 11.36
10/24/2021 4:45:00 PM 10.78 51.404 0.096 7.46 14.52 11.35
10/24/2021 5:00:00 PM 10.8 51.44 0.096 7.45 14.54 11.36
10/24/2021 5:15:00 PM 10.8 51.44 0.096 7.45 14.8 11.33
10/24/2021 5:30:00 PM 10.8 51.44 0.096 7.44 14.61 11.27
10/24/2021 5:45:00 PM 10.8 51.44 0.096 7.41 14.81 11.16
10/24/2021 6:00:00 PM 10.79 51.422 0.096 7.39 14.86 11.06
10/24/2021 6:15:00 PM 10.78 51.404 0.097 7.36 14.71 10.99
10/24/2021 6:30:00 PM 10.77 51.386 0.096 7.34 14.79 10.94
10/24/2021 6:45:00 PM 10.77 51.386 0.096 7.32 14.98 10.91
10/24/2021 7:00:00 PM 10.76 51.368 0.096 7.3 15.07 10.89
10/24/2021 7:15:00 PM 10.75 51.35 0.096 7.29 15.12 10.88
10/24/2021 7:30:00 PM 10.75 51.35 0.096 7.29 15.07 10.87
10/24/2021 7:45:00 PM 10.75 51.35 0.096 7.28 15.2 10.86
10/24/2021 8:00:00 PM 10.74 51.332 0.096 7.26 15.15 10.85
10/24/2021 8:15:00 PM 10.74 51.332 0.096 7.26 15.35 10.85
10/24/2021 8:30:00 PM 10.74 51.332 0.096 7.26 15.21 10.84
10/24/2021 8:45:00 PM 10.73 51.314 0.096 7.25 15.15 10.84
10/24/2021 9:00:00 PM 10.73 51.314 0.096 7.25 15.34 10.83
10/24/2021 9:15:00 PM 10.73 51.314 0.096 7.25 15.18 10.83
10/24/2021 9:30:00 PM 10.72 51.296 0.095 7.24 15.19 10.83
10/24/2021 9:45:00 PM 10.72 51.296 0.095 7.24 15.34 10.83
10/24/2021 10:00:00 PM 10.71 51.278 0.095 7.24 15.42 10.82
10/24/2021 10:15:00 PM 10.71 51.278 0.095 7.23 15.43 10.82
10/24/2021 10:30:00 PM 10.71 51.278 0.095 7.23 15.38 10.82
10/24/2021 10:45:00 PM 10.71 51.278 0.095 7.22 15.44 10.82
10/24/2021 11:00:00 PM 10.71 51.278 0.095 7.23 15.56 10.82
10/24/2021 11:15:00 PM 10.71 51.278 0.095 7.21 15.38 10.82
10/24/2021 11:30:00 PM 10.71 51.278 0.095 7.22 15.94 10.81
10/24/2021 11:45:00 PM 10.71 51.278 0.095 7.23 15.77 10.81
10/25/2021 12:00:00 AM 10.71 51.278 0.095 7.22 15.78 10.81
10/25/2021 12:15:00 AM 10.72 51.296 0.095 7.22 15.73 10.81
10/25/2021 12:30:00 AM 10.72 51.296 0.095 7.22 15.7 10.81
10/25/2021 12:45:00 AM 10.72 51.296 0.095 7.22 15.73 10.81
10/25/2021 1:00:00 AM 10.73 51.314 0.095 7.21 15.6 10.81
10/25/2021 1:15:00 AM 10.73 51.314 0.095 7.22 15.78 10.81
10/25/2021 1:30:00 AM 10.73 51.314 0.095 7.22 15.65 10.81
10/25/2021 1:45:00 AM 10.74 51.332 0.095 7.21 15.49 10.8
10/25/2021 2:00:00 AM 10.75 51.35 0.095 7.22 15.64 10.8
10/25/2021 2:15:00 AM 10.75 51.35 0.095 7.22 15.65 10.81
10/25/2021 2:30:00 AM 10.76 51.368 0.095 7.21 15.59 10.8
10/25/2021 2:45:00 AM 10.77 51.386 0.095 7.22 15.51 10.8
10/25/2021 3:00:00 AM 10.78 51.404 0.095 7.22 15.37 10.8
10/25/2021 3:15:00 AM 10.78 51.404 0.095 7.21 15.58 10.8
10/25/2021 3:30:00 AM 10.79 51.422 0.095 7.22 15.58 10.79
10/25/2021 3:45:00 AM 10.79 51.422 0.095 7.21 15.56 10.79
10/25/2021 4:00:00 AM 10.79 51.422 0.095 7.22 15.7 10.79
10/25/2021 4:15:00 AM 10.79 51.422 0.095 7.23 15.64 10.79
10/25/2021 4:30:00 AM 10.79 51.422 0.095 7.22 15.72 10.79
10/25/2021 4:45:00 AM 10.79 51.422 0.096 7.21 15.56 10.79
10/25/2021 5:00:00 AM 10.78 51.404 0.096 7.22 15.63 10.79
10/25/2021 5:15:00 AM 10.78 51.404 0.096 7.21 15.67 10.79
10/25/2021 5:30:00 AM 10.78 51.404 0.096 7.23 15.77 10.79
10/25/2021 5:45:00 AM 10.78 51.404 0.097 7.22 15.76 10.79
10/25/2021 6:00:00 AM 10.78 51.404 0.097 7.22 15.54 10.78
10/25/2021 6:15:00 AM 10.77 51.386 0.097 7.22 15.65 10.79
10/25/2021 6:30:00 AM 10.76 51.368 0.097 7.22 15.86 10.79
10/25/2021 6:45:00 AM 10.75 51.35 0.098 7.22 15.84 10.79
10/25/2021 7:00:00 AM 10.73 51.314 0.098 7.22 15.81 10.79
10/25/2021 7:15:00 AM 10.72 51.296 0.098 7.22 15.84 10.8
10/25/2021 7:30:00 AM 10.71 51.278 0.098 7.22 15.65 10.8
10/25/2021 7:45:00 AM 10.7 51.26 0.099 7.23 15.67 10.82
10/25/2021 8:00:00 AM 10.7 51.26 0.099 7.23 15.55 10.85
10/25/2021 8:15:00 AM 10.71 51.278 0.099 7.24 15.54 10.92
10/25/2021 8:30:00 AM 10.73 51.314 0.099 7.26 15.59 11.02
10/25/2021 8:45:00 AM 10.77 51.386 0.099 7.28 15.31 11.14
10/25/2021 9:00:00 AM 10.82 51.476 0.099 7.32 15.26 11.28
10/25/2021 9:15:00 AM 10.88 51.584 0.099 7.35 14.85 11.42
10/25/2021 9:30:00 AM 10.94 51.692 0.099 7.4 15.34 11.52
10/25/2021 9:45:00 AM 11.01 51.818 0.099 7.43 15.33 11.6
10/25/2021 10:00:00 AM 11.08 51.944 0.099 7.48 15.18 11.65
10/25/2021 10:15:00 AM 11.12 52.016 0.099 7.5 14.91 11.63
10/25/2021 10:30:00 AM 11.19 52.142 0.1 7.52 14.71 11.61
10/25/2021 10:45:00 AM 11.26 52.268 0.1 7.54 14.69 11.6
10/25/2021 11:00:00 AM 11.32 52.376 0.1 7.54 14.59 11.55
10/25/2021 11:15:00 AM 11.39 52.502 0.1 7.55 14.66 11.54
10/25/2021 11:30:00 AM 11.49 52.682 0.1 7.57 14.65 11.53
10/25/2021 11:45:00 AM 11.6 52.88 0.1 7.58 14.54 11.52
10/25/2021 12:00:00 PM 11.71 53.078 0.1 7.6 14.39 11.52
10/25/2021 12:15:00 PM 11.83 53.294 0.1 7.62 14.42 11.51
10/25/2021 12:30:00 PM 11.96 53.528 0.099 7.64 14.36 11.5
10/25/2021 12:45:00 PM 12.09 53.762 0.099 7.66 14.34 11.48
10/25/2021 1:00:00 PM 12.24 54.032 0.099 7.68 14.38 11.47
10/25/2021 1:15:00 PM 12.37 54.266 0.099 7.7 14.25 11.46
10/25/2021 1:30:00 PM 12.5 54.5 0.099 7.71 14.13 11.44
10/25/2021 1:45:00 PM 12.62 54.716 0.099 7.71 14.22 11.42
10/25/2021 2:00:00 PM 12.7 54.86 0.099 7.75 14.31 11.38
10/25/2021 2:15:00 PM 12.81 55.058 0.099 7.76 14.12 11.43
10/25/2021 2:30:00 PM 12.89 55.202 0.099 7.81 14.25 11.43
10/25/2021 2:45:00 PM 12.92 55.256 0.099 7.82 14.24 11.4
10/25/2021 3:00:00 PM 12.99 55.382 0.099 7.85 14.22 11.44
10/25/2021 3:15:00 PM 13.05 55.49 0.099 7.87 14.24 11.43
10/25/2021 3:30:00 PM 13.1 55.58 0.099 7.88 14.24 11.4
10/25/2021 3:45:00 PM 13.13 55.634 0.099 7.88 14.24 11.3
10/25/2021 4:00:00 PM 13.16 55.688 0.099 7.84 14.25 11.24
10/25/2021 4:15:00 PM 13.18 55.724 0.099 7.81 14.37 11.16
10/25/2021 4:30:00 PM 13.19 55.742 0.099 7.77 14.23 11.1
10/25/2021 4:45:00 PM 13.2 55.76 0.098 7.74 14.53 11
10/25/2021 5:00:00 PM 13.21 55.778 0.098 7.69 14.71 10.85
10/25/2021 5:15:00 PM 13.22 55.796 0.099 7.63 14.7 10.73
10/25/2021 5:30:00 PM 13.23 55.814 0.098 7.59 14.73 10.68
10/25/2021 5:45:00 PM 13.23 55.814 0.099 7.54 14.74 10.55
10/25/2021 6:00:00 PM 13.21 55.778 0.099 7.49 14.98 10.4
10/25/2021 6:15:00 PM 13.2 55.76 0.099 7.46 15.03 10.31
10/25/2021 6:30:00 PM 13.18 55.724 0.099 7.41 14.94 10.24
10/25/2021 6:45:00 PM 13.16 55.688 0.099 7.38 15.09 10.19
10/25/2021 7:00:00 PM 13.13 55.634 0.099 7.35 15.06 10.17
10/25/2021 7:15:00 PM 13.1 55.58 0.099 7.33 15.22 10.15
10/25/2021 7:30:00 PM 13.07 55.526 0.099 7.31 15.18 10.14
10/25/2021 7:45:00 PM 13.04 55.472 0.099 7.3 15.29 10.13
10/25/2021 8:00:00 PM 13.01 55.418 0.099 7.29 15.46 10.12
10/25/2021 8:15:00 PM 12.98 55.364 0.099 7.28 15.56 10.12
10/25/2021 8:30:00 PM 12.95 55.31 0.099 7.26 15.56 10.12
10/25/2021 8:45:00 PM 12.93 55.274 0.099 7.25 15.5 10.12
10/25/2021 9:00:00 PM 12.9 55.22 0.099 7.24 15.54 10.12
10/25/2021 9:15:00 PM 12.87 55.166 0.099 7.24 15.66 10.13
10/25/2021 9:30:00 PM 12.85 55.13 0.099 7.23 15.73 10.13
10/25/2021 9:45:00 PM 12.83 55.094 0.099 7.23 15.69 10.13
10/25/2021 10:00:00 PM 12.8 55.04 0.099 7.22 15.58 10.13
10/25/2021 10:15:00 PM 12.79 55.022 0.099 7.22 15.83 10.14
10/25/2021 10:30:00 PM 12.77 54.986 0.099 7.22 15.73 10.14
10/25/2021 10:45:00 PM 12.75 54.95 0.099 7.21 15.82 10.14
10/25/2021 11:00:00 PM 12.73 54.914 0.099 7.21 15.81 10.14
10/25/2021 11:15:00 PM 12.71 54.878 0.099 7.21 15.77 10.15
10/25/2021 11:30:00 PM 12.7 54.86 0.099 7.2 15.86 10.15
10/25/2021 11:45:00 PM 12.68 54.824 0.099 7.2 16.01 10.15
10/26/2021 12:00:00 AM 12.66 54.788 0.099 7.21 15.97 10.15
10/26/2021 12:15:00 AM 12.65 54.77 0.099 7.2 16.05 10.16
10/26/2021 12:30:00 AM 12.63 54.734 0.099 7.2 16.05 10.16
10/26/2021 12:45:00 AM 12.61 54.698 0.099 7.21 16.33 10.16
10/26/2021 1:00:00 AM 12.6 54.68 0.099 7.2 16.13 10.16
10/26/2021 1:15:00 AM 12.59 54.662 0.099 7.2 15.97 10.17
10/26/2021 1:30:00 AM 12.57 54.626 0.099 7.2 16.02 10.17
10/26/2021 1:45:00 AM 12.56 54.608 0.099 7.21 16.19 10.17
10/26/2021 2:00:00 AM 12.55 54.59 0.099 7.2 16.03 10.17
10/26/2021 2:15:00 AM 12.54 54.572 0.099 7.2 16.03 10.17
10/26/2021 2:30:00 AM 12.52 54.536 0.099 7.21 15.99 10.17
10/26/2021 2:45:00 AM 12.51 54.518 0.099 7.2 16.09 10.17
10/26/2021 3:00:00 AM 12.49 54.482 0.099 7.19 15.92 10.17
10/26/2021 3:15:00 AM 12.47 54.446 0.099 7.19 16.02 10.18
10/26/2021 3:30:00 AM 12.46 54.428 0.099 7.19 16.09 10.18
10/26/2021 3:45:00 AM 12.44 54.392 0.099 7.19 16.12 10.18
10/26/2021 4:00:00 AM 12.43 54.374 0.099 7.2 16.25 10.19
10/26/2021 4:15:00 AM 12.42 54.356 0.099 7.18 16.17 10.19
10/26/2021 4:30:00 AM 12.41 54.338 0.099 7.19 16.3 10.19
10/26/2021 4:45:00 AM 12.4 54.32 0.099 7.19 16.28 10.19
10/26/2021 5:00:00 AM 12.39 54.302 0.099 7.2 16.32 10.19
10/26/2021 5:15:00 AM 12.38 54.284 0.099 7.19 16.43 10.2
10/26/2021 5:30:00 AM 12.37 54.266 0.099 7.19 16.27 10.2
10/26/2021 5:45:00 AM 12.36 54.248 0.099 7.19 16.35 10.2
10/26/2021 6:00:00 AM 12.35 54.23 0.099 7.19 16.46 10.2
10/26/2021 6:15:00 AM 12.35 54.23 0.099 7.19 16.48 10.21
10/26/2021 6:30:00 AM 12.34 54.212 0.099 7.19 16.63 10.21
10/26/2021 6:45:00 AM 12.34 54.212 0.099 7.19 16.41 10.21
10/26/2021 7:00:00 AM 12.33 54.194 0.099 7.2 16.53 10.21
10/26/2021 7:15:00 AM 12.33 54.194 0.099 7.2 16.57 10.21
10/26/2021 7:30:00 AM 12.32 54.176 0.098 7.2 16.48 10.21
10/26/2021 7:45:00 AM 12.32 54.176 0.098 7.19 16.43 10.22
10/26/2021 8:00:00 AM 12.31 54.158 0.098 7.21 16.51 10.23
10/26/2021 8:15:00 AM 12.31 54.158 0.098 7.21 16.43 10.25
10/26/2021 8:30:00 AM 12.31 54.158 0.098 7.21 16.35 10.26
10/26/2021 8:45:00 AM 12.31 54.158 0.098 7.21 16.37 10.28
10/26/2021 9:00:00 AM 12.31 54.158 0.098 7.22 16.28 10.32
10/26/2021 9:15:00 AM 12.31 54.158 0.098 7.23 16.51 10.33
10/26/2021 9:30:00 AM 12.32 54.176 0.098 7.24 16.38 10.4
10/26/2021 9:45:00 AM 12.33 54.194 0.098 7.26 16.32 10.48
10/26/2021 10:00:00 AM 12.33 54.194 0.097 7.27 16.51 10.53
10/26/2021 10:15:00 AM 12.32 54.176 0.097 7.29 16.25 10.53
10/26/2021 10:30:00 AM 12.32 54.176 0.097 7.29 16.27 10.54
10/26/2021 10:45:00 AM 12.31 54.158 0.097 7.3 16.3 10.56
10/26/2021 11:00:00 AM 12.3 54.14 0.097 7.31 16.31 10.6
10/26/2021 11:15:00 AM 12.29 54.122 0.097 7.3 16.31 10.63
10/26/2021 11:30:00 AM 12.27 54.086 0.097 7.35 16.27 10.69
10/26/2021 11:45:00 AM 12.25 54.05 0.097 7.35 16.22 10.72
10/26/2021 12:00:00 PM 12.23 54.014 0.097 7.37 16.36 10.74
10/26/2021 12:15:00 PM 12.2 53.96 0.097 7.36 16.15 10.76
10/26/2021 12:30:00 PM 12.18 53.924 0.097 7.38 16.04 10.82
10/26/2021 12:45:00 PM 12.17 53.906 0.097 7.41 16.15 10.89
10/26/2021 1:00:00 PM 12.15 53.87 0.097 7.43 16.12 10.95
10/26/2021 1:15:00 PM 12.13 53.834 0.097 7.45 16 10.99
10/26/2021 1:30:00 PM 12.11 53.798 0.097 7.46 16.04 11.02
10/26/2021 1:45:00 PM 12.08 53.744 0.097 7.47 16.21 11.02
10/26/2021 2:00:00 PM 12.05 53.69 0.097 7.48 16.64 11.03
10/26/2021 2:15:00 PM 12.01 53.618 0.097 7.49 16.62 11.01
10/26/2021 2:30:00 PM 11.97 53.546 0.097 7.47 16.38 10.97
10/26/2021 2:45:00 PM 11.93 53.474 0.097 7.47 15.89 10.98
10/26/2021 3:00:00 PM 11.89 53.402 0.096 7.48 16.38 10.98
10/26/2021 3:15:00 PM 11.84 53.312 0.096 7.47 16.29 10.95
10/26/2021 3:30:00 PM 11.8 53.24 0.096 7.47 16.34 10.95
10/26/2021 3:45:00 PM 11.76 53.168 0.096 7.46 16.49 10.97
10/26/2021 4:00:00 PM 11.74 53.132 0.096 7.5 16.73 10.99
10/26/2021 4:15:00 PM 11.69 53.042 0.096 7.46 16.19 10.96
10/26/2021 4:30:00 PM 11.65 52.97 0.095 7.46 16.34 10.91
10/26/2021 4:45:00 PM 11.61 52.898 0.095 7.43 16.44 10.9
10/26/2021 5:00:00 PM 11.57 52.826 0.096 7.42 16.49 10.87
10/26/2021 5:15:00 PM 11.54 52.772 0.096 7.43 16.82 10.82
10/26/2021 5:30:00 PM 11.49 52.682 0.096 7.39 16.52 10.79
10/26/2021 5:45:00 PM 11.46 52.628 0.096 7.38 16.61 10.75
10/26/2021 6:00:00 PM 11.41 52.538 0.096 7.36 16.28 10.71
10/26/2021 6:15:00 PM 11.37 52.466 0.097 7.36 16.85 10.66
10/26/2021 6:30:00 PM 11.32 52.376 0.097 7.33 16.71 10.63
10/26/2021 6:45:00 PM 11.27 52.286 0.098 7.31 16.84 10.62
10/26/2021 7:00:00 PM 11.23 52.214 0.098 7.29 16.86 10.61
10/26/2021 7:15:00 PM 11.2 52.16 0.099 7.31 17.22 10.61
10/26/2021 7:30:00 PM 11.16 52.088 0.1 7.29 17.18 10.61
10/26/2021 7:45:00 PM 11.13 52.034 0.1 7.3 17.37 10.61
10/26/2021 8:00:00 PM 11.09 51.962 0.101 7.3 17.6 10.62
10/26/2021 8:15:00 PM 11.06 51.908 0.101 7.29 17.72 10.63
10/26/2021 8:30:00 PM 11.03 51.854 0.101 7.31 18.12 10.63
10/26/2021 8:45:00 PM 11 51.8 0.101 7.28 17.77 10.64
10/26/2021 9:00:00 PM 10.97 51.746 0.101 7.29 17.99 10.64
10/26/2021 9:15:00 PM 10.95 51.71 0.101 7.28 18.05 10.65
10/26/2021 9:30:00 PM 10.93 51.674 0.101 7.28 18.19 10.66
10/26/2021 9:45:00 PM 10.92 51.656 0.102 7.28 18.49 10.66
10/26/2021 10:00:00 PM 10.9 51.62 0.102 7.29 18.34 10.67
10/26/2021 10:15:00 PM 10.88 51.584 0.103 7.29 18.64 10.67
10/26/2021 10:30:00 PM 10.86 51.548 0.103 7.3 18.76 10.68
10/26/2021 10:45:00 PM 10.85 51.53 0.104 7.29 18.94 10.68
10/26/2021 11:00:00 PM 10.84 51.512 0.104 7.27 18.88 10.68
10/26/2021 11:15:00 PM 10.84 51.512 0.105 7.3 19.03 10.69
10/26/2021 11:30:00 PM 10.83 51.494 0.105 7.3 19.1 10.7
10/26/2021 11:45:00 PM 10.82 51.476 0.105 7.3 19.05 10.7
10/27/2021 12:00:00 AM 10.81 51.458 0.105 7.3 19.19 10.71
10/27/2021 12:15:00 AM 10.8 51.44 0.106 7.3 19.01 10.71
10/27/2021 12:30:00 AM 10.79 51.422 0.106 7.3 18.89 10.72
10/27/2021 12:45:00 AM 10.79 51.422 0.106 7.29 18.86 10.73
10/27/2021 1:00:00 AM 10.79 51.422 0.106 7.3 18.73 10.73
10/27/2021 1:15:00 AM 10.79 51.422 0.106 7.3 18.57 10.73
10/27/2021 1:30:00 AM 10.79 51.422 0.106 7.29 18.32 10.73
10/27/2021 1:45:00 AM 10.79 51.422 0.106 7.29 18.17 10.74
10/27/2021 2:00:00 AM 10.79 51.422 0.105 7.29 17.28 10.74
10/27/2021 2:15:00 AM 10.8 51.44 0.105 7.3 17.69 10.74
10/27/2021 2:30:00 AM 10.8 51.44 0.105 7.29 17.41 10.74
10/27/2021 2:45:00 AM 10.81 51.458 0.105 7.28 17.3 10.74
10/27/2021 3:00:00 AM 10.82 51.476 0.104 7.29 17.15 10.74
10/27/2021 3:15:00 AM 10.83 51.494 0.104 7.28 16.91 10.74
10/27/2021 3:30:00 AM 10.84 51.512 0.104 7.29 17.06 10.74
10/27/2021 3:45:00 AM 10.85 51.53 0.104 7.3 17.21 10.73
10/27/2021 4:00:00 AM 10.86 51.548 0.104 7.3 16.96 10.73
10/27/2021 4:15:00 AM 10.87 51.566 0.104 7.29 17.02 10.73
10/27/2021 4:30:00 AM 10.88 51.584 0.104 7.3 17.15 10.73
10/27/2021 4:45:00 AM 10.89 51.602 0.103 7.29 17.08 10.73
10/27/2021 5:00:00 AM 10.9 51.62 0.103 7.29 16.95 10.72
10/27/2021 5:15:00 AM 10.91 51.638 0.103 7.3 17.11 10.72
10/27/2021 5:30:00 AM 10.92 51.656 0.103 7.28 17.01 10.72
10/27/2021 5:45:00 AM 10.93 51.674 0.103 7.29 16.82 10.72
10/27/2021 6:00:00 AM 10.94 51.692 0.102 7.28 16.97 10.71
10/27/2021 6:15:00 AM 10.96 51.728 0.102 7.29 16.97 10.71
10/27/2021 6:30:00 AM 10.97 51.746 0.102 7.28 16.9 10.71
10/27/2021 6:45:00 AM 10.98 51.764 0.102 7.28 16.96 10.71
10/27/2021 7:00:00 AM 10.98 51.764 0.101 7.28 16.7 10.71
10/27/2021 7:15:00 AM 10.99 51.782 0.101 7.27 16.88 10.71
10/27/2021 7:30:00 AM 11 51.8 0.101 7.27 16.75 10.71
10/27/2021 7:45:00 AM 11.01 51.818 0.1 7.28 16.72 10.71
10/27/2021 8:00:00 AM 11.02 51.836 0.1 7.28 16.9 10.71
10/27/2021 8:15:00 AM 11.02 51.836 0.1 7.27 16.82 10.72
10/27/2021 8:30:00 AM 11.03 51.854 0.1 7.28 16.84 10.75
10/27/2021 8:45:00 AM 11.04 51.872 0.099 7.29 16.78 10.78
10/27/2021 9:00:00 AM 11.06 51.908 0.099 7.3 16.67 10.83
10/27/2021 9:15:00 AM 11.08 51.944 0.099 7.31 16.67 10.93
10/27/2021 9:30:00 AM 11.12 52.016 0.098 7.33 16.47 11.07
10/27/2021 9:45:00 AM 11.15 52.07 0.098 7.36 16.52 11.18
10/27/2021 10:00:00 AM 11.2 52.16 0.098 7.39 16.15 11.27
10/27/2021 10:15:00 AM 11.23 52.214 0.098 7.43 16.14 11.28
10/27/2021 10:30:00 AM 11.26 52.268 0.098 7.43 16.15 11.3
10/27/2021 10:45:00 AM 11.31 52.358 0.097 7.46 15.82 11.33
10/27/2021 11:00:00 AM 11.34 52.412 0.097 7.47 15.98 11.35
10/27/2021 11:15:00 AM 11.39 52.502 0.097 7.48 15.91 11.36
10/27/2021 11:30:00 AM 11.45 52.61 0.097 7.5 15.74 11.37
10/27/2021 11:45:00 AM 11.51 52.718 0.096 7.52 15.79 11.37
10/27/2021 12:00:00 PM 11.6 52.88 0.096 7.52 15.84 11.36
10/27/2021 12:15:00 PM 11.71 53.078 0.096 7.51 15.63 11.35
10/27/2021 12:30:00 PM 11.83 53.294 0.096 7.54 15.69 11.34
10/27/2021 12:45:00 PM 11.92 53.456 0.096 7.55 15.55 11.34
10/27/2021 1:00:00 PM 12 53.6 0.095 7.57 15.61 11.34
10/27/2021 1:15:00 PM 12.1 53.78 0.095 7.58 15.46 11.33
10/27/2021 1:30:00 PM 12.2 53.96 0.095 7.59 15.48 11.32
10/27/2021 1:45:00 PM 12.28 54.104 0.095 7.6 15.32 11.31
10/27/2021 2:00:00 PM 12.37 54.266 0.095 7.61 15.18 11.29
10/27/2021 2:15:00 PM 12.45 54.41 0.095 7.62 15.35 11.27
10/27/2021 2:30:00 PM 12.52 54.536 0.095 7.62 15.34 11.25
10/27/2021 2:45:00 PM 12.59 54.662 0.094 7.63 15.44 11.23
10/27/2021 3:00:00 PM 12.65 54.77 0.094 7.62 15.32 11.2
10/27/2021 3:15:00 PM 12.7 54.86 0.094 7.61 15.27 11.12
10/27/2021 3:30:00 PM 12.74 54.932 0.094 7.6 15.5 11.06
10/27/2021 3:45:00 PM 12.76 54.968 0.094 7.59 15.45 10.99
10/27/2021 4:00:00 PM 12.77 54.986 0.094 7.58 15.57 10.94
10/27/2021 4:15:00 PM 12.79 55.022 0.094 7.55 15.59 10.9
10/27/2021 4:30:00 PM 12.79 55.022 0.094 7.54 15.65 10.85
10/27/2021 4:45:00 PM 12.78 55.004 0.094 7.52 15.66 10.82
10/27/2021 5:00:00 PM 12.74 54.932 0.094 7.5 15.73 10.77
10/27/2021 5:15:00 PM 12.69 54.842 0.094 7.47 15.96 10.71
10/27/2021 5:30:00 PM 12.62 54.716 0.094 7.45 16.04 10.66
10/27/2021 5:45:00 PM 12.56 54.608 0.094 7.42 15.99 10.61
10/27/2021 6:00:00 PM 12.51 54.518 0.094 7.4 16.02 10.56
10/27/2021 6:15:00 PM 12.45 54.41 0.094 7.37 16.11 10.52
10/27/2021 6:30:00 PM 12.39 54.302 0.094 7.35 16.34 10.47
10/27/2021 6:45:00 PM 12.32 54.176 0.094 7.32 16.38 10.45
10/27/2021 7:00:00 PM 12.26 54.068 0.094 7.31 16.41 10.43
10/27/2021 7:15:00 PM 12.2 53.96 0.094 7.29 16.29 10.43
10/27/2021 7:30:00 PM 12.14 53.852 0.094 7.29 16.47 10.43
10/27/2021 7:45:00 PM 12.08 53.744 0.094 7.27 16.62 10.43
10/27/2021 8:00:00 PM 12.02 53.636 0.094 7.27 16.51 10.44
10/27/2021 8:15:00 PM 11.96 53.528 0.094 7.26 16.48 10.45
10/27/2021 8:30:00 PM 11.89 53.402 0.094 7.26 16.57 10.47
10/27/2021 8:45:00 PM 11.83 53.294 0.094 7.25 16.55 10.48
10/27/2021 9:00:00 PM 11.77 53.186 0.094 7.25 16.54 10.5
10/27/2021 9:15:00 PM 11.7 53.06 0.094 7.25 16.63 10.51
10/27/2021 9:30:00 PM 11.64 52.952 0.095 7.24 16.67 10.53
10/27/2021 9:45:00 PM 11.57 52.826 0.094 7.23 16.77 10.55
10/27/2021 10:00:00 PM 11.5 52.7 0.094 7.23 16.72 10.57
10/27/2021 10:15:00 PM 11.44 52.592 0.094 7.22 16.84 10.58
10/27/2021 10:30:00 PM 11.38 52.484 0.094 7.24 16.93 10.6
10/27/2021 10:45:00 PM 11.32 52.376 0.094 7.23 16.86 10.62
10/27/2021 11:00:00 PM 11.26 52.268 0.094 7.23 16.95 10.63
10/27/2021 11:15:00 PM 11.2 52.16 0.094 7.22 16.98 10.65
10/27/2021 11:30:00 PM 11.14 52.052 0.094 7.24 16.95 10.67
10/27/2021 11:45:00 PM 11.08 51.944 0.094 7.24 17.03 10.68
10/28/2021 12:00:00 AM 11.01 51.818 0.094 7.23 17.04 10.7
10/28/2021 12:15:00 AM 10.95 51.71 0.094 7.23 16.93 10.72
10/28/2021 12:30:00 AM 10.89 51.602 0.094 7.22 16.96 10.74
10/28/2021 12:45:00 AM 10.83 51.494 0.094 7.23 16.97 10.75
10/28/2021 1:00:00 AM 10.77 51.386 0.094 7.22 17.11 10.77
10/28/2021 1:15:00 AM 10.71 51.278 0.094 7.22 17.15 10.79
10/28/2021 1:30:00 AM 10.65 51.17 0.094 7.22 17.06 10.8
10/28/2021 1:45:00 AM 10.6 51.08 0.094 7.22 17.34 10.82
10/28/2021 2:00:00 AM 10.54 50.972 0.094 7.22 17.16 10.84
10/28/2021 2:15:00 AM 10.49 50.882 0.094 7.21 17.14 10.85
10/28/2021 2:30:00 AM 10.44 50.792 0.094 7.21 17.39 10.87
10/28/2021 2:45:00 AM 10.39 50.702 0.094 7.21 17.3 10.88
10/28/2021 3:00:00 AM 10.33 50.594 0.094 7.21 17.45 10.9
10/28/2021 3:15:00 AM 10.27 50.486 0.093 7.22 17.42 10.91
10/28/2021 3:30:00 AM 10.22 50.396 0.093 7.21 17.38 10.93
10/28/2021 3:45:00 AM 10.17 50.306 0.093 7.21 17.32 10.95
10/28/2021 4:00:00 AM 10.12 50.216 0.093 7.21 17.32 10.96
10/28/2021 4:15:00 AM 10.06 50.108 0.093 7.21 17.48 10.97
10/28/2021 4:30:00 AM 10.01 50.018 0.093 7.21 17.3 10.98
10/28/2021 4:45:00 AM 9.96 49.928 0.093 7.2 17.52 11
10/28/2021 5:00:00 AM 9.91 49.838 0.093 7.21 17.39 11.01
10/28/2021 5:15:00 AM 9.87 49.766 0.093 7.2 17.46 11.03
10/28/2021 5:30:00 AM 9.82 49.676 0.093 7.2 17.58 11.04
10/28/2021 5:45:00 AM 9.78 49.604 0.093 7.2 17.51 11.06
10/28/2021 6:00:00 AM 9.75 49.55 0.093 7.2 17.49 11.07
10/28/2021 6:15:00 AM 9.71 49.478 0.093 7.19 17.41 11.08
10/28/2021 6:30:00 AM 9.67 49.406 0.093 7.06 17.34 11.1
10/28/2021 6:45:00 AM 9.63 49.334 0.093 6.98 17.44 11.11
10/28/2021 7:00:00 AM 9.59 49.262 0.093 6.99 17.3 11.12
10/28/2021 7:15:00 AM 9.55 49.19 0.093 7.02 17.39 11.13
10/28/2021 7:30:00 AM 9.51 49.118 0.092 7.05 17.42 11.15
10/28/2021 7:45:00 AM 9.47 49.046 0.092 7.07 17.52 11.17
10/28/2021 8:00:00 AM 9.43 48.974 0.092 7.08 17.31 11.21
10/28/2021 8:15:00 AM 9.39 48.902 0.092 7.09 17.37 11.27
10/28/2021 8:30:00 AM 9.34 48.812 0.092 7.11 17.43 11.33
10/28/2021 8:45:00 AM 9.3 48.74 0.092 7.13 17.25 11.39
10/28/2021 9:00:00 AM 9.28 48.704 0.092 7.15 17.49 11.48
10/28/2021 9:15:00 AM 9.29 48.722 0.092 7.18 17.42 11.6
10/28/2021 9:30:00 AM 9.28 48.704 0.092 7.21 17.47 11.67
10/28/2021 9:45:00 AM 9.24 48.632 0.092 7.23 17.26 11.66
10/28/2021 10:00:00 AM 9.26 48.668 0.092 7.26 17.29 11.7
10/28/2021 10:15:00 AM 9.28 48.704 0.091 7.29 17.17 11.75
10/28/2021 10:30:00 AM 9.32 48.776 0.091 7.31 17.4 11.79
10/28/2021 10:45:00 AM 9.36 48.848 0.091 7.33 17.22 11.85
10/28/2021 11:00:00 AM 9.42 48.956 0.091 7.35 17.2 11.87
10/28/2021 11:15:00 AM 9.49 49.082 0.091 7.37 17.12 11.88
10/28/2021 11:30:00 AM 9.57 49.226 0.091 7.4 17.27 11.9
10/28/2021 11:45:00 AM 9.66 49.388 0.091 7.41 17.11 11.91
10/28/2021 12:00:00 PM 9.78 49.604 0.091 7.43 17.03 11.92
10/28/2021 12:15:00 PM 9.92 49.856 0.09 7.45 16.97 11.94
10/28/2021 12:30:00 PM 10.06 50.108 0.09 7.48 16.84 11.94
10/28/2021 12:45:00 PM 10.22 50.396 0.09 7.51 16.79 11.95
10/28/2021 1:00:00 PM 10.36 50.648 0.09 7.53 16.76 11.97
10/28/2021 1:15:00 PM 10.48 50.864 0.09 7.56 16.75 11.95
10/28/2021 1:30:00 PM 10.58 51.044 0.09 7.58 16.83 11.91
10/28/2021 1:45:00 PM 10.71 51.278 0.09 7.6 16.72 11.89
10/28/2021 2:00:00 PM 10.83 51.494 0.089 7.6 16.69 11.88
10/28/2021 2:15:00 PM 10.92 51.656 0.089 7.63 16.56 11.85
10/28/2021 2:30:00 PM 11 51.8 0.089 7.63 16.48 11.81
10/28/2021 2:45:00 PM 11.1 51.98 0.089 7.65 16.6 11.81
10/28/2021 3:00:00 PM 11.18 52.124 0.089 7.67 16.58 11.78
10/28/2021 3:15:00 PM 11.25 52.25 0.089 7.66 16.46 11.72
10/28/2021 3:30:00 PM 11.31 52.358 0.089 7.66 16.54 11.68
10/28/2021 3:45:00 PM 11.36 52.448 0.089 7.65 16.56 11.64
10/28/2021 4:00:00 PM 11.4 52.52 0.089 7.65 16.68 11.59
10/28/2021 4:15:00 PM 11.42 52.556 0.089 7.64 16.65 11.51
10/28/2021 4:30:00 PM 11.48 52.664 0.088 7.63 16.65 11.54
10/28/2021 4:45:00 PM 11.51 52.718 0.088 7.63 16.77 11.49
10/28/2021 5:00:00 PM 11.51 52.718 0.089 7.59 16.73 11.36
10/28/2021 5:15:00 PM 11.5 52.7 0.089 7.55 17.02 11.2
10/28/2021 5:30:00 PM 11.47 52.646 0.089 7.5 17 11.06
10/28/2021 5:45:00 PM 11.44 52.592 0.089 7.46 17.07 10.97
10/28/2021 6:00:00 PM 11.41 52.538 0.089 7.42 17.32 10.89
10/28/2021 6:15:00 PM 11.39 52.502 0.089 7.38 17.3 10.82
10/28/2021 6:30:00 PM 11.36 52.448 0.089 7.36 17.36 10.77
10/28/2021 6:45:00 PM 11.32 52.376 0.089 7.32 17.43 10.73
10/28/2021 7:00:00 PM 11.29 52.322 0.089 7.32 17.52 10.7
10/28/2021 7:15:00 PM 11.26 52.268 0.089 7.29 17.55 10.69
10/28/2021 7:30:00 PM 11.23 52.214 0.089 7.28 17.56 10.68
10/28/2021 7:45:00 PM 11.2 52.16 0.089 7.26 17.38 10.67
10/28/2021 8:00:00 PM 11.16 52.088 0.089 7.25 17.45 10.67
10/28/2021 8:15:00 PM 11.13 52.034 0.089 7.25 17.77 10.67
10/28/2021 8:30:00 PM 11.09 51.962 0.089 7.23 17.52 10.68
10/28/2021 8:45:00 PM 11.07 51.926 0.089 7.24 17.55 10.68
10/28/2021 9:00:00 PM 11.05 51.89 0.089 7.22 17.67 10.68
10/28/2021 9:15:00 PM 11.04 51.872 0.089 7.23 17.56 10.68
10/28/2021 9:30:00 PM 11.03 51.854 0.089 7.22 17.61 10.69
10/28/2021 9:45:00 PM 11.02 51.836 0.089 7.22 17.96 10.69
10/28/2021 10:00:00 PM 11.01 51.818 0.089 7.22 17.77 10.7
10/28/2021 10:15:00 PM 10.99 51.782 0.089 7.22 17.84 10.7
10/28/2021 10:30:00 PM 10.98 51.764 0.089 7.21 17.89 10.71
10/28/2021 10:45:00 PM 10.98 51.764 0.089 7.21 17.86 10.71
10/28/2021 11:00:00 PM 10.97 51.746 0.089 7.21 17.56 10.71
10/28/2021 11:15:00 PM 10.96 51.728 0.089 7.2 17.73 10.71
10/28/2021 11:30:00 PM 10.95 51.71 0.089 7.21 17.78 10.71
10/28/2021 11:45:00 PM 10.95 51.71 0.089 7.21 17.8 10.71
10/29/2021 12:00:00 AM 10.94 51.692 0.089 7.2 17.78 10.72
10/29/2021 12:15:00 AM 10.93 51.674 0.089 7.2 17.74 10.72
10/29/2021 12:30:00 AM 10.92 51.656 0.089 7.21 17.7 10.72
10/29/2021 12:45:00 AM 10.91 51.638 0.089 7.21 17.82 10.72
10/29/2021 1:00:00 AM 10.91 51.638 0.089 7.21 17.92 10.72
10/29/2021 1:15:00 AM 10.9 51.62 0.089 7.2 17.78 10.72
10/29/2021 1:30:00 AM 10.9 51.62 0.089 7.19 17.93 10.72
10/29/2021 1:45:00 AM 10.9 51.62 0.089 7.2 18 10.72
10/29/2021 2:00:00 AM 10.9 51.62 0.089 7.2 17.88 10.72
10/29/2021 2:15:00 AM 10.91 51.638 0.089 7.2 18.09 10.72
10/29/2021 2:30:00 AM 10.91 51.638 0.089 7.2 18.08 10.71
10/29/2021 2:45:00 AM 10.91 51.638 0.089 7.21 18.08 10.71
10/29/2021 3:00:00 AM 10.91 51.638 0.089 7.2 18.03 10.71
10/29/2021 3:15:00 AM 10.91 51.638 0.089 7.19 17.99 10.71
10/29/2021 3:30:00 AM 10.92 51.656 0.089 7.19 17.92 10.71
10/29/2021 3:45:00 AM 10.91 51.638 0.089 7.2 18.34 10.71
10/29/2021 4:00:00 AM 10.91 51.638 0.089 7.2 18.14 10.71
10/29/2021 4:15:00 AM 10.9 51.62 0.089 7.19 18.14 10.71
10/29/2021 4:30:00 AM 10.9 51.62 0.089 7.19 18.18 10.71
10/29/2021 4:45:00 AM 10.89 51.602 0.089 7.21 18.41 10.71
10/29/2021 5:00:00 AM 10.89 51.602 0.089 7.2 18.09 10.71
10/29/2021 5:15:00 AM 10.88 51.584 0.088 7.2 18.45 10.71
10/29/2021 5:30:00 AM 10.87 51.566 0.088 7.2 18.35 10.72
10/29/2021 5:45:00 AM 10.85 51.53 0.088 7.23 18.5 10.71
10/29/2021 6:00:00 AM 10.84 51.512 0.088 7.19 18.37 10.72
10/29/2021 6:15:00 AM 10.83 51.494 0.088 7.19 18.35 10.72
10/29/2021 6:30:00 AM 10.81 51.458 0.088 7.2 18.39 10.73
10/29/2021 6:45:00 AM 10.8 51.44 0.088 7.2 18.5 10.73
10/29/2021 7:00:00 AM 10.78 51.404 0.088 7.19 18.12 10.73
10/29/2021 7:15:00 AM 10.77 51.386 0.088 7.21 18.13 10.74
10/29/2021 7:30:00 AM 10.76 51.368 0.088 7.2 17.99 10.74
10/29/2021 7:45:00 AM 10.75 51.35 0.088 7.2 18.14 10.74
10/29/2021 8:00:00 AM 10.75 51.35 0.088 7.21 18.38 10.76
10/29/2021 8:15:00 AM 10.74 51.332 0.088 7.19 18.42 10.78
10/29/2021 8:30:00 AM 10.73 51.314 0.088 7.2 18.2 10.8
10/29/2021 8:45:00 AM 10.73 51.314 0.088 7.21 18.29 10.83
10/29/2021 9:00:00 AM 10.72 51.296 0.088 7.22 18.24 10.86
10/29/2021 9:15:00 AM 10.72 51.296 0.088 7.22 18.3 10.89
10/29/2021 9:30:00 AM 10.74 51.332 0.088 7.25 18.24 11.1
10/29/2021 9:45:00 AM 10.75 51.35 0.088 7.27 18.18 11.21
10/29/2021 10:00:00 AM 10.77 51.386 0.087 7.31 18.02 11.29
10/29/2021 10:15:00 AM 10.81 51.458 0.087 7.33 17.96 11.36
10/29/2021 10:30:00 AM 10.85 51.53 0.087 7.35 17.87 11.47
10/29/2021 10:45:00 AM 10.86 51.548 0.087 7.39 17.67 11.45
10/29/2021 11:00:00 AM 10.87 51.566 0.087 7.4 17.86 11.43
10/29/2021 11:15:00 AM 10.93 51.674 0.087 7.42 17.76 11.54
10/29/2021 11:30:00 AM 10.99 51.782 0.087 7.47 17.87 11.62
10/29/2021 11:45:00 AM 11.03 51.854 0.086 7.49 17.53 11.6
10/29/2021 12:00:00 PM 11.04 51.872 0.086 7.49 17.51 11.49
10/29/2021 12:15:00 PM 11.04 51.872 0.086 7.48 17.67 11.44
10/29/2021 12:30:00 PM 11.03 51.854 0.086 7.47 17.5 11.39
10/29/2021 12:45:00 PM 11.05 51.89 0.086 7.48 17.66 11.48
10/29/2021 1:00:00 PM 11.07 51.926 0.086 7.5 17.62 11.48
10/29/2021 1:15:00 PM 11.09 51.962 0.086 7.5 17.52 11.51
10/29/2021 1:30:00 PM 11.11 51.998 0.086 7.52 17.55 11.51
10/29/2021 1:45:00 PM 11.11 51.998 0.086 7.52 17.54 11.41
10/29/2021 2:00:00 PM 11.1 51.98 0.086 7.49 17.64 11.29
10/29/2021 2:15:00 PM 11.09 51.962 0.086 7.46 17.64 11.22
10/29/2021 2:30:00 PM 11.09 51.962 0.085 7.44 17.89 11.18
10/29/2021 2:45:00 PM 11.09 51.962 0.085 7.43 17.88 11.18
10/29/2021 3:00:00 PM 11.1 51.98 0.085 7.43 17.81 11.23
10/29/2021 3:15:00 PM 11.09 51.962 0.085 7.43 17.96 11.2
10/29/2021 3:30:00 PM 11.09 51.962 0.085 7.47 18.31 11.18
10/29/2021 3:45:00 PM 11.07 51.926 0.085 7.41 18.04 11.08
10/29/2021 4:00:00 PM 11.04 51.872 0.085 7.38 18.1 10.99
10/29/2021 4:15:00 PM 11.03 51.854 0.084 7.36 18.34 10.98
10/29/2021 4:30:00 PM 11.01 51.818 0.084 7.35 18.27 10.96
10/29/2021 4:45:00 PM 10.99 51.782 0.084 7.32 18.19 10.9
10/29/2021 5:00:00 PM 10.96 51.728 0.083 7.31 18.47 10.86
10/29/2021 5:15:00 PM 10.94 51.692 0.083 7.29 18.76 10.84
10/29/2021 5:30:00 PM 10.92 51.656 0.083 7.28 19.15 10.81
10/29/2021 5:45:00 PM 10.89 51.602 0.082 7.25 19.22 10.78
10/29/2021 6:00:00 PM 10.87 51.566 0.082 7.24 19.71 10.76
10/29/2021 6:15:00 PM 10.84 51.512 0.081 7.22 20.25 10.74
10/29/2021 6:30:00 PM 10.82 51.476 0.08 7.21 20.5 10.72
10/29/2021 6:45:00 PM 10.8 51.44 0.08 7.21 21.29 10.71
10/29/2021 7:00:00 PM 10.78 51.404 0.08 7.18 21.48 10.71
10/29/2021 7:15:00 PM 10.76 51.368 0.079 7.18 22.01 10.71
10/29/2021 7:30:00 PM 10.75 51.35 0.079 7.16 23.19 10.71
10/29/2021 7:45:00 PM 10.72 51.296 0.079 7.16 24.64 10.73
10/29/2021 8:00:00 PM 10.69 51.242 0.079 7.14 26.97 10.75
10/29/2021 8:15:00 PM 10.66 51.188 0.079 7.11 30.72 10.76
10/29/2021 8:30:00 PM 10.63 51.134 0.081 7.02 37.21 10.76
10/29/2021 8:45:00 PM 10.59 51.062 0.083 7 47.1 10.77
10/29/2021 9:00:00 PM 10.53 50.954 0.087 7 59.53 10.79
10/29/2021 9:15:00 PM 10.46 50.828 0.089 7 69.43 10.84
10/29/2021 9:30:00 PM 10.4 50.72 0.089 7.02 77.14 10.86
10/29/2021 9:45:00 PM 10.36 50.648 0.089 7.03 81.37 10.87
10/29/2021 10:00:00 PM 10.33 50.594 0.088 7.09 84 10.87
10/29/2021 10:15:00 PM 10.3 50.54 0.086 7.13 82.76 10.88
10/29/2021 10:30:00 PM 10.28 50.504 0.085 7.15 78.83 10.89
10/29/2021 10:45:00 PM 10.25 50.45 0.085 7.14 75.31 10.89
10/29/2021 11:00:00 PM 10.23 50.414 0.084 7.15 69.93 10.9
10/29/2021 11:15:00 PM 10.21 50.378 0.084 7.14 66.97 10.91
10/29/2021 11:30:00 PM 10.2 50.36 0.083 7.09 64.76 10.92
10/29/2021 11:45:00 PM 10.18 50.324 0.083 7.1 64.14 10.93
10/30/2021 12:00:00 AM 10.17 50.306 0.082 7.1 64.8 10.94
10/30/2021 12:15:00 AM 10.15 50.27 0.082 7.1 66.2 10.94
10/30/2021 12:30:00 AM 10.15 50.27 0.081 7.1 67.75 10.94
10/30/2021 12:45:00 AM 10.14 50.252 0.08 7.11 67.59 10.95
10/30/2021 1:00:00 AM 10.14 50.252 0.079 7.12 66.71 10.95
10/30/2021 1:15:00 AM 10.13 50.234 0.078 7.12 64.07 10.94
10/30/2021 1:30:00 AM 10.12 50.216 0.078 7.11 61.69 10.94
10/30/2021 1:45:00 AM 10.12 50.216 0.077 7.1 59.73 10.94
10/30/2021 2:00:00 AM 10.11 50.198 0.077 7.11 56.08 10.94
10/30/2021 2:15:00 AM 10.11 50.198 0.077 7.11 52.09 10.94
10/30/2021 2:30:00 AM 10.1 50.18 0.076 7.1 49.93 10.94
10/30/2021 2:45:00 AM 10.1 50.18 0.076 7.11 48.5 10.93
10/30/2021 3:00:00 AM 10.1 50.18 0.076 7.09 47.8 10.93
10/30/2021 3:15:00 AM 10.09 50.162 0.075 7.11 46.54 10.93
10/30/2021 3:30:00 AM 10.09 50.162 0.075 7.08 44.48 10.93
10/30/2021 3:45:00 AM 10.1 50.18 0.075 7.1 42.49 10.92
10/30/2021 4:00:00 AM 10.1 50.18 0.075 7.1 41.1 10.92
10/30/2021 4:15:00 AM 10.1 50.18 0.074 7.09 40.55 10.92
10/30/2021 4:30:00 AM 10.1 50.18 0.074 7.04 38.54 10.92
10/30/2021 4:45:00 AM 10.11 50.198 0.074 7.05 36.82 10.91
10/30/2021 5:00:00 AM 10.11 50.198 0.074 7.06 36.22 10.92
10/30/2021 5:15:00 AM 10.12 50.216 0.074 7.09 35.27 10.92
10/30/2021 5:30:00 AM 10.12 50.216 0.074 7.09 34.71 10.91
10/30/2021 5:45:00 AM 10.13 50.234 0.074 7.07 34.24 10.91
10/30/2021 6:00:00 AM 10.14 50.252 0.074 7.08 35.02 10.92
10/30/2021 6:15:00 AM 10.14 50.252 0.075 7.08 35.27 10.92
10/30/2021 6:30:00 AM 10.15 50.27 0.075 7.1 36.04 10.92
10/30/2021 6:45:00 AM 10.15 50.27 0.075 7.1 35.73 10.92
10/30/2021 7:00:00 AM 10.16 50.288 0.075 7.08 35.53 10.92
10/30/2021 7:15:00 AM 10.17 50.306 0.075 7.11 35.53 10.92
10/30/2021 7:30:00 AM 10.18 50.324 0.076 7.11 34.72 10.92
10/30/2021 7:45:00 AM 10.19 50.342 0.076 7.11 34.64 10.91
10/30/2021 8:00:00 AM 10.19 50.342 0.076 7.11 34.01 10.91
10/30/2021 8:15:00 AM 10.21 50.378 0.076 7.12 33.18 10.91
10/30/2021 8:30:00 AM 10.22 50.396 0.076 7.12 32.84 10.91
10/30/2021 8:45:00 AM 10.23 50.414 0.076 7.12 32.43 10.91
10/30/2021 9:00:00 AM 10.24 50.432 0.076 7.09 32.29 10.9
10/30/2021 9:15:00 AM 10.26 50.468 0.076 7.14 31.89 10.91
10/30/2021 9:30:00 AM 10.28 50.504 0.076 7.13 30.96 10.9
10/30/2021 9:45:00 AM 10.31 50.558 0.076 7.13 30.17 10.9
10/30/2021 10:00:00 AM 10.34 50.612 0.076 7.12 29.4 10.9
10/30/2021 10:15:00 AM 10.36 50.648 0.075 7.13 29.96 10.89
10/30/2021 10:30:00 AM 10.38 50.684 0.075 7.13 29.73 10.89
10/30/2021 10:45:00 AM 10.41 50.738 0.075 7.13 29.5 10.89
10/30/2021 11:00:00 AM 10.44 50.792 0.075 7.13 29.06 10.87
10/30/2021 11:15:00 AM 10.47 50.846 0.075 7.12 29.24 10.87
10/30/2021 11:30:00 AM 10.5 50.9 0.075 7.11 27.38 10.86
10/30/2021 11:45:00 AM 10.53 50.954 0.075 7.12 28.14 10.86
10/30/2021 12:00:00 PM 10.57 51.026 0.075 7.13 27.77 10.86
10/30/2021 12:15:00 PM 10.6 51.08 0.075 7.12 27.64 10.86
10/30/2021 12:30:00 PM 10.64 51.152 0.075 7.13 27.06 10.85
10/30/2021 12:45:00 PM 10.67 51.206 0.075 7.13 27.21 10.84
10/30/2021 1:00:00 PM 10.69 51.242 0.075 7.12 27.31 10.82
10/30/2021 1:15:00 PM 10.7 51.26 0.074 7.12 26.96 10.81
10/30/2021 1:30:00 PM 10.72 51.296 0.074 7.12 26.72 10.8
10/30/2021 1:45:00 PM 10.74 51.332 0.074 7.11 26.29 10.79
10/30/2021 2:00:00 PM 10.79 51.422 0.074 7.12 26.6 10.8
10/30/2021 2:15:00 PM 10.82 51.476 0.073 7.12 26.59 10.79
10/30/2021 2:30:00 PM 10.85 51.53 0.073 7.11 26.49 10.78
10/30/2021 2:45:00 PM 10.89 51.602 0.073 7.12 26.28 10.77
10/30/2021 3:00:00 PM 10.93 51.674 0.073 7.11 26.52 10.77
10/30/2021 3:15:00 PM 10.97 51.746 0.072 7.11 27.02 10.77
10/30/2021 3:30:00 PM 11.01 51.818 0.072 7.11 27.28 10.74
10/30/2021 3:45:00 PM 11.03 51.854 0.072 7.09 27.42 10.72
10/30/2021 4:00:00 PM 11.05 51.89 0.072 7.08 27.55 10.71
10/30/2021 4:15:00 PM 11.07 51.926 0.072 7.06 27.35 10.7
10/30/2021 4:30:00 PM 11.09 51.962 0.072 7.1 27.71 10.69
10/30/2021 4:45:00 PM 11.11 51.998 0.072 7.08 27.49 10.68
10/30/2021 5:00:00 PM 11.13 52.034 0.072 7.08 27.6 10.67
10/30/2021 5:15:00 PM 11.15 52.07 0.073 7.08 27.76 10.67
10/30/2021 5:30:00 PM 11.16 52.088 0.072 7.08 27.63 10.66
10/30/2021 5:45:00 PM 11.18 52.124 0.072 7.08 28.07 10.65
10/30/2021 6:00:00 PM 11.19 52.142 0.072 7.07 27.58 10.64
10/30/2021 6:15:00 PM 11.19 52.142 0.072 7.08 27.65 10.64
10/30/2021 6:30:00 PM 11.2 52.16 0.073 7.08 27.7 10.63
10/30/2021 6:45:00 PM 11.2 52.16 0.073 7.08 27.71 10.63
10/30/2021 7:00:00 PM 11.2 52.16 0.073 7.07 27.69 10.62
10/30/2021 7:15:00 PM 11.2 52.16 0.073 7.08 27.71 10.62
10/30/2021 7:30:00 PM 11.19 52.142 0.073 7.06 27.46 10.62
10/30/2021 7:45:00 PM 11.19 52.142 0.073 7.05 27.89 10.62
10/30/2021 8:00:00 PM 11.19 52.142 0.073 7.05 27.6 10.62
10/30/2021 8:15:00 PM 11.18 52.124 0.073 7.05 27.02 10.62
10/30/2021 8:30:00 PM 11.18 52.124 0.073 7.05 26.89 10.62
10/30/2021 8:45:00 PM 11.17 52.106 0.073 7.05 27.15 10.63
10/30/2021 9:00:00 PM 11.15 52.07 0.073 7.05 26.87 10.63
10/30/2021 9:15:00 PM 11.14 52.052 0.073 7.05 26.89 10.63
10/30/2021 9:30:00 PM 11.14 52.052 0.073 7.05 27.04 10.63
10/30/2021 9:45:00 PM 11.13 52.034 0.073 7.04 26.71 10.64
10/30/2021 10:00:00 PM 11.12 52.016 0.073 7.04 26.66 10.64
10/30/2021 10:15:00 PM 11.11 51.998 0.073 7.05 26.69 10.64
10/30/2021 10:30:00 PM 11.09 51.962 0.072 7.06 26.26 10.65
10/30/2021 10:45:00 PM 11.08 51.944 0.072 7.04 26.75 10.65
10/30/2021 11:00:00 PM 11.07 51.926 0.072 7.05 26.27 10.66
10/30/2021 11:15:00 PM 11.05 51.89 0.072 7.04 26.14 10.66
10/30/2021 11:30:00 PM 11.04 51.872 0.072 7.04 25.97 10.66
10/30/2021 11:45:00 PM 11.03 51.854 0.072 7.04 25.94 10.66
10/31/2021 12:00:00 AM 11.01 51.818 0.072 7.03 26.1 10.67
10/31/2021 12:15:00 AM 11 51.8 0.072 7.04 26.18 10.67
10/31/2021 12:30:00 AM 10.98 51.764 0.072 7.03 26.02 10.67
10/31/2021 12:45:00 AM 10.97 51.746 0.072 7.04 25.77 10.67
10/31/2021 1:00:00 AM 10.96 51.728 0.072 7.03 26.05 10.67
10/31/2021 1:15:00 AM 10.95 51.71 0.072 7.03 25.96 10.67
10/31/2021 1:30:00 AM 10.95 51.71 0.071 7.03 25.88 10.67
10/31/2021 1:45:00 AM 10.94 51.692 0.071 7.02 25.76 10.67
10/31/2021 2:00:00 AM 10.94 51.692 0.071 7.02 25.94 10.67
10/31/2021 2:15:00 AM 10.94 51.692 0.071 7.03 26.03 10.68
10/31/2021 2:30:00 AM 10.93 51.674 0.071 7.03 25.56 10.68
10/31/2021 2:45:00 AM 10.93 51.674 0.071 7.03 25.45 10.68
10/31/2021 3:00:00 AM 10.92 51.656 0.071 7.03 25.49 10.68
10/31/2021 3:15:00 AM 10.91 51.638 0.071 7.02 25.46 10.68
10/31/2021 3:30:00 AM 10.91 51.638 0.071 7.03 25.57 10.68
10/31/2021 3:45:00 AM 10.9 51.62 0.071 7.04 25.56 10.69
10/31/2021 4:00:00 AM 10.89 51.602 0.071 7.03 25.37 10.69
10/31/2021 4:15:00 AM 10.88 51.584 0.071 7.03 25.47 10.69
10/31/2021 4:30:00 AM 10.88 51.584 0.071 7.03 25.31 10.69
10/31/2021 4:45:00 AM 10.87 51.566 0.071 7.02 25.41 10.69
10/31/2021 5:00:00 AM 10.86 51.548 0.07 7.03 25.37 10.69
10/31/2021 5:15:00 AM 10.86 51.548 0.07 7.02 25.41 10.7
10/31/2021 5:30:00 AM 10.85 51.53 0.07 7.02 25.35 10.7
10/31/2021 5:45:00 AM 10.84 51.512 0.07 7.02 25.05 10.7
10/31/2021 6:00:00 AM 10.83 51.494 0.07 7.02 25.02 10.7
10/31/2021 6:15:00 AM 10.82 51.476 0.07 7.02 25.05 10.71
10/31/2021 6:30:00 AM 10.81 51.458 0.07 7.02 25.14 10.71
10/31/2021 6:45:00 AM 10.81 51.458 0.07 7.03 25.1 10.71
10/31/2021 7:00:00 AM 10.8 51.44 0.07 7.02 25.03 10.72
10/31/2021 7:15:00 AM 10.8 51.44 0.07 7.02 25.24 10.72
10/31/2021 7:30:00 AM 10.79 51.422 0.07 7.03 25.11 10.73
10/31/2021 7:45:00 AM 10.78 51.404 0.07 7.02 25 10.72
10/31/2021 8:00:00 AM 10.78 51.404 0.07 7.01 25.18 10.73
10/31/2021 8:15:00 AM 10.78 51.404 0.07 7.02 25.1 10.73
10/31/2021 8:30:00 AM 10.78 51.404 0.07 7.01 24.83 10.74
10/31/2021 8:45:00 AM 10.78 51.404 0.069 7.02 24.67 10.75
10/31/2021 9:00:00 AM 10.78 51.404 0.069 7.02 24.97 10.76
10/31/2021 9:15:00 AM 10.79 51.422 0.069 7.02 24.71 10.77
10/31/2021 9:30:00 AM 10.81 51.458 0.069 7.01 24.67 10.8
10/31/2021 9:45:00 AM 10.83 51.494 0.069 7.02 24.5 10.83
10/31/2021 10:00:00 AM 10.85 51.53 0.069 7.03 24.16 10.85
10/31/2021 10:15:00 AM 10.89 51.602 0.069 7.04 24.24 10.88
10/31/2021 10:30:00 AM 10.92 51.656 0.069 7.04 24.26 10.89
10/31/2021 10:45:00 AM 10.96 51.728 0.069 7.05 24.25 10.89
10/31/2021 11:00:00 AM 11 51.8 0.069 7.06 24.19 10.91
10/31/2021 11:15:00 AM 11.07 51.926 0.069 7.07 24.32 10.94
10/31/2021 11:30:00 AM 11.13 52.034 0.069 7.07 23.89 10.93
10/31/2021 11:45:00 AM 11.18 52.124 0.069 7.08 24.2 10.91
10/31/2021 12:00:00 PM 11.19 52.142 0.069 7.08 24.26 10.87
10/31/2021 12:15:00 PM 11.22 52.196 0.069 7.08 24.12 10.89
10/31/2021 12:30:00 PM 11.26 52.268 0.069 7.1 24.27 10.89
10/31/2021 12:45:00 PM 11.3 52.34 0.069 7.09 24.14 10.89
10/31/2021 1:00:00 PM 11.34 52.412 0.069 7.1 24.28 10.89
10/31/2021 1:15:00 PM 11.39 52.502 0.07 7.11 24.1 10.89
10/31/2021 1:30:00 PM 11.42 52.556 0.07 7.12 24.32 10.88
10/31/2021 1:45:00 PM 11.44 52.592 0.07 7.11 24.15 10.87
10/31/2021 2:00:00 PM 11.47 52.646 0.07 7.12 24.38 10.87
10/31/2021 2:15:00 PM 11.49 52.682 0.07 7.13 24.27 10.87
10/31/2021 2:30:00 PM 11.52 52.736 0.07 7.14 24.36 10.86
10/31/2021 2:45:00 PM 11.53 52.754 0.07 7.13 24.67 10.85
10/31/2021 3:00:00 PM 11.55 52.79 0.071 7.14 24.88 10.84
10/31/2021 3:15:00 PM 11.56 52.808 0.071 7.13 24.76 10.82
10/31/2021 3:30:00 PM 11.56 52.808 0.071 7.14 24.97 10.78
10/31/2021 3:45:00 PM 11.57 52.826 0.071 7.13 25.28 10.76
10/31/2021 4:00:00 PM 11.57 52.826 0.071 7.13 25.1 10.74
10/31/2021 4:15:00 PM 11.57 52.826 0.071 7.12 25.1 10.73
10/31/2021 4:30:00 PM 11.57 52.826 0.071 7.12 24.99 10.71
10/31/2021 4:45:00 PM 11.58 52.844 0.07 7.12 25.34 10.71
10/31/2021 5:00:00 PM 11.57 52.826 0.07 7.11 25.57 10.7
10/31/2021 5:15:00 PM 11.56 52.808 0.07 7.11 25.77 10.69
10/31/2021 5:30:00 PM 11.55 52.79 0.07 7.1 25.38 10.68
10/31/2021 5:45:00 PM 11.54 52.772 0.07 7.11 25.53 10.67
10/31/2021 6:00:00 PM 11.53 52.754 0.07 7.1 25.19 10.65
10/31/2021 6:15:00 PM 11.52 52.736 0.07 7.09 25.46 10.63
10/31/2021 6:30:00 PM 11.49 52.682 0.07 7.08 25.54 10.63
10/31/2021 6:45:00 PM 11.46 52.628 0.07 7.07 25.66 10.62
10/31/2021 7:00:00 PM 11.42 52.556 0.07 7.08 25.62 10.62
10/31/2021 7:15:00 PM 11.38 52.484 0.07 7.07 25.87 10.63
10/31/2021 7:30:00 PM 11.34 52.412 0.07 7.06 26.02 10.64
10/31/2021 7:45:00 PM 11.3 52.34 0.07 7.06 25.11 10.64
10/31/2021 8:00:00 PM 11.26 52.268 0.07 7.05 25.07 10.65
10/31/2021 8:15:00 PM 11.22 52.196 0.07 7.05 25.17 10.66
10/31/2021 8:30:00 PM 11.18 52.124 0.07 7.04 25.43 10.67
10/31/2021 8:45:00 PM 11.13 52.034 0.07 7.04 25.13 10.69
10/31/2021 9:00:00 PM 11.08 51.944 0.07 7.04 25.14 10.7
10/31/2021 9:15:00 PM 11.04 51.872 0.07 7.04 25.16 10.72
10/31/2021 9:30:00 PM 10.99 51.782 0.07 7.04 24.97 10.73
10/31/2021 9:45:00 PM 10.94 51.692 0.07 7.04 25.36 10.74
10/31/2021 10:00:00 PM 10.89 51.602 0.07 7.03 25 10.76
10/31/2021 10:15:00 PM 10.84 51.512 0.07 7.03 24.83 10.78
10/31/2021 10:30:00 PM 10.79 51.422 0.07 7.04 25.1 10.79
10/31/2021 10:45:00 PM 10.74 51.332 0.07 7.03 25.49 10.81
10/31/2021 11:00:00 PM 10.69 51.242 0.07 7.03 25.15 10.82
10/31/2021 11:15:00 PM 10.64 51.152 0.07 7.03 25.43 10.83
10/31/2021 11:30:00 PM 10.6 51.08 0.07 7.02 25.32 10.85
10/31/2021 11:45:00 PM 10.56 51.008 0.07 7.02 25.03 10.86
11/1/2021 12:00:00 AM 10.52 50.936 0.07 7.02 25.13 10.87
11/1/2021 12:15:00 AM 10.48 50.864 0.07 7.03 25.06 10.89
11/1/2021 12:30:00 AM 10.46 50.828 0.07 7.03 25.28 10.89
11/1/2021 12:45:00 AM 10.43 50.774 0.07 7.03 25.16 10.91
11/1/2021 1:00:00 AM 10.42 50.756 0.07 7.03 25.1 10.91
11/1/2021 1:15:00 AM 10.41 50.738 0.07 7.03 25.11 10.92
11/1/2021 1:30:00 AM 10.39 50.702 0.07 7.03 25.16 10.92
11/1/2021 1:45:00 AM 10.37 50.666 0.07 7.02 25.14 10.93
11/1/2021 2:00:00 AM 10.35 50.63 0.07 7.03 25.06 10.94
11/1/2021 2:15:00 AM 10.34 50.612 0.07 7.02 24.83 10.94
11/1/2021 2:30:00 AM 10.33 50.594 0.07 7.03 25.18 10.95
11/1/2021 2:45:00 AM 10.32 50.576 0.07 7.03 25.17 10.95
11/1/2021 3:00:00 AM 10.31 50.558 0.07 7.02 25.05 10.95
11/1/2021 3:15:00 AM 10.31 50.558 0.07 7.03 25.18 10.95
11/1/2021 3:30:00 AM 10.31 50.558 0.07 7.03 25.01 10.96
11/1/2021 3:45:00 AM 10.32 50.576 0.07 7.02 25.6 10.96
11/1/2021 4:00:00 AM 10.32 50.576 0.07 7.03 25.09 10.96
11/1/2021 4:15:00 AM 10.31 50.558 0.07 7.03 24.77 10.96
11/1/2021 4:30:00 AM 10.31 50.558 0.071 7.03 24.74 10.97
11/1/2021 4:45:00 AM 10.31 50.558 0.07 7.03 24.96 10.97
11/1/2021 5:00:00 AM 10.31 50.558 0.07 7.03 24.77 10.97
11/1/2021 5:15:00 AM 10.31 50.558 0.07 7.03 24.97 10.98
11/1/2021 5:30:00 AM 10.31 50.558 0.07 7.04 24.45 10.98
11/1/2021 5:45:00 AM 10.31 50.558 0.07 7.03 24.89 10.98
11/1/2021 6:00:00 AM 10.3 50.54 0.07 7.03 24.85 10.99
11/1/2021 6:15:00 AM 10.28 50.504 0.07 7.04 24.97 10.99
11/1/2021 6:30:00 AM 10.27 50.486 0.07 7.05 24.81 11
11/1/2021 6:45:00 AM 10.24 50.432 0.07 7.04 24.95 11.01
11/1/2021 7:00:00 AM 10.2 50.36 0.07 7.04 24.83 11.01
11/1/2021 7:15:00 AM 10.17 50.306 0.071 7.04 25.02 11.02
11/1/2021 7:30:00 AM 10.14 50.252 0.071 7.04 25.17 11.04
11/1/2021 7:45:00 AM 10.11 50.198 0.071 7.04 25.06 11.05
11/1/2021 8:00:00 AM 10.08 50.144 0.071 7.05 24.84 11.07
11/1/2021 8:15:00 AM 10.04 50.072 0.071 7.04 24.99 11.09
11/1/2021 8:30:00 AM 10.01 50.018 0.071 7.05 24.85 11.12
11/1/2021 8:45:00 AM 9.97 49.946 0.071 7.05 24.75 11.15
11/1/2021 9:00:00 AM 9.94 49.892 0.071 7.06 24.8 11.19
11/1/2021 9:15:00 AM 9.92 49.856 0.071 7.06 24.51 11.22
11/1/2021 9:30:00 AM 9.89 49.802 0.071 7.06 24.52 11.26
11/1/2021 9:45:00 AM 9.88 49.784 0.071 7.07 24.63 11.28
11/1/2021 10:00:00 AM 9.88 49.784 0.071 7.09 24.66 11.32
11/1/2021 10:15:00 AM 9.88 49.784 0.071 7.09 24.16 11.37
11/1/2021 10:30:00 AM 9.91 49.838 0.071 7.11 24.54 11.41
11/1/2021 10:45:00 AM 9.9 49.82 0.071 7.11 24.4 11.43
11/1/2021 11:00:00 AM 9.92 49.856 0.071 7.11 24.27 11.44
11/1/2021 11:15:00 AM 9.97 49.946 0.071 7.13 24.26 11.48
11/1/2021 11:30:00 AM 9.98 49.964 0.071 7.14 24.34 11.48
11/1/2021 11:45:00 AM 9.98 49.964 0.071 7.15 24.07 11.49
11/1/2021 12:00:00 PM 10.05 50.09 0.071 7.15 24.2 11.51
11/1/2021 12:15:00 PM 10.16 50.288 0.071 7.15 24.32 11.5
11/1/2021 12:30:00 PM 10.22 50.396 0.071 7.16 24.39 11.48
11/1/2021 12:45:00 PM 10.34 50.612 0.071 7.17 24.41 11.5
11/1/2021 1:00:00 PM 10.37 50.666 0.071 7.17 24.55 11.49
11/1/2021 1:15:00 PM 10.39 50.702 0.071 7.18 24.78 11.45
11/1/2021 1:30:00 PM 10.35 50.63 0.071 7.18 24.68 11.46
11/1/2021 1:45:00 PM 10.29 50.522 0.071 7.17 24.72 11.43
11/1/2021 2:00:00 PM 10.28 50.504 0.071 7.17 24.92 11.43
11/1/2021 2:15:00 PM 10.34 50.612 0.071 7.17 24.62 11.48
11/1/2021 2:30:00 PM 10.41 50.738 0.071 7.18 24.74 11.45
11/1/2021 2:45:00 PM 10.5 50.9 0.071 7.18 24.45 11.45
11/1/2021 3:00:00 PM 10.59 51.062 0.071 7.18 24.65 11.39
11/1/2021 3:15:00 PM 10.65 51.17 0.071 7.19 24.44 11.37
11/1/2021 3:30:00 PM 10.7 51.26 0.071 7.19 24.55 11.33
11/1/2021 3:45:00 PM 10.72 51.296 0.071 7.19 24.69 11.3
11/1/2021 4:00:00 PM 10.74 51.332 0.071 7.19 24.59 11.3
11/1/2021 4:15:00 PM 10.74 51.332 0.071 7.18 24.73 11.29
11/1/2021 4:30:00 PM 10.73 51.314 0.071 7.18 24.82 11.28
11/1/2021 4:45:00 PM 10.69 51.242 0.071 7.18 24.61 11.27
11/1/2021 5:00:00 PM 10.65 51.17 0.071 7.18 24.91 11.24
11/1/2021 5:15:00 PM 10.6 51.08 0.072 7.18 24.97 11.21
11/1/2021 5:30:00 PM 10.54 50.972 0.072 7.18 24.94 11.18
11/1/2021 5:45:00 PM 10.5 50.9 0.072 7.15 25.37 11.15
11/1/2021 6:00:00 PM 10.45 50.81 0.072 7.14 24.83 11.12
11/1/2021 6:15:00 PM 10.42 50.756 0.072 7.12 25.1 11.1
11/1/2021 6:30:00 PM 10.38 50.684 0.072 7.12 25.14 11.08
11/1/2021 6:45:00 PM 10.34 50.612 0.072 7.11 25.12 11.07
11/1/2021 7:00:00 PM 10.28 50.504 0.072 7.1 25.14 11.07
11/1/2021 7:15:00 PM 10.23 50.414 0.072 7.09 25.2 11.08
11/1/2021 7:30:00 PM 10.17 50.306 0.072 7.09 25.4 11.09
11/1/2021 7:45:00 PM 10.11 50.198 0.072 7.09 25.53 11.1
11/1/2021 8:00:00 PM 10.05 50.09 0.072 7.08 25.43 11.12
11/1/2021 8:15:00 PM 9.98 49.964 0.072 7.08 25.51 11.13
11/1/2021 8:30:00 PM 9.92 49.856 0.072 7.07 25.57 11.15
11/1/2021 8:45:00 PM 9.86 49.748 0.072 7.07 25.71 11.17
11/1/2021 9:00:00 PM 9.81 49.658 0.072 7.07 25.72 11.18
11/1/2021 9:15:00 PM 9.76 49.568 0.072 7.07 25.7 11.2
11/1/2021 9:30:00 PM 9.71 49.478 0.072 7.07 26.06 11.21
11/1/2021 9:45:00 PM 9.66 49.388 0.073 7.08 26.35 11.23
11/1/2021 10:00:00 PM 9.6 49.28 0.072 7.07 26.31 11.25
11/1/2021 10:15:00 PM 9.55 49.19 0.073 7.07 26.23 11.26
11/1/2021 10:30:00 PM 9.5 49.1 0.073 7.07 25.97 11.28
11/1/2021 10:45:00 PM 9.44 48.992 0.073 7.07 26.11 11.29
11/1/2021 11:00:00 PM 9.39 48.902 0.073 7.07 25.85 11.31
11/1/2021 11:15:00 PM 9.33 48.794 0.073 7.07 26.46 11.33
11/1/2021 11:30:00 PM 9.28 48.704 0.073 7.07 25.88 11.34
11/1/2021 11:45:00 PM 9.24 48.632 0.073 7.06 25.8 11.36
11/2/2021 12:00:00 AM 9.2 48.56 0.073 7.07 25.82 11.37
11/2/2021 12:15:00 AM 9.17 48.506 0.073 7.07 25.52 11.38
11/2/2021 12:30:00 AM 9.14 48.452 0.073 7.06 25.78 11.39
11/2/2021 12:45:00 AM 9.11 48.398 0.073 7.07 25.8 11.4
11/2/2021 1:00:00 AM 9.08 48.344 0.073 7.06 25.87 11.41
11/2/2021 1:15:00 AM 9.05 48.29 0.073 7.06 25.72 11.42
11/2/2021 1:30:00 AM 9.02 48.236 0.073 7.06 25.58 11.42
11/2/2021 1:45:00 AM 9 48.2 0.073 7.06 25.88 11.43
11/2/2021 2:00:00 AM 8.98 48.164 0.073 7.04 16.22 11.44
11/2/2021 2:15:00 AM 8.96 48.128 0.073 7.08 14.09 11.45
11/2/2021 2:30:00 AM 8.93 48.074 0.073 7.08 13.98 11.46
11/2/2021 2:45:00 AM 8.91 48.038 0.073 7.08 13.86 11.46
11/2/2021 3:00:00 AM 8.9 48.02 0.073 7.08 13.74 11.46
11/2/2021 3:15:00 AM 8.88 47.984 0.073 7.08 13.71 11.47
11/2/2021 3:30:00 AM 8.86 47.948 0.073 7.07 13.72 11.48
11/2/2021 3:45:00 AM 8.84 47.912 0.073 7.07 13.65 11.48
11/2/2021 4:00:00 AM 8.83 47.894 0.073 7.06 13.68 11.48
11/2/2021 4:15:00 AM 8.8 47.84 0.073 7.07 13.68 11.49
11/2/2021 4:30:00 AM 8.79 47.822 0.073 7.07 13.59 11.5
11/2/2021 4:45:00 AM 8.77 47.786 0.073 7.07 13.66 11.5
11/2/2021 5:00:00 AM 8.74 47.732 0.073 7.07 13.55 11.51
11/2/2021 5:15:00 AM 8.72 47.696 0.073 7.07 13.5 11.52
11/2/2021 5:30:00 AM 8.71 47.678 0.073 7.06 13.53 11.52
11/2/2021 5:45:00 AM 8.69 47.642 0.073 7.07 13.51 11.53
11/2/2021 6:00:00 AM 8.67 47.606 0.073 7.07 13.5 11.53
11/2/2021 6:15:00 AM 8.64 47.552 0.073 7.07 13.52 11.54
11/2/2021 6:30:00 AM 8.62 47.516 0.073 7.07 13.53 11.55
11/2/2021 6:45:00 AM 8.6 47.48 0.073 7.07 13.5 11.55
11/2/2021 7:00:00 AM 8.58 47.444 0.073 7.07 13.53 11.56
11/2/2021 7:15:00 AM 8.56 47.408 0.073 7.07 13.64 11.57
11/2/2021 7:30:00 AM 8.54 47.372 0.074 7.07 13.49 11.58
11/2/2021 7:45:00 AM 8.52 47.336 0.074 7.06 13.62 11.58
11/2/2021 8:00:00 AM 8.51 47.318 0.074 7.06 13.47 11.6
11/2/2021 8:15:00 AM 8.5 47.3 0.074 7.07 13.33 11.61
11/2/2021 8:30:00 AM 8.48 47.264 0.074 7.08 13.26 11.65
11/2/2021 8:45:00 AM 8.48 47.264 0.074 7.09 13.22 11.7
11/2/2021 9:00:00 AM 8.5 47.3 0.074 7.1 13.23 11.78
11/2/2021 9:15:00 AM 8.52 47.336 0.074 7.11 13.04 11.83
11/2/2021 9:30:00 AM 8.55 47.39 0.074 7.12 13.06 11.86
11/2/2021 9:45:00 AM 8.57 47.426 0.074 7.13 12.99 11.88
11/2/2021 10:00:00 AM 8.6 47.48 0.073 7.15 12.87 11.91
11/2/2021 10:15:00 AM 8.63 47.534 0.073 7.15 12.83 11.92
11/2/2021 10:30:00 AM 8.69 47.642 0.073 7.16 12.87 11.95
11/2/2021 10:45:00 AM 8.73 47.714 0.073 7.18 12.7 11.96
11/2/2021 11:00:00 AM 8.79 47.822 0.073 7.19 12.82 11.97
11/2/2021 11:15:00 AM 8.83 47.894 0.074 7.2 12.72 11.98
11/2/2021 11:30:00 AM 8.88 47.984 0.073 7.21 12.74 11.97
11/2/2021 11:45:00 AM 8.92 48.056 0.073 7.22 12.73 11.95
11/2/2021 12:00:00 PM 8.95 48.11 0.073 7.22 12.75 11.94
11/2/2021 12:15:00 PM 8.98 48.164 0.073 7.23 12.68 11.93
11/2/2021 12:30:00 PM 9 48.2 0.073 7.23 12.75 11.93
11/2/2021 12:45:00 PM 9.04 48.272 0.073 7.24 12.63 11.94
11/2/2021 1:00:00 PM 9.06 48.308 0.073 7.24 12.92 11.9
11/2/2021 1:15:00 PM 9.14 48.452 0.073 7.25 12.79 11.92
11/2/2021 1:30:00 PM 9.18 48.524 0.073 7.26 12.73 11.91
11/2/2021 1:45:00 PM 9.23 48.614 0.073 7.26 12.78 11.89
11/2/2021 2:00:00 PM 9.27 48.686 0.073 7.26 12.73 11.85
11/2/2021 2:15:00 PM 9.29 48.722 0.073 7.26 12.6 11.84
11/2/2021 2:30:00 PM 9.32 48.776 0.073 7.26 12.75 11.84
11/2/2021 2:45:00 PM 9.32 48.776 0.074 7.26 12.71 11.82
11/2/2021 3:00:00 PM 9.32 48.776 0.074 7.26 12.92 11.82
11/2/2021 3:15:00 PM 9.31 48.758 0.074 7.26 12.9 11.78
11/2/2021 3:30:00 PM 9.32 48.776 0.074 7.26 12.84 11.79
11/2/2021 3:45:00 PM 9.36 48.848 0.074 7.26 12.87 11.75
11/2/2021 4:00:00 PM 9.36 48.848 0.074 7.25 12.96 11.67
11/2/2021 4:15:00 PM 9.36 48.848 0.074 7.24 13.34 11.66
11/2/2021 4:30:00 PM 9.36 48.848 0.074 7.24 13.41 11.66
11/2/2021 4:45:00 PM 9.35 48.83 0.074 7.23 13.38 11.65
11/2/2021 5:00:00 PM 9.34 48.812 0.074 7.23 13.19 11.63
11/2/2021 5:15:00 PM 9.33 48.794 0.074 7.22 13.34 11.6
11/2/2021 5:30:00 PM 9.32 48.776 0.074 7.21 13.2 11.57
11/2/2021 5:45:00 PM 9.31 48.758 0.074 7.21 13.19 11.53
11/2/2021 6:00:00 PM 9.29 48.722 0.074 7.19 13.31 11.49
11/2/2021 6:15:00 PM 9.27 48.686 0.074 7.18 13.27 11.45
11/2/2021 6:30:00 PM 9.25 48.65 0.074 7.17 13.47 11.43
11/2/2021 6:45:00 PM 9.23 48.614 0.074 7.17 13.52 11.42
11/2/2021 7:00:00 PM 9.21 48.578 0.074 7.15 13.56 11.41
11/2/2021 7:15:00 PM 9.18 48.524 0.075 7.15 13.47 11.41
11/2/2021 7:30:00 PM 9.14 48.452 0.075 7.14 13.46 11.41
11/2/2021 7:45:00 PM 9.12 48.416 0.075 7.13 13.57 11.41
11/2/2021 8:00:00 PM 9.08 48.344 0.075 7.13 13.65 11.43
11/2/2021 8:15:00 PM 9.04 48.272 0.075 7.11 13.61 11.43
11/2/2021 8:30:00 PM 9.01 48.218 0.075 7.12 13.73 11.44
11/2/2021 8:45:00 PM 8.97 48.146 0.075 7.12 13.61 11.45
11/2/2021 9:00:00 PM 8.92 48.056 0.075 7.12 13.84 11.46
11/2/2021 9:15:00 PM 8.87 47.966 0.075 7.12 13.72 11.48
11/2/2021 9:30:00 PM 8.83 47.894 0.075 7.12 13.87 11.49
11/2/2021 9:45:00 PM 8.78 47.804 0.075 7.11 13.84 11.5
11/2/2021 10:00:00 PM 8.73 47.714 0.075 7.11 13.94 11.51
11/2/2021 10:15:00 PM 8.69 47.642 0.075 7.11 13.87 11.52
11/2/2021 10:30:00 PM 8.65 47.57 0.075 7.11 13.97 11.53
11/2/2021 10:45:00 PM 8.59 47.462 0.075 7.11 13.98 11.54
11/2/2021 11:00:00 PM 8.54 47.372 0.075 7.11 13.94 11.56
11/2/2021 11:15:00 PM 8.49 47.282 0.075 7.1 13.96 11.57
11/2/2021 11:30:00 PM 8.45 47.21 0.075 7.11 14.08 11.59
11/2/2021 11:45:00 PM 8.39 47.102 0.075 7.1 14.01 11.61
11/3/2021 12:00:00 AM 8.34 47.012 0.075 7.11 14.03 11.62
11/3/2021 12:15:00 AM 8.29 46.922 0.075 7.1 13.98 11.64
11/3/2021 12:30:00 AM 8.24 46.832 0.075 7.1 13.88 11.66
11/3/2021 12:45:00 AM 8.22 46.796 0.075 7.1 13.94 11.67
11/3/2021 1:00:00 AM 8.2 46.76 0.075 7.1 14.08 11.68
11/3/2021 1:15:00 AM 8.17 46.706 0.075 7.1 13.83 11.69
11/3/2021 1:30:00 AM 8.14 46.652 0.075 7.1 14.2 11.7
11/3/2021 1:45:00 AM 8.1 46.58 0.075 7.1 14.06 11.71
11/3/2021 2:00:00 AM 8.07 46.526 0.075 7.11 14.11 11.72
11/3/2021 2:15:00 AM 8.03 46.454 0.075 7.11 14.09 11.73
11/3/2021 2:30:00 AM 8 46.4 0.075 7.11 14.26 11.75
11/3/2021 2:45:00 AM 7.97 46.346 0.076 7.11 14.19 11.76
11/3/2021 3:00:00 AM 7.95 46.31 0.075 7.1 13.93 11.77
11/3/2021 3:15:00 AM 7.92 46.256 0.076 7.1 14.32 11.78
11/3/2021 3:30:00 AM 7.91 46.238 0.076 7.1 14.12 11.78
11/3/2021 3:45:00 AM 7.88 46.184 0.076 7.1 14.12 11.79
11/3/2021 4:00:00 AM 7.86 46.148 0.076 7.1 14.21 11.79
11/3/2021 4:15:00 AM 7.84 46.112 0.076 7.1 14.29 11.8
11/3/2021 4:30:00 AM 7.82 46.076 0.076 7.11 14.12 11.81
11/3/2021 4:45:00 AM 7.79 46.022 0.076 7.11 14.37 11.81
11/3/2021 5:00:00 AM 7.78 46.004 0.076 7.11 14.21 11.82
11/3/2021 5:15:00 AM 7.76 45.968 0.076 7.11 14.28 11.83
11/3/2021 5:30:00 AM 7.75 45.95 0.076 7.1 14.24 11.83
11/3/2021 5:45:00 AM 7.73 45.914 0.076 7.1 14.12 11.84
11/3/2021 6:00:00 AM 7.7 45.86 0.076 7.1 14.19 11.84
11/3/2021 6:15:00 AM 7.69 45.842 0.076 7.1 13.94 11.85
11/3/2021 6:30:00 AM 7.65 45.77 0.076 7.1 13.86 11.86
11/3/2021 6:45:00 AM 7.64 45.752 0.076 7.1 14.06 11.87
11/3/2021 7:00:00 AM 7.61 45.698 0.076 7.1 13.98 11.88
11/3/2021 7:15:00 AM 7.59 45.662 0.076 7.1 13.96 11.88
11/3/2021 7:30:00 AM 7.57 45.626 0.076 7.1 14.09 11.89
11/3/2021 7:45:00 AM 7.55 45.59 0.076 7.1 14.05 11.9
11/3/2021 8:00:00 AM 7.52 45.536 0.076 7.1 13.94 11.93
11/3/2021 8:15:00 AM 7.51 45.518 0.076 7.11 13.89 11.96
11/3/2021 8:30:00 AM 7.49 45.482 0.076 7.12 13.88 11.99
11/3/2021 8:45:00 AM 7.47 45.446 0.076 7.12 13.85 12.02
11/3/2021 9:00:00 AM 7.44 45.392 0.076 7.12 13.79 12.08
11/3/2021 9:15:00 AM 7.42 45.356 0.076 7.13 13.79 12.12
11/3/2021 9:30:00 AM 7.43 45.374 0.076 7.14 13.94 12.19
11/3/2021 9:45:00 AM 7.44 45.392 0.076 7.16 14.04 12.22
11/3/2021 10:00:00 AM 7.45 45.41 0.076 7.16 14.01 12.25
11/3/2021 10:15:00 AM 7.49 45.482 0.076 7.17 13.69 12.29
11/3/2021 10:30:00 AM 7.54 45.572 0.076 7.18 13.68 12.33
11/3/2021 10:45:00 AM 7.56 45.608 0.076 7.2 13.84 12.35
11/3/2021 11:00:00 AM 7.58 45.644 0.076 7.21 13.81 12.39
11/3/2021 11:15:00 AM 7.62 45.716 0.076 7.23 13.79 12.4
11/3/2021 11:30:00 AM 7.66 45.788 0.076 7.24 13.62 12.42
11/3/2021 11:45:00 AM 7.73 45.914 0.076 7.24 13.8 12.42
11/3/2021 12:00:00 PM 7.78 46.004 0.076 7.26 13.68 12.42
11/3/2021 12:15:00 PM 7.8 46.04 0.076 7.26 13.81 12.41
11/3/2021 12:30:00 PM 7.87 46.166 0.076 7.27 13.77 12.43
11/3/2021 12:45:00 PM 7.94 46.292 0.076 7.28 13.66 12.41
11/3/2021 1:00:00 PM 8.01 46.418 0.076 7.28 13.55 12.38
11/3/2021 1:15:00 PM 8.11 46.598 0.076 7.29 13.68 12.36
11/3/2021 1:30:00 PM 8.14 46.652 0.076 7.3 13.79 12.34
11/3/2021 1:45:00 PM 8.24 46.832 0.076 7.3 13.56 12.32
11/3/2021 2:00:00 PM 8.32 46.976 0.076 7.31 13.83 12.3
11/3/2021 2:15:00 PM 8.46 47.228 0.076 7.31 13.85 12.32
11/3/2021 2:30:00 PM 8.49 47.282 0.076 7.32 13.88 12.25
11/3/2021 2:45:00 PM 8.48 47.264 0.076 7.32 13.9 12.21
11/3/2021 3:00:00 PM 8.49 47.282 0.076 7.31 13.78 12.2
11/3/2021 3:15:00 PM 8.5 47.3 0.076 7.31 13.84 12.2
11/3/2021 3:30:00 PM 8.54 47.372 0.076 7.32 13.87 12.2
11/3/2021 3:45:00 PM 8.56 47.408 0.076 7.32 13.9 12.17
11/3/2021 4:00:00 PM 8.57 47.426 0.076 7.31 14.09 12.12
11/3/2021 4:15:00 PM 8.58 47.444 0.076 7.31 14.08 12.06
11/3/2021 4:30:00 PM 8.57 47.426 0.076 7.3 14.05 12.02
11/3/2021 4:45:00 PM 8.6 47.48 0.076 7.29 14.02 12.02
11/3/2021 5:00:00 PM 8.59 47.462 0.076 7.28 14.1 11.98
11/3/2021 5:15:00 PM 8.57 47.426 0.076 7.28 14.24 11.95
11/3/2021 5:30:00 PM 8.55 47.39 0.076 7.26 14.36 11.89
11/3/2021 5:45:00 PM 8.54 47.372 0.076 7.25 14.24 11.83
11/3/2021 6:00:00 PM 8.53 47.354 0.076 7.23 14.26 11.78
11/3/2021 6:15:00 PM 8.52 47.336 0.076 7.21 14.5 11.74
11/3/2021 6:30:00 PM 8.51 47.318 0.076 7.21 14.42 11.71
11/3/2021 6:45:00 PM 8.51 47.318 0.077 7.2 14.46 11.69
11/3/2021 7:00:00 PM 8.49 47.282 0.077 7.18 14.73 11.68
11/3/2021 7:15:00 PM 8.47 47.246 0.077 7.18 14.62 11.67
11/3/2021 7:30:00 PM 8.45 47.21 0.077 7.18 14.61 11.67
11/3/2021 7:45:00 PM 8.43 47.174 0.077 7.17 14.67 11.67
11/3/2021 8:00:00 PM 8.39 47.102 0.077 7.16 14.7 11.68
11/3/2021 8:15:00 PM 8.36 47.048 0.077 7.16 14.74 11.69
11/3/2021 8:30:00 PM 8.33 46.994 0.077 7.16 14.83 11.7
11/3/2021 8:45:00 PM 8.3 46.94 0.077 7.15 14.9 11.71
11/3/2021 9:00:00 PM 8.28 46.904 0.077 7.15 14.82 11.71
11/3/2021 9:15:00 PM 8.26 46.868 0.077 7.14 15.14 11.71
11/3/2021 9:30:00 PM 8.23 46.814 0.077 7.15 14.88 11.72
11/3/2021 9:45:00 PM 8.21 46.778 0.077 7.14 15.1 11.73
11/3/2021 10:00:00 PM 8.19 46.742 0.077 7.14 14.93 11.73
11/3/2021 10:15:00 PM 8.16 46.688 0.077 7.14 14.83 11.74
11/3/2021 10:30:00 PM 8.13 46.634 0.077 7.13 14.94 11.75
11/3/2021 10:45:00 PM 8.1 46.58 0.077 7.13 15.05 11.76
11/3/2021 11:00:00 PM 8.06 46.508 0.077 7.13 15.01 11.77
11/3/2021 11:15:00 PM 8.02 46.436 0.077 7.13 14.9 11.78
11/3/2021 11:30:00 PM 7.98 46.364 0.077 7.14 14.98 11.79
11/3/2021 11:45:00 PM 7.94 46.292 0.077 7.13 14.91 11.81
11/4/2021 12:00:00 AM 7.9 46.22 0.078 7.13 15.11 11.82
11/4/2021 12:15:00 AM 7.86 46.148 0.078 7.13 15.04 11.83
11/4/2021 12:30:00 AM 7.82 46.076 0.078 7.13 15.06 11.84
11/4/2021 12:45:00 AM 7.78 46.004 0.078 7.14 15.17 11.86
11/4/2021 1:00:00 AM 7.74 45.932 0.078 7.12 15.14 11.86
11/4/2021 1:15:00 AM 7.7 45.86 0.078 7.13 14.88 11.88
11/4/2021 1:30:00 AM 7.66 45.788 0.078 7.12 15.18 11.89
11/4/2021 1:45:00 AM 7.61 45.698 0.078 7.13 15.18 11.9
11/4/2021 2:00:00 AM 7.57 45.626 0.078 7.13 15.25 11.91
11/4/2021 2:15:00 AM 7.53 45.554 0.078 7.12 15.35 11.93
11/4/2021 2:30:00 AM 7.48 45.464 0.078 7.12 15.2 11.95
11/4/2021 2:45:00 AM 7.44 45.392 0.078 7.12 15.2 11.95
11/4/2021 3:00:00 AM 7.4 45.32 0.078 7.13 15.12 11.97
11/4/2021 3:15:00 AM 7.35 45.23 0.078 7.12 15.25 11.98
11/4/2021 3:30:00 AM 7.32 45.176 0.078 7.12 15.24 12
11/4/2021 3:45:00 AM 7.29 45.122 0.078 7.13 15.31 12.01
11/4/2021 4:00:00 AM 7.25 45.05 0.078 7.12 15.25 12.02
11/4/2021 4:15:00 AM 7.22 44.996 0.078 7.13 15.27 12.03
11/4/2021 4:30:00 AM 7.2 44.96 0.078 7.13 15.32 12.05
11/4/2021 4:45:00 AM 7.18 44.924 0.078 7.13 15.4 12.05
11/4/2021 5:00:00 AM 7.15 44.87 0.078 7.12 15.36 12.06
11/4/2021 5:15:00 AM 7.13 44.834 0.078 7.12 15.41 12.07
11/4/2021 5:30:00 AM 7.1 44.78 0.078 7.13 15.11 12.08
11/4/2021 5:45:00 AM 7.07 44.726 0.078 7.13 15.28 12.09
11/4/2021 6:00:00 AM 7.03 44.654 0.078 7.12 15.29 12.1
11/4/2021 6:15:00 AM 6.99 44.582 0.078 7.12 15.46 12.11
11/4/2021 6:30:00 AM 6.96 44.528 0.078 7.13 15.49 12.12
11/4/2021 6:45:00 AM 6.92 44.456 0.078 7.12 15.51 12.13
11/4/2021 7:00:00 AM 6.88 44.384 0.078 7.13 15.44 12.14
11/4/2021 7:15:00 AM 6.86 44.348 0.078 7.12 15.39 12.15
11/4/2021 7:30:00 AM 6.83 44.294 0.078 7.12 15.57 12.17
11/4/2021 7:45:00 AM 6.81 44.258 0.078 7.13 15.58 12.17
11/4/2021 8:00:00 AM 6.8 44.24 0.078 7.13 15.4 12.2
11/4/2021 8:15:00 AM 6.78 44.204 0.078 7.14 15.44 12.24
11/4/2021 8:30:00 AM 6.77 44.186 0.078 7.14 15.45 12.3
11/4/2021 8:45:00 AM 6.76 44.168 0.078 7.15 15.5 12.37
11/4/2021 9:00:00 AM 6.77 44.186 0.078 7.16 15.31 12.44
11/4/2021 9:15:00 AM 6.76 44.168 0.078 7.17 15.46 12.48
11/4/2021 9:30:00 AM 6.75 44.15 0.078 7.18 15.32 12.51
11/4/2021 9:45:00 AM 6.75 44.15 0.078 7.2 15.25 12.52
11/4/2021 10:00:00 AM 6.75 44.15 0.078 7.2 15.3 12.54
11/4/2021 10:15:00 AM 6.77 44.186 0.078 7.21 15.45 12.58
11/4/2021 10:30:00 AM 6.81 44.258 0.078 7.22 15.33 12.59
11/4/2021 10:45:00 AM 6.85 44.33 0.078 7.23 15.19 12.61
11/4/2021 11:00:00 AM 6.9 44.42 0.078 7.24 15.23 12.64
11/4/2021 11:15:00 AM 6.96 44.528 0.078 7.25 15.19 12.64
11/4/2021 11:30:00 AM 7.03 44.654 0.078 7.26 15.27 12.65
11/4/2021 11:45:00 AM 7.11 44.798 0.078 7.26 15.16 12.64
11/4/2021 12:00:00 PM 7.21 44.978 0.078 7.28 15.13 12.65
11/4/2021 12:15:00 PM 7.32 45.176 0.078 7.3 15.01 12.67
11/4/2021 12:30:00 PM 7.43 45.374 0.078 7.31 15.12 12.66
11/4/2021 12:45:00 PM 7.53 45.554 0.078 7.32 15.14 12.64
11/4/2021 1:00:00 PM 7.58 45.644 0.078 7.33 15.08 12.61
11/4/2021 1:15:00 PM 7.61 45.698 0.078 7.33 15 12.6
11/4/2021 1:30:00 PM 7.68 45.824 0.078 7.34 15.13 12.61
11/4/2021 1:45:00 PM 7.73 45.914 0.078 7.35 15 12.59
11/4/2021 2:00:00 PM 7.76 45.968 0.078 7.35 15.12 12.55
11/4/2021 2:15:00 PM 7.82 46.076 0.078 7.36 14.99 12.54
11/4/2021 2:30:00 PM 7.87 46.166 0.078 7.36 15.25 12.5
11/4/2021 2:45:00 PM 7.92 46.256 0.078 7.36 15.2 12.48
11/4/2021 3:00:00 PM 7.96 46.328 0.078 7.37 15.03 12.45
11/4/2021 3:15:00 PM 8.01 46.418 0.078 7.37 15.11 12.43
11/4/2021 3:30:00 PM 8.06 46.508 0.078 7.37 15.29 12.41
11/4/2021 3:45:00 PM 8.08 46.544 0.078 7.37 15.09 12.41
11/4/2021 4:00:00 PM 8.08 46.544 0.078 7.38 14.85 12.39
11/4/2021 4:15:00 PM 8.08 46.544 0.078 7.37 15.17 12.35
11/4/2021 4:30:00 PM 8.09 46.562 0.078 7.37 15.15 12.32
11/4/2021 4:45:00 PM 8.08 46.544 0.078 7.36 15.43 12.29
11/4/2021 5:00:00 PM 8.07 46.526 0.078 7.35 15.24 12.25
11/4/2021 5:15:00 PM 8.06 46.508 0.078 7.34 15.45 12.2
11/4/2021 5:30:00 PM 8.04 46.472 0.078 7.33 15.36 12.14
11/4/2021 5:45:00 PM 8.02 46.436 0.078 7.31 15.46 12.07
11/4/2021 6:00:00 PM 7.99 46.382 0.078 7.29 15.49 12.01
11/4/2021 6:15:00 PM 7.98 46.364 0.078 7.28 15.52 11.96
11/4/2021 6:30:00 PM 7.96 46.328 0.079 7.25 15.72 11.92
11/4/2021 6:45:00 PM 7.94 46.292 0.079 7.24 15.69 11.88
11/4/2021 7:00:00 PM 7.93 46.274 0.079 7.23 15.66 11.86
11/4/2021 7:15:00 PM 7.91 46.238 0.079 7.22 15.81 11.86
11/4/2021 7:30:00 PM 7.89 46.202 0.079 7.21 15.69 11.85
11/4/2021 7:45:00 PM 7.87 46.166 0.079 7.2 15.75 11.84
11/4/2021 8:00:00 PM 7.85 46.13 0.079 7.19 15.83 11.83
11/4/2021 8:15:00 PM 7.82 46.076 0.079 7.19 15.81 11.84
11/4/2021 8:30:00 PM 7.8 46.04 0.079 7.18 16.11 11.84
11/4/2021 8:45:00 PM 7.78 46.004 0.079 7.18 15.89 11.85
11/4/2021 9:00:00 PM 7.75 45.95 0.079 7.18 15.98 11.85
11/4/2021 9:15:00 PM 7.71 45.878 0.079 7.17 16.14 11.86
11/4/2021 9:30:00 PM 7.66 45.788 0.079 7.17 15.92 11.88
11/4/2021 9:45:00 PM 7.6 45.68 0.079 7.17 15.96 11.89
11/4/2021 10:00:00 PM 7.55 45.59 0.079 7.16 16.04 11.9
11/4/2021 10:15:00 PM 7.5 45.5 0.079 7.16 15.99 11.92
11/4/2021 10:30:00 PM 7.45 45.41 0.08 7.16 16.19 11.93
11/4/2021 10:45:00 PM 7.39 45.302 0.08 7.16 16.14 11.95
11/4/2021 11:00:00 PM 7.34 45.212 0.08 7.16 16.14 11.97
11/4/2021 11:15:00 PM 7.28 45.104 0.08 7.16 16.15 11.99
11/4/2021 11:30:00 PM 7.23 45.014 0.08 7.15 16.32 12
11/4/2021 11:45:00 PM 7.17 44.906 0.08 7.15 16.03 12.02
11/5/2021 12:00:00 AM 7.12 44.816 0.08 7.15 16.24 12.04
11/5/2021 12:15:00 AM 7.08 44.744 0.08 7.15 16.14 12.06
11/5/2021 12:30:00 AM 7.03 44.654 0.08 7.15 16.15 12.07
11/5/2021 12:45:00 AM 6.98 44.564 0.08 7.15 16.18 12.09
11/5/2021 1:00:00 AM 6.93 44.474 0.08 7.15 16.18 12.1
11/5/2021 1:15:00 AM 6.88 44.384 0.08 7.14 16.21 12.12
11/5/2021 1:30:00 AM 6.82 44.276 0.08 7.15 16.28 12.13
11/5/2021 1:45:00 AM 6.77 44.186 0.08 7.14 16.24 12.15
11/5/2021 2:00:00 AM 6.72 44.096 0.08 7.15 16.16 12.17
11/5/2021 2:15:00 AM 6.67 44.006 0.08 7.15 16.23 12.19
11/5/2021 2:30:00 AM 6.62 43.916 0.08 7.15 16.29 12.2
11/5/2021 2:45:00 AM 6.58 43.844 0.08 7.15 16.19 12.22
11/5/2021 3:00:00 AM 6.54 43.772 0.08 7.14 16.36 12.23
11/5/2021 3:15:00 AM 6.5 43.7 0.08 7.14 16.38 12.25
11/5/2021 3:30:00 AM 6.45 43.61 0.08 7.15 16.3 12.26
11/5/2021 3:45:00 AM 6.4 43.52 0.08 7.14 16.48 12.28
11/5/2021 4:00:00 AM 6.36 43.448 0.08 7.15 16.41 12.29
11/5/2021 4:15:00 AM 6.32 43.376 0.08 7.15 16.43 12.31
11/5/2021 4:30:00 AM 6.28 43.304 0.08 7.14 16.53 12.33
11/5/2021 4:45:00 AM 6.24 43.232 0.08 7.14 16.43 12.34
11/5/2021 5:00:00 AM 6.19 43.142 0.08 7.14 16.62 12.36
11/5/2021 5:15:00 AM 6.15 43.07 0.08 7.14 16.48 12.37
11/5/2021 5:30:00 AM 6.1 42.98 0.08 7.15 16.44 12.39
11/5/2021 5:45:00 AM 6.06 42.908 0.08 7.14 16.37 12.4
11/5/2021 6:00:00 AM 6.02 42.836 0.08 7.14 16.57 12.42
11/5/2021 6:15:00 AM 5.97 42.746 0.08 7.14 16.41 12.44
11/5/2021 6:30:00 AM 5.93 42.674 0.08 7.14 16.43 12.46
11/5/2021 6:45:00 AM 5.89 42.602 0.08 7.14 16.49 12.48
11/5/2021 7:00:00 AM 5.85 42.53 0.08 7.14 16.52 12.48
11/5/2021 7:15:00 AM 5.81 42.458 0.081 7.14 16.61 12.51
11/5/2021 7:30:00 AM 5.76 42.368 0.08 7.14 16.54 12.53
11/5/2021 7:45:00 AM 5.73 42.314 0.08 7.07 16.51 12.54
11/5/2021 8:00:00 AM 5.69 42.242 0.081 7.05 16.51 12.57
11/5/2021 8:15:00 AM 5.65 42.17 0.08 6.99 16.32 12.62
11/5/2021 8:30:00 AM 5.62 42.116 0.08 6.97 16.4 12.68
11/5/2021 8:45:00 AM 5.59 42.062 0.081 6.98 16.24 12.73
11/5/2021 9:00:00 AM 5.56 42.008 0.081 7.01 16.43 12.78
11/5/2021 9:15:00 AM 5.54 41.972 0.08 7.05 16.37 12.83
11/5/2021 9:30:00 AM 5.53 41.954 0.081 7.1 16.3 12.89
11/5/2021 9:45:00 AM 5.52 41.936 0.08 7.13 16.49 12.94
11/5/2021 10:00:00 AM 5.54 41.972 0.08 7.16 16.49 12.98
11/5/2021 10:15:00 AM 5.57 42.026 0.08 7.18 16.5 13.02
11/5/2021 10:30:00 AM 5.61 42.098 0.08 7.2 16.4 13.05
11/5/2021 10:45:00 AM 5.67 42.206 0.08 7.22 16.03 13.07
11/5/2021 11:00:00 AM 5.71 42.278 0.08 7.23 16.28 13.07
11/5/2021 11:15:00 AM 5.77 42.386 0.08 7.24 16.18 13.09
11/5/2021 11:30:00 AM 5.85 42.53 0.08 7.25 16.4 13.1
11/5/2021 11:45:00 AM 5.94 42.692 0.08 7.26 16.19 13.09
11/5/2021 12:00:00 PM 6.02 42.836 0.08 7.28 16.12 13.09
11/5/2021 12:15:00 PM 6.14 43.052 0.08 7.29 16.19 13.08
11/5/2021 12:30:00 PM 6.26 43.268 0.08 7.3 16.24 13.07
11/5/2021 12:45:00 PM 6.35 43.43 0.08 7.32 16.05 13.04
11/5/2021 1:00:00 PM 6.51 43.718 0.08 7.33 16.16 13.03
11/5/2021 1:15:00 PM 6.67 44.006 0.08 7.34 16.17 13
11/5/2021 1:30:00 PM 6.78 44.204 0.08 7.35 16.13 12.98
11/5/2021 1:45:00 PM 6.9 44.42 0.08 7.35 15.95 12.97
11/5/2021 2:00:00 PM 7.05 44.69 0.08 7.37 16.1 12.95
11/5/2021 2:15:00 PM 7.15 44.87 0.08 7.38 16.11 12.91
11/5/2021 2:30:00 PM 7.27 45.086 0.08 7.39 16.05 12.88
11/5/2021 2:45:00 PM 7.34 45.212 0.08 7.4 16.33 12.84
11/5/2021 3:00:00 PM 7.35 45.23 0.08 7.4 15.93 12.76
11/5/2021 3:15:00 PM 7.34 45.212 0.08 7.39 16.06 12.69
11/5/2021 3:30:00 PM 7.31 45.158 0.08 7.38 16.16 12.62
11/5/2021 3:45:00 PM 7.31 45.158 0.08 7.36 16.31 12.59
11/5/2021 4:00:00 PM 7.34 45.212 0.08 7.37 16.08 12.56
11/5/2021 4:15:00 PM 7.39 45.302 0.08 7.37 16.2 12.52
11/5/2021 4:30:00 PM 7.45 45.41 0.08 7.36 16.34 12.49
11/5/2021 4:45:00 PM 7.47 45.446 0.08 7.36 16.21 12.45
11/5/2021 5:00:00 PM 7.48 45.464 0.08 7.35 16.46 12.41
11/5/2021 5:15:00 PM 7.5 45.5 0.08 7.34 16.29 12.36
11/5/2021 5:30:00 PM 7.49 45.482 0.08 7.32 16.27 12.31
11/5/2021 5:45:00 PM 7.47 45.446 0.08 7.32 16.35 12.26
11/5/2021 6:00:00 PM 7.44 45.392 0.08 7.3 16.41 12.21
11/5/2021 6:15:00 PM 7.4 45.32 0.08 7.29 16.33 12.17
11/5/2021 6:30:00 PM 7.35 45.23 0.08 7.27 16.3 12.13
11/5/2021 6:45:00 PM 7.29 45.122 0.081 7.26 16.52 12.12
11/5/2021 7:00:00 PM 7.23 45.014 0.081 7.25 16.52 12.11
11/5/2021 7:15:00 PM 7.17 44.906 0.081 7.23 16.55 12.12
11/5/2021 7:30:00 PM 7.12 44.816 0.081 7.23 16.52 12.12
11/5/2021 7:45:00 PM 7.07 44.726 0.081 7.22 16.78 12.12
11/5/2021 8:00:00 PM 7.03 44.654 0.081 7.22 16.81 12.13
11/5/2021 8:15:00 PM 6.98 44.564 0.081 7.21 16.82 12.14
11/5/2021 8:30:00 PM 6.94 44.492 0.081 7.2 17 12.14
11/5/2021 8:45:00 PM 6.89 44.402 0.081 7.2 16.94 12.16
11/5/2021 9:00:00 PM 6.84 44.312 0.081 7.19 17.21 12.17
11/5/2021 9:15:00 PM 6.79 44.222 0.081 7.2 17.02 12.19
11/5/2021 9:30:00 PM 6.74 44.132 0.081 7.19 17.03 12.2
11/5/2021 9:45:00 PM 6.68 44.024 0.081 7.19 16.79 12.22
11/5/2021 10:00:00 PM 6.63 43.934 0.081 7.19 17.01 12.24
11/5/2021 10:15:00 PM 6.56 43.808 0.081 7.19 17.11 12.26
11/5/2021 10:30:00 PM 6.51 43.718 0.082 7.18 17.14 12.28
11/5/2021 10:45:00 PM 6.44 43.592 0.082 7.18 16.93 12.3
11/5/2021 11:00:00 PM 6.38 43.484 0.082 7.18 17.1 12.33
11/5/2021 11:15:00 PM 6.32 43.376 0.082 7.18 17.23 12.35
11/5/2021 11:30:00 PM 6.26 43.268 0.082 7.18 17.27 12.37
11/5/2021 11:45:00 PM 6.2 43.16 0.082 7.17 17.37 12.39
11/6/2021 12:00:00 AM 6.15 43.07 0.082 7.17 17.36 12.41
11/6/2021 12:15:00 AM 6.09 42.962 0.082 7.17 17.19 12.43
11/6/2021 12:30:00 AM 6.04 42.872 0.082 7.17 17.42 12.44
11/6/2021 12:45:00 AM 5.99 42.782 0.082 7.17 17.38 12.47
11/6/2021 1:00:00 AM 5.94 42.692 0.082 7.17 16.85 12.48
11/6/2021 1:15:00 AM 5.89 42.602 0.082 7.16 17.16 12.5
11/6/2021 1:30:00 AM 5.84 42.512 0.082 7.16 16.97 12.52
11/6/2021 1:45:00 AM 5.79 42.422 0.082 7.17 17.12 12.53
11/6/2021 2:00:00 AM 5.74 42.332 0.082 7.16 16.97 12.55
11/6/2021 2:15:00 AM 5.7 42.26 0.082 7.16 17.29 12.56
11/6/2021 2:30:00 AM 5.66 42.188 0.082 7.17 17.17 12.58
11/6/2021 2:45:00 AM 5.61 42.098 0.082 7.16 17.38 12.6
11/6/2021 3:00:00 AM 5.57 42.026 0.082 7.16 17.09 12.61
11/6/2021 3:15:00 AM 5.53 41.954 0.082 7.16 17.07 12.63
11/6/2021 3:30:00 AM 5.48 41.864 0.082 7.16 17.33 12.64
11/6/2021 3:45:00 AM 5.44 41.792 0.082 7.16 17.28 12.65
11/6/2021 4:00:00 AM 5.4 41.72 0.082 7.16 16.9 12.67
11/6/2021 4:15:00 AM 5.35 41.63 0.082 7.16 16.68 12.69
11/6/2021 4:30:00 AM 5.32 41.576 0.082 7.16 16.99 12.7
11/6/2021 4:45:00 AM 5.28 41.504 0.082 7.15 17.05 12.71
11/6/2021 5:00:00 AM 5.24 41.432 0.082 7.16 17.14 12.73
11/6/2021 5:15:00 AM 5.19 41.342 0.082 7.15 16.93 12.74
11/6/2021 5:30:00 AM 5.16 41.288 0.082 7.15 16.63 12.76
11/6/2021 5:45:00 AM 5.11 41.198 0.082 7.15 16.52 12.78
11/6/2021 6:00:00 AM 5.07 41.126 0.082 7.15 16.56 12.79
11/6/2021 6:15:00 AM 5.03 41.054 0.082 7.15 16.62 12.81
11/6/2021 6:30:00 AM 4.99 40.982 0.082 7.15 16.74 12.82
11/6/2021 6:45:00 AM 4.95 40.91 0.082 7.15 16.69 12.84
11/6/2021 7:00:00 AM 4.91 40.838 0.082 7.06 16.67 12.85
11/6/2021 7:15:00 AM 4.87 40.766 0.082 7 16.82 12.87
11/6/2021 7:30:00 AM 4.83 40.694 0.082 7.02 16.68 12.88
11/6/2021 7:45:00 AM 4.79 40.622 0.082 7.05 16.81 12.9
11/6/2021 8:00:00 AM 4.76 40.568 0.082 7.07 16.64 12.93
11/6/2021 8:15:00 AM 4.73 40.514 0.082 7.07 16.45 12.98
11/6/2021 8:30:00 AM 4.7 40.46 0.082 7.1 16.21 13.03
11/6/2021 8:45:00 AM 4.66 40.388 0.082 7.11 16.57 13.09
11/6/2021 9:00:00 AM 4.64 40.352 0.082 7.13 16.79 13.14
11/6/2021 9:15:00 AM 4.62 40.316 0.082 7.15 16.53 13.19
11/6/2021 9:30:00 AM 4.61 40.298 0.082 7.16 16.54 13.24
11/6/2021 9:45:00 AM 4.61 40.298 0.082 7.19 16.41 13.3
11/6/2021 10:00:00 AM 4.62 40.316 0.082 7.2 16.4 13.34
11/6/2021 10:15:00 AM 4.65 40.37 0.082 7.21 16.59 13.38
11/6/2021 10:30:00 AM 4.7 40.46 0.082 7.23 16.41 13.41
11/6/2021 10:45:00 AM 4.76 40.568 0.082 7.24 16.61 13.42
11/6/2021 11:00:00 AM 4.82 40.676 0.082 7.26 16.44 13.44
11/6/2021 11:15:00 AM 4.89 40.802 0.082 7.27 16.57 13.44
11/6/2021 11:30:00 AM 4.96 40.928 0.082 7.27 16.44 13.45
11/6/2021 11:45:00 AM 5.06 41.108 0.082 7.29 16.23 13.44
11/6/2021 12:00:00 PM 5.18 41.324 0.082 7.3 16.21 13.44
11/6/2021 12:15:00 PM 5.3 41.54 0.082 7.3 16.43 13.41
11/6/2021 12:30:00 PM 5.43 41.774 0.082 7.32 16.4 13.39
11/6/2021 12:45:00 PM 5.55 41.99 0.082 7.33 16.38 13.37
11/6/2021 1:00:00 PM 5.69 42.242 0.082 7.34 16.21 13.33
11/6/2021 1:15:00 PM 5.85 42.53 0.082 7.35 16.22 13.28
11/6/2021 1:30:00 PM 6 42.8 0.082 7.35 16.25 13.25
11/6/2021 1:45:00 PM 6.14 43.052 0.082 7.36 16.22 13.21
11/6/2021 2:00:00 PM 6.26 43.268 0.081 7.37 16.11 13.17
11/6/2021 2:15:00 PM 6.39 43.502 0.081 7.37 16.23 13.15
11/6/2021 2:30:00 PM 6.5 43.7 0.081 7.39 16.25 13.11
11/6/2021 2:45:00 PM 6.6 43.88 0.081 7.38 16.09 13.02
11/6/2021 3:00:00 PM 6.69 44.042 0.081 7.39 16.15 12.95
11/6/2021 3:15:00 PM 6.75 44.15 0.081 7.38 16.27 12.89
11/6/2021 3:30:00 PM 6.82 44.276 0.081 7.39 16.2 12.83
11/6/2021 3:45:00 PM 6.88 44.384 0.081 7.39 16.23 12.79
11/6/2021 4:00:00 PM 6.94 44.492 0.081 7.38 16.21 12.74
11/6/2021 4:15:00 PM 6.98 44.564 0.081 7.38 16.2 12.7
11/6/2021 4:30:00 PM 7.01 44.618 0.081 7.37 15.81 12.66
11/6/2021 4:45:00 PM 7.03 44.654 0.081 7.37 16.19 12.62
11/6/2021 5:00:00 PM 7.03 44.654 0.081 7.37 15.91 12.57
11/6/2021 5:15:00 PM 7.02 44.636 0.082 7.36 16.22 12.52
11/6/2021 5:30:00 PM 7 44.6 0.082 7.34 16.28 12.47
11/6/2021 5:45:00 PM 6.97 44.546 0.082 7.33 16.47 12.43
11/6/2021 6:00:00 PM 6.93 44.474 0.082 7.31 16.38 12.38
11/6/2021 6:15:00 PM 6.88 44.384 0.082 7.3 16.61 12.32
11/6/2021 6:30:00 PM 6.83 44.294 0.082 7.29 16.48 12.29
11/6/2021 6:45:00 PM 6.78 44.204 0.082 7.27 16.56 12.27
11/6/2021 7:00:00 PM 6.73 44.114 0.082 7.26 16.54 12.25
11/6/2021 7:15:00 PM 6.68 44.024 0.082 7.24 16.58 12.24
11/6/2021 7:30:00 PM 6.63 43.934 0.082 7.24 16.77 12.24
11/6/2021 7:45:00 PM 6.58 43.844 0.082 7.23 16.75 12.25
11/6/2021 8:00:00 PM 6.54 43.772 0.083 7.22 16.73 12.25
11/6/2021 8:15:00 PM 6.49 43.682 0.083 7.21 16.7 12.26
11/6/2021 8:30:00 PM 6.44 43.592 0.083 7.22 16.85 12.27
11/6/2021 8:45:00 PM 6.39 43.502 0.083 7.2 16.88 12.28
11/6/2021 9:00:00 PM 6.34 43.412 0.083 7.2 16.72 12.3
11/6/2021 9:15:00 PM 6.3 43.34 0.083 7.2 16.75 12.31
11/6/2021 9:30:00 PM 6.24 43.232 0.083 7.2 16.87 12.32
11/6/2021 9:45:00 PM 6.19 43.142 0.083 7.2 16.59 12.34
11/6/2021 10:00:00 PM 6.14 43.052 0.083 7.19 16.86 12.36
11/6/2021 10:15:00 PM 6.08 42.944 0.083 7.2 16.87 12.38
11/6/2021 10:30:00 PM 6.03 42.854 0.083 7.19 17.14 12.4
11/6/2021 10:45:00 PM 5.98 42.764 0.083 7.19 17.13 12.41
11/6/2021 11:00:00 PM 5.93 42.674 0.083 7.19 17.06 12.43
11/6/2021 11:15:00 PM 5.88 42.584 0.083 7.19 17.08 12.45
11/6/2021 11:30:00 PM 5.83 42.494 0.084 7.18 17.06 12.46
11/6/2021 11:45:00 PM 5.78 42.404 0.084 7.19 17.12 12.48
11/7/2021 12:00:00 AM 5.73 42.314 0.084 7.18 17.04 12.49
11/7/2021 12:15:00 AM 5.69 42.242 0.084 7.18 17.1 12.51
11/7/2021 12:30:00 AM 5.64 42.152 0.084 7.18 17.14 12.53
11/7/2021 12:45:00 AM 5.6 42.08 0.084 7.19 16.94 12.54
11/7/2021 1:00:00 AM 5.55 41.99 0.084 7.18 16.97 12.56
11/7/2021 1:15:00 AM 5.51 41.918 0.084 7.17 17.25 12.57
11/7/2021 1:30:00 AM 5.46 41.828 0.084 7.19 17.04 12.59
11/7/2021 1:45:00 AM 5.42 41.756 0.084 7.18 17.16 12.61
11/7/2021 2:00:00 AM 5.38 41.684 0.084 7.17 16.94 12.62
11/7/2021 2:15:00 AM 5.33 41.594 0.084 7.18 17.03 12.64
11/7/2021 2:30:00 AM 5.28 41.504 0.084 7.18 17.04 12.65
11/7/2021 2:45:00 AM 5.24 41.432 0.084 7.17 17.05 12.66
11/7/2021 3:00:00 AM 5.2 41.36 0.084 7.17 17.25 12.68
11/7/2021 3:15:00 AM 5.15 41.27 0.084 7.16 17.23 12.69
11/7/2021 3:30:00 AM 5.12 41.216 0.084 7.16 17.25 12.7
11/7/2021 3:45:00 AM 5.07 41.126 0.084 7.17 17.22 12.72
11/7/2021 4:00:00 AM 5.04 41.072 0.084 7.17 16.94 12.73
11/7/2021 4:15:00 AM 5 41 0.084 7.17 17.05 12.74
11/7/2021 4:30:00 AM 4.81 40.658 0.084 7.17 17.29 12.81
11/7/2021 4:45:00 AM 4.77 40.586 0.084 7.16 17.26 12.82
11/7/2021 5:00:00 AM 4.73 40.514 0.084 7.17 17.33 12.83
11/7/2021 5:15:00 AM 4.69 40.442 0.084 7.17 17.29 12.85
11/7/2021 5:30:00 AM 4.66 40.388 0.084 7.17 17.44 12.87
11/7/2021 5:45:00 AM 4.62 40.316 0.084 7.17 17.28 12.88
11/7/2021 6:00:00 AM 4.59 40.262 0.084 7.16 17.3 12.89
11/7/2021 6:15:00 AM 4.55 40.19 0.084 7.16 17.52 12.9
11/7/2021 6:30:00 AM 4.52 40.136 0.084 7.16 17.34 12.92
11/7/2021 6:45:00 AM 4.48 40.064 0.084 7.16 17.24 12.94
11/7/2021 7:00:00 AM 4.45 40.01 0.084 7.16 17.21 12.95
11/7/2021 7:15:00 AM 4.41 39.938 0.084 7.16 17.59 13.01
11/7/2021 7:30:00 AM 4.39 39.902 0.084 7.17 17.11 13.07
11/7/2021 7:45:00 AM 4.36 39.848 0.084 7.18 17.57 13.13
11/7/2021 8:00:00 AM 4.34 39.812 0.084 7.19 17.29 13.19
11/7/2021 8:15:00 AM 4.32 39.776 0.084 7.2 17.06 13.25
11/7/2021 8:30:00 AM 4.3 39.74 0.084 7.2 17.18 13.3
11/7/2021 8:45:00 AM 4.31 39.758 0.084 7.22 17.06 13.36
11/7/2021 9:00:00 AM 4.33 39.794 0.084 7.23 17.11 13.4
11/7/2021 9:15:00 AM 4.36 39.848 0.084 7.24 17.19 13.45
11/7/2021 9:30:00 AM 4.41 39.938 0.084 7.25 17.41 13.48
11/7/2021 9:45:00 AM 4.48 40.064 0.084 7.26 17.48 13.5
11/7/2021 10:00:00 AM 4.55 40.19 0.084 7.28 17.45 13.5
11/7/2021 10:15:00 AM 4.63 40.334 0.084 7.29 17.34 13.51
11/7/2021 10:30:00 AM 4.71 40.478 0.084 7.3 17.23 13.51
11/7/2021 10:45:00 AM 4.8 40.64 0.084 7.32 17.17 13.51
11/7/2021 11:00:00 AM 4.91 40.838 0.083 7.33 16.97 13.51
11/7/2021 11:15:00 AM 5.05 41.09 0.083 7.33 16.95 13.49
11/7/2021 11:30:00 AM 5.18 41.324 0.083 7.35 16.77 13.46
11/7/2021 11:45:00 AM 5.32 41.576 0.083 7.36 17.03 13.43
11/7/2021 12:00:00 PM 5.46 41.828 0.083 7.36 16.9 13.4
11/7/2021 12:15:00 PM 5.63 42.134 0.083 7.37 16.98 13.36
11/7/2021 12:30:00 PM 5.79 42.422 0.083 7.39 17.07 13.31
11/7/2021 12:45:00 PM 5.95 42.71 0.083 7.39 16.91 13.26
11/7/2021 1:00:00 PM 6.1 42.98 0.083 7.4 17.02 13.22
11/7/2021 1:15:00 PM 6.24 43.232 0.083 7.42 16.93 13.19
11/7/2021 1:30:00 PM 6.37 43.466 0.083 7.42 16.77 13.16
11/7/2021 1:45:00 PM 6.48 43.664 0.083 7.42 17.05 13.06
11/7/2021 2:00:00 PM 6.57 43.826 0.083 7.42 16.83 12.99
11/7/2021 2:15:00 PM 6.65 43.97 0.083 7.43 16.91 12.92
11/7/2021 2:30:00 PM 6.73 44.114 0.083 7.43 16.99 12.86
11/7/2021 2:45:00 PM 6.8 44.24 0.083 7.42 16.92 12.81
11/7/2021 3:00:00 PM 6.87 44.366 0.083 7.41 16.8 12.75
11/7/2021 3:15:00 PM 6.92 44.456 0.083 7.42 16.92 12.7
11/7/2021 3:30:00 PM 6.96 44.528 0.083 7.42 17.07 12.65
11/7/2021 3:45:00 PM 7 44.6 0.083 7.4 16.87 12.61
11/7/2021 4:00:00 PM 7.01 44.618 0.083 7.39 16.99 12.55
11/7/2021 4:15:00 PM 7.01 44.618 0.083 7.38 17.21 12.5
11/7/2021 4:30:00 PM 7.01 44.618 0.083 7.37 17.27 12.44
11/7/2021 4:45:00 PM 6.98 44.564 0.083 7.36 17.14 12.38
11/7/2021 5:00:00 PM 6.96 44.528 0.083 7.34 17.5 12.33
11/7/2021 5:15:00 PM 6.92 44.456 0.083 7.32 17.28 12.27
11/7/2021 5:30:00 PM 6.87 44.366 0.083 7.31 17.55 12.22
11/7/2021 5:45:00 PM 6.83 44.294 0.084 7.29 17.35 12.2
11/7/2021 6:00:00 PM 6.79 44.222 0.084 7.27 17.37 12.18
11/7/2021 6:15:00 PM 6.75 44.15 0.084 7.26 17.47 12.17
11/7/2021 6:30:00 PM 6.71 44.078 0.084 7.25 17.58 12.17
11/7/2021 6:45:00 PM 6.67 44.006 0.084 7.25 17.71 12.17
11/7/2021 7:00:00 PM 6.63 43.934 0.084 7.24 17.6 12.17
11/7/2021 7:15:00 PM 6.59 43.862 0.084 7.24 17.28 12.18
11/7/2021 7:30:00 PM 6.56 43.808 0.084 7.23 17.66 12.19
11/7/2021 7:45:00 PM 6.52 43.736 0.084 7.23 17.58 12.19
11/7/2021 8:00:00 PM 6.48 43.664 0.084 7.23 17.59 12.2
11/7/2021 8:15:00 PM 6.44 43.592 0.084 7.22 17.63 12.22
11/7/2021 8:30:00 PM 6.4 43.52 0.084 7.21 17.7 12.23
11/7/2021 8:45:00 PM 6.35 43.43 0.084 7.22 17.8 12.25
11/7/2021 9:00:00 PM 6.31 43.358 0.085 7.21 17.77 12.26
11/7/2021 9:15:00 PM 6.26 43.268 0.085 7.2 17.82 12.28
11/7/2021 9:30:00 PM 6.22 43.196 0.085 7.21 17.99 12.3
11/7/2021 9:45:00 PM 6.17 43.106 0.085 7.2 17.83 12.31
11/7/2021 10:00:00 PM 6.13 43.034 0.085 7.21 17.63 12.32
11/7/2021 10:15:00 PM 6.09 42.962 0.085 7.2 17.82 12.34
11/7/2021 10:30:00 PM 6.04 42.872 0.085 7.19 17.72 12.36
11/7/2021 10:45:00 PM 6 42.8 0.085 7.2 17.96 12.37
11/7/2021 11:00:00 PM 5.96 42.728 0.085 7.2 18.18 12.38
11/7/2021 11:15:00 PM 5.93 42.674 0.085 7.2 18.16 12.39
11/7/2021 11:30:00 PM 5.89 42.602 0.085 7.18 18.15 12.4
11/7/2021 11:45:00 PM 5.85 42.53 0.085 7.2 18.11 12.42
11/8/2021 12:00:00 AM 5.82 42.476 0.085 7.18 17.98 12.43
11/8/2021 12:15:00 AM 5.78 42.404 0.085 7.18 18.2 12.44
11/8/2021 12:30:00 AM 5.74 42.332 0.085 7.19 18.13 12.45
11/8/2021 12:45:00 AM 5.71 42.278 0.085 7.19 18.15 12.46
11/8/2021 1:00:00 AM 5.67 42.206 0.085 7.19 18.28 12.48
11/8/2021 1:15:00 AM 5.64 42.152 0.085 7.19 18.3 12.49
11/8/2021 1:30:00 AM 5.6 42.08 0.085 7.18 18.38 12.5
11/8/2021 1:45:00 AM 5.56 42.008 0.085 7.19 18.21 12.52
11/8/2021 2:00:00 AM 5.53 41.954 0.085 7.19 18.08 12.53
11/8/2021 2:15:00 AM 5.5 41.9 0.085 7.19 18.23 12.54
11/8/2021 2:30:00 AM 5.46 41.828 0.085 7.18 18.34 12.55
11/8/2021 2:45:00 AM 5.43 41.774 0.085 7.19 18.21 12.57
11/8/2021 3:00:00 AM 5.4 41.72 0.086 7.18 18.07 12.58
11/8/2021 3:15:00 AM 5.36 41.648 0.085 7.18 18.35 12.59
11/8/2021 3:30:00 AM 5.34 41.612 0.085 7.17 18.21 12.6
11/8/2021 3:45:00 AM 5.31 41.558 0.086 7.18 18.17 12.61
11/8/2021 4:00:00 AM 5.28 41.504 0.086 7.17 18.25 12.62
11/8/2021 4:15:00 AM 5.25 41.45 0.086 7.18 18.43 12.63
11/8/2021 4:30:00 AM 5.22 41.396 0.086 7.18 18.29 12.65
11/8/2021 4:45:00 AM 5.19 41.342 0.086 7.18 18.25 12.65
11/8/2021 5:00:00 AM 5.17 41.306 0.086 7.18 18.22 12.66
11/8/2021 5:15:00 AM 5.14 41.252 0.086 7.17 18.54 12.67
11/8/2021 5:30:00 AM 5.11 41.198 0.086 7.17 18.49 12.68
11/8/2021 5:45:00 AM 5.08 41.144 0.086 7.18 18.23 12.7
11/8/2021 6:00:00 AM 5.05 41.09 0.086 7.18 18.37 12.71
11/8/2021 6:15:00 AM 5.03 41.054 0.086 7.18 18.33 12.72
11/8/2021 6:30:00 AM 5.01 41.018 0.086 7.18 18.28 12.73
11/8/2021 6:45:00 AM 4.98 40.964 0.086 7.17 18.38 12.75
11/8/2021 7:00:00 AM 4.96 40.928 0.086 7.18 18.37 12.77
11/8/2021 7:15:00 AM 4.93 40.874 0.086 7.18 18.37 12.82
11/8/2021 7:30:00 AM 4.91 40.838 0.086 7.19 18.3 12.88
11/8/2021 7:45:00 AM 4.89 40.802 0.086 7.19 18.39 12.95
11/8/2021 8:00:00 AM 4.88 40.784 0.086 7.21 18.13 13.01
11/8/2021 8:15:00 AM 4.87 40.766 0.086 7.22 18.3 13.07
11/8/2021 8:30:00 AM 4.87 40.766 0.086 7.23 18.2 13.12
11/8/2021 8:45:00 AM 4.88 40.784 0.085 7.24 18.5 13.18
11/8/2021 9:00:00 AM 4.9 40.82 0.085 7.24 18.16 13.23
11/8/2021 9:15:00 AM 4.93 40.874 0.085 7.26 18.28 13.28
11/8/2021 9:30:00 AM 4.99 40.982 0.085 7.28 17.71 13.31
11/8/2021 9:45:00 AM 5.07 41.126 0.085 7.29 18.19 13.33
11/8/2021 10:00:00 AM 5.15 41.27 0.085 7.31 18.2 13.34
11/8/2021 10:15:00 AM 5.23 41.414 0.085 7.32 18.4 13.35
11/8/2021 10:30:00 AM 5.32 41.576 0.085 7.32 18.13 13.36
11/8/2021 10:45:00 AM 5.43 41.774 0.085 7.35 18.43 13.36
11/8/2021 11:00:00 AM 5.55 41.99 0.085 7.35 18.12 13.35
11/8/2021 11:15:00 AM 5.68 42.224 0.085 7.36 17.96 13.34
11/8/2021 11:30:00 AM 5.83 42.494 0.085 7.38 18.03 13.31
11/8/2021 11:45:00 AM 5.99 42.782 0.085 7.39 17.92 13.28
11/8/2021 12:00:00 PM 6.15 43.07 0.085 7.4 17.94 13.24
11/8/2021 12:15:00 PM 6.32 43.376 0.085 7.42 17.98 13.21
11/8/2021 12:30:00 PM 6.5 43.7 0.085 7.42 18.03 13.16
11/8/2021 12:45:00 PM 6.68 44.024 0.085 7.44 18.07 13.11
11/8/2021 1:00:00 PM 6.85 44.33 0.084 7.45 18.13 13.06
11/8/2021 1:15:00 PM 7 44.6 0.084 7.46 18.29 13.03
11/8/2021 1:30:00 PM 7.15 44.87 0.084 7.47 18.16 12.99
11/8/2021 1:45:00 PM 7.27 45.086 0.084 7.48 18.08 12.88
11/8/2021 2:00:00 PM 7.37 45.266 0.084 7.48 18.19 12.8
11/8/2021 2:15:00 PM 7.47 45.446 0.084 7.48 17.92 12.73
11/8/2021 2:30:00 PM 7.57 45.626 0.084 7.48 17.86 12.67
11/8/2021 2:45:00 PM 7.66 45.788 0.084 7.47 18.1 12.6
11/8/2021 3:00:00 PM 7.73 45.914 0.084 7.46 18.54 12.55
11/8/2021 3:15:00 PM 7.79 46.022 0.084 7.46 18.22 12.48
11/8/2021 3:30:00 PM 7.85 46.13 0.084 7.46 18.24 12.44
11/8/2021 3:45:00 PM 7.88 46.184 0.084 7.45 18.1 12.38
11/8/2021 4:00:00 PM 7.9 46.22 0.084 7.43 18.45 12.32
11/8/2021 4:15:00 PM 7.91 46.238 0.084 7.42 18.35 12.25
11/8/2021 4:30:00 PM 7.91 46.238 0.084 7.4 18.44 12.19
11/8/2021 4:45:00 PM 7.9 46.22 0.084 7.38 18.34 12.13
11/8/2021 5:00:00 PM 7.88 46.184 0.085 7.37 18.25 12.06
11/8/2021 5:15:00 PM 7.85 46.13 0.085 7.35 18.28 11.99
11/8/2021 5:30:00 PM 7.82 46.076 0.085 7.32 18.61 11.94
11/8/2021 5:45:00 PM 7.78 46.004 0.085 7.3 18.5 11.9
11/8/2021 6:00:00 PM 7.75 45.95 0.085 7.3 18.5 11.88
11/8/2021 6:15:00 PM 7.71 45.878 0.085 7.27 18.47 11.87
11/8/2021 6:30:00 PM 7.67 45.806 0.085 7.25 18.65 11.87
11/8/2021 6:45:00 PM 7.64 45.752 0.085 7.23 18.5 11.87
11/8/2021 7:00:00 PM 7.6 45.68 0.085 7.22 18.67 11.87
11/8/2021 7:15:00 PM 7.57 45.626 0.085 7.22 18.61 11.88
11/8/2021 7:30:00 PM 7.54 45.572 0.085 7.27 18.86 11.88
11/8/2021 7:45:00 PM 7.5 45.5 0.086 7.23 19.02 11.88
11/8/2021 8:00:00 PM 7.47 45.446 0.086 7.23 19.33 11.88
11/8/2021 8:15:00 PM 7.43 45.374 0.086 7.23 18.81 11.89
11/8/2021 8:30:00 PM 7.39 45.302 0.086 7.22 19 11.9
11/8/2021 8:45:00 PM 7.35 45.23 0.085 7.22 18.94 11.91
11/8/2021 9:00:00 PM 7.31 45.158 0.086 7.22 19.44 11.92
11/8/2021 9:15:00 PM 7.27 45.086 0.086 7.21 19.22 11.94
11/8/2021 9:30:00 PM 7.22 44.996 0.086 7.21 19.47 11.95
11/8/2021 9:45:00 PM 7.18 44.924 0.086 7.21 19.17 11.96
11/8/2021 10:00:00 PM 7.13 44.834 0.086 7.2 19.31 11.98
11/8/2021 10:15:00 PM 7.09 44.762 0.086 7.2 19.11 11.99
11/8/2021 10:30:00 PM 7.05 44.69 0.086 7.19 19.2 12.01
11/8/2021 10:45:00 PM 7 44.6 0.086 7.19 19.03 12.02
11/8/2021 11:00:00 PM 6.96 44.528 0.086 7.2 19.22 12.04
11/8/2021 11:15:00 PM 6.93 44.474 0.086 7.2 19.13 12.05
11/8/2021 11:30:00 PM 6.89 44.402 0.086 7.2 19.32 12.06
11/8/2021 11:45:00 PM 6.85 44.33 0.086 7.2 19.29 12.07
11/9/2021 12:00:00 AM 6.81 44.258 0.087 7.2 19.33 12.08
11/9/2021 12:15:00 AM 6.77 44.186 0.087 7.2 19.45 12.1
11/9/2021 12:30:00 AM 6.74 44.132 0.087 7.2 19.37 12.11
11/9/2021 12:45:00 AM 6.7 44.06 0.087 7.19 19.47 12.12
11/9/2021 1:00:00 AM 6.66 43.988 0.087 7.18 19.42 12.13
11/9/2021 1:15:00 AM 6.63 43.934 0.087 7.18 18.94 12.14
11/9/2021 1:30:00 AM 6.59 43.862 0.087 7.19 18.65 12.15
11/9/2021 1:45:00 AM 6.55 43.79 0.087 7.19 18.74 12.16
11/9/2021 2:00:00 AM 6.52 43.736 0.087 7.18 18.73 12.18
11/9/2021 2:15:00 AM 6.48 43.664 0.087 7.18 18.85 12.19
11/9/2021 2:30:00 AM 6.44 43.592 0.087 7.18 18.76 12.21
11/9/2021 2:45:00 AM 6.4 43.52 0.087 7.17 18.75 12.22
11/9/2021 3:00:00 AM 6.36 43.448 0.087 7.18 18.67 12.23
11/9/2021 3:15:00 AM 6.32 43.376 0.087 7.17 18.56 12.24
11/9/2021 3:30:00 AM 6.28 43.304 0.087 7.18 18.72 12.25
11/9/2021 3:45:00 AM 6.25 43.25 0.087 7.19 18.81 12.27
11/9/2021 4:00:00 AM 6.21 43.178 0.087 7.18 18.8 12.28
11/9/2021 4:15:00 AM 6.17 43.106 0.087 7.18 18.92 12.3
11/9/2021 4:30:00 AM 6.14 43.052 0.087 7.17 18.79 12.31
11/9/2021 4:45:00 AM 6.11 42.998 0.087 7.17 19.25 12.31
11/9/2021 5:00:00 AM 6.07 42.926 0.087 7.17 18.7 12.33
11/9/2021 5:15:00 AM 6.04 42.872 0.087 7.18 18.84 12.34
11/9/2021 5:30:00 AM 6.01 42.818 0.087 7.17 18.98 12.35
11/9/2021 5:45:00 AM 5.98 42.764 0.087 7.17 18.96 12.36
11/9/2021 6:00:00 AM 5.95 42.71 0.087 7.18 18.85 12.38
11/9/2021 6:15:00 AM 5.92 42.656 0.087 7.18 19.08 12.39
11/9/2021 6:30:00 AM 5.89 42.602 0.087 7.17 18.68 12.4
11/9/2021 6:45:00 AM 5.86 42.548 0.087 7.17 18.74 12.41
11/9/2021 7:00:00 AM 5.84 42.512 0.087 7.18 18.73 12.44
11/9/2021 7:15:00 AM 5.81 42.458 0.087 7.18 18.63 12.49
11/9/2021 7:30:00 AM 5.8 42.44 0.087 7.2 18.7 12.56
11/9/2021 7:45:00 AM 5.78 42.404 0.087 7.2 18.8 12.64
11/9/2021 8:00:00 AM 5.77 42.386 0.087 7.21 18.93 12.72
11/9/2021 8:15:00 AM 5.76 42.368 0.087 7.22 18.78 12.8
11/9/2021 8:30:00 AM 5.76 42.368 0.087 7.24 18.59 12.87
11/9/2021 8:45:00 AM 5.78 42.404 0.087 7.25 18.7 12.95
11/9/2021 9:00:00 AM 5.8 42.44 0.087 7.27 18.56 13
11/9/2021 9:15:00 AM 5.83 42.494 0.087 7.26 18.48 13.06
11/9/2021 9:30:00 AM 5.88 42.584 0.087 7.29 18.54 13.1
11/9/2021 9:45:00 AM 5.96 42.728 0.087 7.33 18.72 13.13
11/9/2021 10:00:00 AM 6.04 42.872 0.086 7.33 18.53 13.15
11/9/2021 10:15:00 AM 6.14 43.052 0.086 7.36 18.85 13.16
11/9/2021 10:30:00 AM 6.24 43.232 0.086 7.38 18.79 13.16
11/9/2021 10:45:00 AM 6.34 43.412 0.086 7.39 18.44 13.16
11/9/2021 11:00:00 AM 6.46 43.628 0.086 7.41 18.39 13.16
11/9/2021 11:15:00 AM 6.59 43.862 0.086 7.42 18.43 13.15
11/9/2021 11:30:00 AM 6.73 44.114 0.086 7.45 18.98 13.13
11/9/2021 11:45:00 AM 6.88 44.384 0.086 7.47 18.07 13.1
11/9/2021 12:00:00 PM 7.02 44.636 0.086 7.48 18.55 13.07
11/9/2021 12:15:00 PM 7.17 44.906 0.086 7.5 18.21 13.04
11/9/2021 12:30:00 PM 7.33 45.194 0.086 7.5 18.18 13
11/9/2021 12:45:00 PM 7.5 45.5 0.086 7.53 18.58 12.96
11/9/2021 1:00:00 PM 7.65 45.77 0.086 7.53 18.49 12.92
11/9/2021 1:15:00 PM 7.79 46.022 0.086 7.56 18.43 12.89
11/9/2021 1:30:00 PM 7.92 46.256 0.086 7.55 18.57 12.83
11/9/2021 1:45:00 PM 8.04 46.472 0.086 7.57 18.54 12.79
11/9/2021 2:00:00 PM 8.14 46.652 0.086 7.59 18.3 12.75
11/9/2021 2:15:00 PM 8.23 46.814 0.086 7.56 17.62 12.69
11/9/2021 2:30:00 PM 8.31 46.958 0.086 7.58 17.68 12.64
11/9/2021 2:45:00 PM 8.41 47.138 0.085 7.59 18.31 12.63
11/9/2021 3:00:00 PM 8.51 47.318 0.085 7.59 17.86 12.59
11/9/2021 3:15:00 PM 8.58 47.444 0.085 7.59 17.57 12.53
11/9/2021 3:30:00 PM 8.63 47.534 0.085 7.59 17.78 12.48
11/9/2021 3:45:00 PM 8.66 47.588 0.085 7.58 17.79 12.43
11/9/2021 4:00:00 PM 8.68 47.624 0.085 7.57 17.84 12.36
11/9/2021 4:15:00 PM 8.68 47.624 0.086 7.56 18.22 12.25
11/9/2021 4:30:00 PM 8.66 47.588 0.086 7.52 18.5 12.12
11/9/2021 4:45:00 PM 8.65 47.57 0.086 7.48 18.14 11.98
11/9/2021 5:00:00 PM 8.64 47.552 0.086 7.43 18.64 11.85
11/9/2021 5:15:00 PM 8.63 47.534 0.086 7.4 18.38 11.76
11/9/2021 5:30:00 PM 8.63 47.534 0.086 7.37 18.57 11.69
11/9/2021 5:45:00 PM 8.63 47.534 0.086 7.34 18.68 11.64
11/9/2021 6:00:00 PM 8.64 47.552 0.086 7.32 18.86 11.6
11/9/2021 6:15:00 PM 8.64 47.552 0.087 7.3 18.84 11.57
11/9/2021 6:30:00 PM 8.65 47.57 0.087 7.29 18.9 11.54
11/9/2021 6:45:00 PM 8.65 47.57 0.087 7.28 19.09 11.53
11/9/2021 7:00:00 PM 8.65 47.57 0.087 7.26 18.99 11.51
11/9/2021 7:15:00 PM 8.64 47.552 0.087 7.25 18.92 11.5
11/9/2021 7:30:00 PM 8.62 47.516 0.087 7.25 18.99 11.5
11/9/2021 7:45:00 PM 8.61 47.498 0.087 7.24 18.84 11.49
11/9/2021 8:00:00 PM 8.6 47.48 0.087 7.24 19.16 11.49
11/9/2021 8:15:00 PM 8.59 47.462 0.087 7.22 19.2 11.49
11/9/2021 8:30:00 PM 8.58 47.444 0.087 7.22 19.58 11.49
11/9/2021 8:45:00 PM 8.58 47.444 0.087 7.22 19.15 11.49
11/9/2021 9:00:00 PM 8.57 47.426 0.087 7.21 19.22 11.49
11/9/2021 9:15:00 PM 8.55 47.39 0.087 7.2 19.28 11.49
11/9/2021 9:30:00 PM 8.54 47.372 0.087 7.21 19.35 11.49
11/9/2021 9:45:00 PM 8.53 47.354 0.087 7.22 19.43 11.49
11/9/2021 10:00:00 PM 8.51 47.318 0.087 7.2 19.38 11.49
11/9/2021 10:15:00 PM 8.49 47.282 0.088 7.2 19.54 11.5
11/9/2021 10:30:00 PM 8.49 47.282 0.088 7.22 19.45 11.5
11/9/2021 10:45:00 PM 8.48 47.264 0.088 7.19 19.46 11.5
11/9/2021 11:00:00 PM 8.47 47.246 0.088 7.2 19.4 11.5
11/9/2021 11:15:00 PM 8.46 47.228 0.088 7.2 19.34 11.5
11/9/2021 11:30:00 PM 8.45 47.21 0.088 7.2 19.58 11.5
11/9/2021 11:45:00 PM 8.43 47.174 0.088 7.21 19.59 11.5
11/10/2021 12:00:00 AM 8.42 47.156 0.088 7.2 19.49 11.51
11/10/2021 12:15:00 AM 8.4 47.12 0.088 7.2 19.74 11.51
11/10/2021 12:30:00 AM 8.39 47.102 0.088 7.2 19.41 11.51
11/10/2021 12:45:00 AM 8.37 47.066 0.088 7.2 19.66 11.51
11/10/2021 1:00:00 AM 8.36 47.048 0.088 7.2 19.71 11.51
11/10/2021 1:15:00 AM 8.34 47.012 0.088 7.19 19.88 11.52
11/10/2021 1:30:00 AM 8.33 46.994 0.088 7.19 19.59 11.52
11/10/2021 1:45:00 AM 8.31 46.958 0.088 7.19 19.56 11.52
11/10/2021 2:00:00 AM 8.28 46.904 0.088 7.2 19.62 11.53
11/10/2021 2:15:00 AM 8.25 46.85 0.088 7.19 19.8 11.55
11/10/2021 2:30:00 AM 8.23 46.814 0.088 7.2 19.72 11.55
11/10/2021 2:45:00 AM 8.2 46.76 0.088 7.19 19.81 11.56
11/10/2021 3:00:00 AM 8.19 46.742 0.088 7.19 19.86 11.56
11/10/2021 3:15:00 AM 8.18 46.724 0.089 7.19 19.78 11.57
11/10/2021 3:30:00 AM 8.17 46.706 0.089 7.19 20.06 11.57
11/10/2021 3:45:00 AM 8.16 46.688 0.089 7.2 19.94 11.58
11/10/2021 4:00:00 AM 8.16 46.688 0.089 7.19 19.95 11.58
11/10/2021 4:15:00 AM 8.14 46.652 0.089 7.19 19.78 11.59
11/10/2021 4:30:00 AM 8.12 46.616 0.089 7.19 19.75 11.59
11/10/2021 4:45:00 AM 8.09 46.562 0.089 7.2 19.99 11.6
11/10/2021 5:00:00 AM 8.07 46.526 0.089 7.19 20.12 11.61
11/10/2021 5:15:00 AM 8.07 46.526 0.089 7.19 19.85 11.61
11/10/2021 5:30:00 AM 8.07 46.526 0.089 7.19 19.91 11.63
11/10/2021 5:45:00 AM 8.08 46.544 0.089 7.19 20.07 11.62
11/10/2021 6:00:00 AM 8.08 46.544 0.089 7.19 20.1 11.63
11/10/2021 6:15:00 AM 8.09 46.562 0.089 7.19 20.17 11.63
11/10/2021 6:30:00 AM 8.1 46.58 0.089 7.18 19.99 11.63
11/10/2021 6:45:00 AM 8.1 46.58 0.089 7.18 20.17 11.63
11/10/2021 7:00:00 AM 8.1 46.58 0.089 7.19 20.27 11.64
11/10/2021 7:15:00 AM 8.11 46.598 0.089 7.18 20.23 11.65
11/10/2021 7:30:00 AM 8.12 46.616 0.089 7.19 20.03 11.67
11/10/2021 7:45:00 AM 8.15 46.67 0.089 7.2 20.02 11.68
11/10/2021 8:00:00 AM 8.17 46.706 0.089 7.21 20.09 11.77
11/10/2021 8:15:00 AM 8.19 46.742 0.089 7.22 20.08 11.95
11/10/2021 8:30:00 AM 8.23 46.814 0.088 7.26 20.06 12.14
11/10/2021 8:45:00 AM 8.27 46.886 0.088 7.29 20.34 12.24
11/10/2021 9:00:00 AM 8.33 46.994 0.088 7.33 20.31 12.39
11/10/2021 9:15:00 AM 8.34 47.012 0.088 7.36 20.09 12.42
11/10/2021 9:30:00 AM 8.35 47.03 0.088 7.39 20.6 12.38
11/10/2021 9:45:00 AM 8.38 47.084 0.088 7.4 20.65 12.36
11/10/2021 10:00:00 AM 8.43 47.174 0.088 7.42 20.62 12.37
11/10/2021 10:15:00 AM 8.47 47.246 0.088 7.44 20.33 12.39
11/10/2021 10:30:00 AM 8.51 47.318 0.088 7.45 20.05 12.41
11/10/2021 10:45:00 AM 8.57 47.426 0.088 7.47 20.03 12.43
11/10/2021 11:00:00 AM 8.64 47.552 0.088 7.49 19.8 12.45
11/10/2021 11:15:00 AM 8.72 47.696 0.087 7.51 19.94 12.46
11/10/2021 11:30:00 AM 8.8 47.84 0.087 7.52 20.04 12.47
11/10/2021 11:45:00 AM 8.89 48.002 0.087 7.54 20 12.46
11/10/2021 12:00:00 PM 8.98 48.164 0.087 7.56 19.87 12.46
11/10/2021 12:15:00 PM 9.08 48.344 0.087 7.58 19.89 12.45
11/10/2021 12:30:00 PM 9.19 48.542 0.087 7.62 19.96 12.43
11/10/2021 12:45:00 PM 9.3 48.74 0.087 7.62 20.32 12.41
11/10/2021 1:00:00 PM 9.42 48.956 0.087 7.63 20.29 12.38
11/10/2021 1:15:00 PM 9.52 49.136 0.087 7.63 19.93 12.36
11/10/2021 1:30:00 PM 9.61 49.298 0.087 7.64 20.06 12.34
11/10/2021 1:45:00 PM 9.67 49.406 0.087 7.65 19.86 12.25
11/10/2021 2:00:00 PM 9.71 49.478 0.087 7.65 20.09 12.19
11/10/2021 2:15:00 PM 9.74 49.532 0.087 7.65 19.87 12.13
11/10/2021 2:30:00 PM 9.76 49.568 0.087 7.64 19.72 12.08
11/10/2021 2:45:00 PM 9.77 49.586 0.087 7.63 20.17 12.04
11/10/2021 3:00:00 PM 9.79 49.622 0.087 7.62 20.24 11.99
11/10/2021 3:15:00 PM 9.8 49.64 0.087 7.56 20.08 11.94
11/10/2021 3:30:00 PM 9.8 49.64 0.087 7.63 20.42 11.9
11/10/2021 3:45:00 PM 9.79 49.622 0.087 7.56 20.17 11.85
11/10/2021 4:00:00 PM 9.76 49.568 0.087 7.56 20.41 11.79
11/10/2021 4:15:00 PM 9.73 49.514 0.087 7.54 20.48 11.72
11/10/2021 4:30:00 PM 9.69 49.442 0.087 7.51 20.32 11.66
11/10/2021 4:45:00 PM 9.64 49.352 0.087 7.48 20.2 11.59
11/10/2021 5:00:00 PM 9.58 49.244 0.088 7.45 20.5 11.51
11/10/2021 5:15:00 PM 9.52 49.136 0.088 7.42 20.37 11.44
11/10/2021 5:30:00 PM 9.44 48.992 0.088 7.39 20.47 11.41
11/10/2021 5:45:00 PM 9.36 48.848 0.088 7.36 20.6 11.38
11/10/2021 6:00:00 PM 9.29 48.722 0.088 7.35 20.72 11.37
11/10/2021 6:15:00 PM 9.2 48.56 0.088 7.33 20.58 11.37
11/10/2021 6:30:00 PM 9.12 48.416 0.088 7.32 20.59 11.38
11/10/2021 6:45:00 PM 9.04 48.272 0.089 7.31 20.85 11.4
11/10/2021 7:00:00 PM 8.97 48.146 0.089 7.32 21.14 11.4
11/10/2021 7:15:00 PM 8.89 48.002 0.089 7.29 21 11.42
11/10/2021 7:30:00 PM 8.83 47.894 0.089 7.28 20.83 11.44
11/10/2021 7:45:00 PM 8.78 47.804 0.089 7.27 21.17 11.45
11/10/2021 8:00:00 PM 8.72 47.696 0.089 7.27 21.06 11.48
11/10/2021 8:15:00 PM 8.65 47.57 0.089 7.27 20.7 11.48
11/10/2021 8:30:00 PM 8.58 47.444 0.089 7.26 21.13 11.5
11/10/2021 8:45:00 PM 8.52 47.336 0.089 7.27 21.08 11.52
11/10/2021 9:00:00 PM 8.46 47.228 0.089 7.26 21.06 11.55
11/10/2021 9:15:00 PM 8.4 47.12 0.089 7.25 21.31 11.57
11/10/2021 9:30:00 PM 8.33 46.994 0.089 7.25 21.26 11.59
11/10/2021 9:45:00 PM 8.26 46.868 0.089 7.25 21.16 11.61
11/10/2021 10:00:00 PM 8.19 46.742 0.089 7.25 21.28 11.63
11/10/2021 10:15:00 PM 8.11 46.598 0.089 7.26 21.4 11.65
11/10/2021 10:30:00 PM 8.04 46.472 0.089 7.25 21.58 11.68
11/10/2021 10:45:00 PM 7.97 46.346 0.089 7.24 21.24 11.71
11/10/2021 11:00:00 PM 7.9 46.22 0.089 7.24 21.51 11.72
11/10/2021 11:15:00 PM 7.83 46.094 0.09 7.22 22.11 11.75
11/10/2021 11:30:00 PM 7.77 45.986 0.09 7.22 21.21 11.77
11/10/2021 11:45:00 PM 7.7 45.86 0.09 7.22 21.35 11.79
11/11/2021 12:00:00 AM 7.64 45.752 0.09 7.22 21.13 11.81
11/11/2021 12:15:00 AM 7.57 45.626 0.09 7.22 21.23 11.83
11/11/2021 12:30:00 AM 7.51 45.518 0.09 7.22 21.2 11.85
11/11/2021 12:45:00 AM 7.45 45.41 0.09 7.22 20.68 11.87
11/11/2021 1:00:00 AM 7.38 45.284 0.09 7.22 21.05 11.88
11/11/2021 1:15:00 AM 7.31 45.158 0.09 7.21 20.97 11.91
11/11/2021 1:30:00 AM 7.25 45.05 0.09 7.22 21.2 11.93
11/11/2021 1:45:00 AM 7.2 44.96 0.09 7.21 21.02 11.94
11/11/2021 2:00:00 AM 7.14 44.852 0.09 7.22 21.19 11.96
11/11/2021 2:15:00 AM 7.1 44.78 0.09 7.21 21.26 11.98
11/11/2021 2:30:00 AM 7.07 44.726 0.09 7.22 20.94 12
11/11/2021 2:45:00 AM 7.04 44.672 0.09 7.22 21.13 12.01
11/11/2021 3:00:00 AM 7.01 44.618 0.09 7.21 21.57 12.03
11/11/2021 3:15:00 AM 6.98 44.564 0.09 7.21 21.1 12.04
11/11/2021 3:30:00 AM 6.94 44.492 0.09 7.21 21.09 12.05
11/11/2021 3:45:00 AM 6.91 44.438 0.09 7.21 20.99 12.06
11/11/2021 4:00:00 AM 6.88 44.384 0.09 7.21 21.2 12.06
11/11/2021 4:15:00 AM 6.83 44.294 0.09 7.21 21.32 12.08
11/11/2021 4:30:00 AM 6.79 44.222 0.091 7.21 21.26 12.1
11/11/2021 4:45:00 AM 6.75 44.15 0.091 7.21 21.96 12.1
11/11/2021 5:00:00 AM 6.71 44.078 0.091 7.21 21.32 12.12
11/11/2021 5:15:00 AM 6.67 44.006 0.091 7.21 21.11 12.13
11/11/2021 5:30:00 AM 6.64 43.952 0.091 7.21 21.35 12.14
11/11/2021 5:45:00 AM 6.61 43.898 0.091 7.21 21.25 12.15
11/11/2021 6:00:00 AM 6.57 43.826 0.091 7.21 21.46 12.16
11/11/2021 6:15:00 AM 6.53 43.754 0.091 7.21 21.46 12.18
11/11/2021 6:30:00 AM 6.5 43.7 0.091 7.21 21.28 12.18
11/11/2021 6:45:00 AM 6.47 43.646 0.091 7.21 21.21 12.2
11/11/2021 7:00:00 AM 6.43 43.574 0.091 7.21 21.27 12.22
11/11/2021 7:15:00 AM 6.4 43.52 0.091 7.22 21.23 12.28
11/11/2021 7:30:00 AM 6.38 43.484 0.091 7.23 21.11 12.39
11/11/2021 7:45:00 AM 6.36 43.448 0.091 7.24 21.31 12.5
11/11/2021 8:00:00 AM 6.35 43.43 0.091 7.28 22.14 12.61
11/11/2021 8:15:00 AM 6.34 43.412 0.09 7.28 21.59 12.71
11/11/2021 8:30:00 AM 6.35 43.43 0.09 7.32 22.21 12.8
11/11/2021 8:45:00 AM 6.39 43.502 0.09 7.33 22.07 12.89
11/11/2021 9:00:00 AM 6.46 43.628 0.09 7.35 21.68 12.98
11/11/2021 9:15:00 AM 6.51 43.718 0.09 7.38 21.69 13.06
11/11/2021 9:30:00 AM 6.57 43.826 0.09 7.44 21.73 13.14
11/11/2021 9:45:00 AM 6.68 44.024 0.089 7.47 21.64 13.21
11/11/2021 10:00:00 AM 6.77 44.186 0.089 7.51 21.48 13.24
11/11/2021 10:15:00 AM 6.82 44.276 0.089 7.55 21.51 13.25
11/11/2021 10:30:00 AM 6.9 44.42 0.089 7.58 21.09 13.26
11/11/2021 10:45:00 AM 7.01 44.618 0.089 7.6 21.25 13.27
11/11/2021 11:00:00 AM 7.07 44.726 0.089 7.62 21.1 13.26
11/11/2021 11:15:00 AM 7.12 44.816 0.089 7.65 21.04 13.24
11/11/2021 11:30:00 AM 7.21 44.978 0.089 7.67 21.37 13.24
11/11/2021 11:45:00 AM 7.28 45.104 0.089 7.69 21.15 13.23
11/11/2021 12:00:00 PM 7.38 45.284 0.089 7.72 21.04 13.21
11/11/2021 12:15:00 PM 7.45 45.41 0.089 7.74 21.28 13.18
11/11/2021 12:30:00 PM 7.51 45.518 0.088 7.75 21.12 13.15
11/11/2021 12:45:00 PM 7.6 45.68 0.088 7.77 20.96 13.12
11/11/2021 1:00:00 PM 7.73 45.914 0.088 7.79 20.63 13.12
11/11/2021 1:15:00 PM 7.8 46.04 0.088 7.84 20.84 13.07
11/11/2021 1:30:00 PM 7.86 46.148 0.088 7.81 20.62 13.04
11/11/2021 1:45:00 PM 7.93 46.274 0.088 7.81 20.85 13.01
11/11/2021 2:00:00 PM 7.99 46.382 0.088 7.82 21.11 12.94
11/11/2021 2:15:00 PM 8.06 46.508 0.088 7.83 21.72 12.92
11/11/2021 2:30:00 PM 8.12 46.616 0.088 7.83 21.53 12.89
11/11/2021 2:45:00 PM 8.19 46.742 0.088 7.82 21.8 12.85
11/11/2021 3:00:00 PM 8.23 46.814 0.088 7.82 21.16 12.8
11/11/2021 3:15:00 PM 8.28 46.904 0.088 7.8 20.91 12.75
11/11/2021 3:30:00 PM 8.32 46.976 0.088 7.79 20.81 12.69
11/11/2021 3:45:00 PM 8.34 47.012 0.088 7.76 20.94 12.57
11/11/2021 4:00:00 PM 8.37 47.066 0.088 7.77 20.81 12.47
11/11/2021 4:15:00 PM 8.38 47.084 0.088 7.68 21.17 12.37
11/11/2021 4:30:00 PM 8.39 47.102 0.088 7.63 20.82 12.24
11/11/2021 4:45:00 PM 8.39 47.102 0.088 7.63 21.22 12.08
11/11/2021 5:00:00 PM 8.38 47.084 0.089 7.52 21.12 11.94
11/11/2021 5:15:00 PM 8.38 47.084 0.089 7.5 21.24 11.82
11/11/2021 5:30:00 PM 8.39 47.102 0.089 7.46 21.45 11.74
11/11/2021 5:45:00 PM 8.4 47.12 0.089 7.42 21.49 11.68
11/11/2021 6:00:00 PM 8.42 47.156 0.089 7.4 22.58 11.64
11/11/2021 6:15:00 PM 8.43 47.174 0.089 7.36 21.3 11.61
11/11/2021 6:30:00 PM 8.45 47.21 0.089 7.39 21.57 11.58
11/11/2021 6:45:00 PM 8.46 47.228 0.09 7.34 21.71 11.57
11/11/2021 7:00:00 PM 8.46 47.228 0.09 7.32 21.66 11.55
11/11/2021 7:15:00 PM 8.47 47.246 0.09 7.32 21.79 11.54
11/11/2021 7:30:00 PM 8.48 47.264 0.09 7.31 21.44 11.52
11/11/2021 7:45:00 PM 8.49 47.282 0.09 7.3 21.62 11.51
11/11/2021 8:00:00 PM 8.5 47.3 0.09 7.32 22.06 11.49
11/11/2021 8:15:00 PM 8.51 47.318 0.09 7.3 21.86 11.48
11/11/2021 8:30:00 PM 8.52 47.336 0.09 7.3 22.1 11.47
11/11/2021 8:45:00 PM 8.53 47.354 0.09 7.28 21.8 11.47
11/11/2021 9:00:00 PM 8.54 47.372 0.09 7.27 22.08 11.46
11/11/2021 9:15:00 PM 8.57 47.426 0.09 7.27 22.11 11.45
11/11/2021 9:30:00 PM 8.59 47.462 0.09 7.27 22.12 11.44
11/11/2021 9:45:00 PM 8.61 47.498 0.09 7.27 22.17 11.43
11/11/2021 10:00:00 PM 8.63 47.534 0.09 7.27 22.27 11.42
11/11/2021 10:15:00 PM 8.65 47.57 0.09 7.27 22.6 11.41
11/11/2021 10:30:00 PM 8.68 47.624 0.09 7.26 22.57 11.4
11/11/2021 10:45:00 PM 8.7 47.66 0.09 7.26 22.28 11.38
11/11/2021 11:00:00 PM 8.74 47.732 0.09 7.26 22.26 11.37
11/11/2021 11:15:00 PM 8.77 47.786 0.09 7.26 22.46 11.35
11/11/2021 11:30:00 PM 8.8 47.84 0.09 7.25 22.68 11.33
11/11/2021 11:45:00 PM 8.84 47.912 0.09 7.25 22.54 11.31
11/12/2021 12:00:00 AM 8.86 47.948 0.09 7.25 22.62 11.29
11/12/2021 12:15:00 AM 8.88 47.984 0.09 7.25 22.85 11.29
11/12/2021 12:30:00 AM 8.9 48.02 0.09 7.25 22.61 11.28
11/12/2021 12:45:00 AM 8.92 48.056 0.09 7.24 22.55 11.27
11/12/2021 1:00:00 AM 8.94 48.092 0.09 7.25 23.19 11.27
11/12/2021 1:15:00 AM 8.97 48.146 0.09 7.24 22.63 11.25
11/12/2021 1:30:00 AM 8.99 48.182 0.09 7.24 22.45 11.24
11/12/2021 1:45:00 AM 9.01 48.218 0.09 7.24 22.6 11.23
11/12/2021 2:00:00 AM 9.03 48.254 0.09 7.24 23.18 11.22
11/12/2021 2:15:00 AM 9.1 48.38 0.089 7.24 23.25 11.21
11/12/2021 2:30:00 AM 9.14 48.452 0.089 7.24 23.2 11.19
11/12/2021 2:45:00 AM 9.17 48.506 0.089 7.23 23.92 11.18
11/12/2021 3:00:00 AM 9.22 48.596 0.089 7.24 23.23 11.15
11/12/2021 3:15:00 AM 9.27 48.686 0.088 7.24 23.14 11.14
11/12/2021 3:30:00 AM 9.32 48.776 0.087 7.23 23.49 11.12
11/12/2021 3:45:00 AM 9.38 48.884 0.087 7.22 23.84 11.1
11/12/2021 4:00:00 AM 9.42 48.956 0.086 7.23 24.49 11.08
11/12/2021 4:15:00 AM 9.47 49.046 0.086 7.22 25 11.06
11/12/2021 4:30:00 AM 9.55 49.19 0.084 7.22 26.4 11.05
11/12/2021 4:45:00 AM 9.59 49.262 0.083 7.2 29.13 11.01
11/12/2021 5:00:00 AM 9.61 49.298 0.082 7.19 28.91 11
11/12/2021 5:15:00 AM 9.6 49.28 0.081 7.19 29.39 11.02
11/12/2021 5:30:00 AM 9.59 49.262 0.08 7.18 30.37 11.01
11/12/2021 5:45:00 AM 9.58 49.244 0.078 7.15 31.99 11.02
11/12/2021 6:00:00 AM 9.57 49.226 0.077 7.15 34.3 11.03
11/12/2021 6:15:00 AM 9.56 49.208 0.075 7.17 37.51 11.03
11/12/2021 6:30:00 AM 9.56 49.208 0.073 7.13 45.07 11.07
11/12/2021 6:45:00 AM 9.57 49.226 0.072 7.12 47.62 11.09
11/12/2021 7:00:00 AM 9.62 49.316 0.071 7.1 61.97 11.12
11/12/2021 7:15:00 AM 9.7 49.46 0.076 7.08 61.94 11.08
11/12/2021 7:30:00 AM 9.78 49.604 0.079 7.13 71.18 11.07
11/12/2021 7:45:00 AM 9.85 49.73 0.083 7.12 83.23 11.06
11/12/2021 8:00:00 AM 9.88 49.784 0.083 7.06 97.52 11.08
11/12/2021 8:15:00 AM 9.91 49.838 0.082 7.13 103.31 11.08
11/12/2021 8:30:00 AM 9.95 49.91 0.081 7.15 101.53 11.07
11/12/2021 8:45:00 AM 9.97 49.946 0.08 7.16 97.56 11.06
11/12/2021 9:00:00 AM 9.99 49.982 0.08 7.16 89.18 11.05
11/12/2021 9:15:00 AM 10.01 50.018 0.079 7.17 81.42 11.05
11/12/2021 9:30:00 AM 10.04 50.072 0.079 7.17 74.89 11.05
11/12/2021 9:45:00 AM 10.06 50.108 0.079 7.18 68.41 11.05
11/12/2021 10:00:00 AM 10.05 50.09 0.08 7.19 62.48 11.05
11/12/2021 10:15:00 AM 10.06 50.108 0.081 7.19 58.5 11.06
11/12/2021 10:30:00 AM 10.08 50.144 0.082 7.21 54.92 11.07
11/12/2021 10:45:00 AM 10.09 50.162 0.083 7.22 51.21 11.07
11/12/2021 11:00:00 AM 10.09 50.162 0.084 7.22 47.8 11.08
11/12/2021 11:15:00 AM 10.1 50.18 0.084 7.22 45.44 11.08
11/12/2021 11:30:00 AM 10.11 50.198 0.084 7.23 43.52 11.09
11/12/2021 11:45:00 AM 10.15 50.27 0.084 7.24 40.81 11.09
11/12/2021 12:00:00 PM 10.17 50.306 0.084 7.23 39.55 11.09
11/12/2021 12:15:00 PM 10.19 50.342 0.083 7.23 37.5 11.1
11/12/2021 12:30:00 PM 10.19 50.342 0.083 7.25 36.5 11.11
11/12/2021 12:45:00 PM 10.19 50.342 0.083 7.24 35.92 11.12
11/12/2021 1:00:00 PM 10.2 50.36 0.082 7.25 34.17 11.13
11/12/2021 1:15:00 PM 10.2 50.36 0.082 7.25 33.27 11.14
11/12/2021 1:30:00 PM 10.22 50.396 0.082 7.27 32.11 11.14
11/12/2021 1:45:00 PM 10.23 50.414 0.082 7.26 31.72 11.14
11/12/2021 2:00:00 PM 10.23 50.414 0.082 7.26 30.18 11.13
11/12/2021 2:15:00 PM 10.23 50.414 0.082 7.26 29.47 11.13
11/12/2021 2:30:00 PM 10.22 50.396 0.082 7.26 28.18 11.13
11/12/2021 2:45:00 PM 10.2 50.36 0.082 7.25 27.51 11.13
11/12/2021 3:00:00 PM 10.17 50.306 0.082 7.25 27.32 11.13
11/12/2021 3:15:00 PM 10.13 50.234 0.082 7.25 26.76 11.13
11/12/2021 3:30:00 PM 10.09 50.162 0.082 7.24 26.05 11.13
11/12/2021 3:45:00 PM 10.04 50.072 0.082 7.25 25.9 11.13
11/12/2021 4:00:00 PM 9.99 49.982 0.081 7.23 25.53 11.13
11/12/2021 4:15:00 PM 9.94 49.892 0.081 7.24 25.24 11.13
11/12/2021 4:30:00 PM 9.88 49.784 0.081 7.24 24.95 11.13
11/12/2021 4:45:00 PM 9.82 49.676 0.081 7.22 24.44 11.13
11/12/2021 5:00:00 PM 9.76 49.568 0.081 7.22 24.45 11.13
11/12/2021 5:15:00 PM 9.69 49.442 0.081 7.21 23.96 11.14
11/12/2021 5:30:00 PM 9.63 49.334 0.081 7.21 23.88 11.14
11/12/2021 5:45:00 PM 9.55 49.19 0.081 7.2 23.79 11.16
11/12/2021 6:00:00 PM 9.48 49.064 0.081 7.19 23.57 11.17
11/12/2021 6:15:00 PM 9.4 48.92 0.081 7.19 23.38 11.19
11/12/2021 6:30:00 PM 9.33 48.794 0.08 7.18 23.23 11.21
11/12/2021 6:45:00 PM 9.25 48.65 0.08 7.18 23.31 11.24
11/12/2021 7:00:00 PM 9.18 48.524 0.08 7.17 23.06 11.26
11/12/2021 7:15:00 PM 9.11 48.398 0.08 7.18 23.15 11.28
11/12/2021 7:30:00 PM 9.04 48.272 0.08 7.17 23.2 11.3
11/12/2021 7:45:00 PM 8.97 48.146 0.08 7.17 22.59 11.31
11/12/2021 8:00:00 PM 8.89 48.002 0.08 7.17 22.59 11.34
11/12/2021 8:15:00 PM 8.82 47.876 0.08 7.16 22.72 11.36
11/12/2021 8:30:00 PM 8.75 47.75 0.08 7.16 22.7 11.38
11/12/2021 8:45:00 PM 8.68 47.624 0.08 7.16 22.82 11.4
11/12/2021 9:00:00 PM 8.62 47.516 0.08 7.16 22.71 11.42
11/12/2021 9:15:00 PM 8.55 47.39 0.08 7.15 22.55 11.44
11/12/2021 9:30:00 PM 8.49 47.282 0.08 7.15 22.49 11.46
11/12/2021 9:45:00 PM 8.42 47.156 0.08 7.14 22.45 11.48
11/12/2021 10:00:00 PM 8.36 47.048 0.079 7.14 22.33 11.5
11/12/2021 10:15:00 PM 8.3 46.94 0.079 7.15 22.29 11.52
11/12/2021 10:30:00 PM 8.24 46.832 0.079 7.15 22.27 11.54
11/12/2021 10:45:00 PM 8.18 46.724 0.079 7.14 22.12 11.55
11/12/2021 11:00:00 PM 8.12 46.616 0.079 7.14 22.2 11.57
11/12/2021 11:15:00 PM 8.07 46.526 0.079 7.14 22.24 11.59
11/12/2021 11:30:00 PM 8.02 46.436 0.079 7.13 22.12 11.6
11/12/2021 11:45:00 PM 7.97 46.346 0.079 7.14 22.44 11.62
11/13/2021 12:00:00 AM 7.91 46.238 0.079 7.14 22.44 11.63
11/13/2021 12:15:00 AM 7.87 46.166 0.079 7.13 22.25 11.65
11/13/2021 12:30:00 AM 7.82 46.076 0.079 7.13 22.22 11.66
11/13/2021 12:45:00 AM 7.79 46.022 0.079 7.13 21.88 11.67
11/13/2021 1:00:00 AM 7.75 45.95 0.079 7.13 21.85 11.69
11/13/2021 1:15:00 AM 7.72 45.896 0.079 7.13 21.93 11.69
11/13/2021 1:30:00 AM 7.7 45.86 0.079 7.13 22 11.7
11/13/2021 1:45:00 AM 7.66 45.788 0.078 7.14 21.77 11.71
11/13/2021 2:00:00 AM 7.63 45.734 0.078 7.13 21.47 11.71
11/13/2021 2:15:00 AM 7.61 45.698 0.078 7.13 21.94 11.72
11/13/2021 2:30:00 AM 7.59 45.662 0.078 7.13 21.89 11.73
11/13/2021 2:45:00 AM 7.58 45.644 0.078 7.13 21.84 11.73
11/13/2021 3:00:00 AM 7.57 45.626 0.078 7.13 22.01 11.74
11/13/2021 3:15:00 AM 7.56 45.608 0.078 7.13 21.84 11.74
11/13/2021 3:30:00 AM 7.55 45.59 0.078 7.13 21.65 11.74
11/13/2021 3:45:00 AM 7.54 45.572 0.078 7.12 21.89 11.74
11/13/2021 4:00:00 AM 7.54 45.572 0.078 7.13 21.84 11.74
11/13/2021 4:15:00 AM 7.53 45.554 0.078 7.13 21.94 11.74
11/13/2021 4:30:00 AM 7.51 45.518 0.077 7.13 21.64 11.74
11/13/2021 4:45:00 AM 7.5 45.5 0.077 7.13 21.63 11.75
11/13/2021 5:00:00 AM 7.51 45.518 0.077 7.12 21.61 11.74
11/13/2021 5:15:00 AM 7.5 45.5 0.077 7.11 21.64 11.75
11/13/2021 5:30:00 AM 7.5 45.5 0.077 7.12 21.76 11.75
11/13/2021 5:45:00 AM 7.5 45.5 0.077 7.12 21.75 11.75
11/13/2021 6:00:00 AM 7.49 45.482 0.077 7.12 21.71 11.75
11/13/2021 6:15:00 AM 7.49 45.482 0.077 7.12 21.56 11.75
11/13/2021 6:30:00 AM 7.5 45.5 0.077 7.12 21.59 11.75
11/13/2021 6:45:00 AM 7.51 45.518 0.077 7.12 21.69 11.75
11/13/2021 7:00:00 AM 7.5 45.5 0.077 7.12 21.79 11.74
11/13/2021 7:15:00 AM 7.51 45.518 0.077 7.11 21.73 11.76
11/13/2021 7:30:00 AM 7.52 45.536 0.077 7.12 21.7 11.77
11/13/2021 7:45:00 AM 7.54 45.572 0.076 7.11 21.72 11.78
11/13/2021 8:00:00 AM 7.55 45.59 0.076 7.12 21.76 11.79
11/13/2021 8:15:00 AM 7.56 45.608 0.076 7.13 21.8 11.8
11/13/2021 8:30:00 AM 7.58 45.644 0.076 7.12 21.52 11.83
11/13/2021 8:45:00 AM 7.61 45.698 0.076 7.14 21.64 11.86
11/13/2021 9:00:00 AM 7.63 45.734 0.076 7.14 21.34 11.87
11/13/2021 9:15:00 AM 7.65 45.77 0.076 7.14 21.5 11.87
11/13/2021 9:30:00 AM 7.68 45.824 0.076 7.15 21.34 11.89
11/13/2021 9:45:00 AM 7.71 45.878 0.076 7.16 21.43 11.93
11/13/2021 10:00:00 AM 7.74 45.932 0.076 7.16 21.4 11.96
11/13/2021 10:15:00 AM 7.79 46.022 0.076 7.19 21.19 12
11/13/2021 10:30:00 AM 7.83 46.094 0.075 7.2 21.16 12.02
11/13/2021 10:45:00 AM 7.85 46.13 0.075 7.21 21.27 11.99
11/13/2021 11:00:00 AM 7.84 46.112 0.075 7.21 21.27 11.95
11/13/2021 11:15:00 AM 7.85 46.13 0.075 7.21 21.34 11.95
11/13/2021 11:30:00 AM 7.85 46.13 0.075 7.22 21.46 11.98
11/13/2021 11:45:00 AM 7.86 46.148 0.075 7.22 21.26 12.01
11/13/2021 12:00:00 PM 7.87 46.166 0.075 7.24 21.33 12.05
11/13/2021 12:15:00 PM 7.88 46.184 0.075 7.26 21.51 12.07
11/13/2021 12:30:00 PM 7.89 46.202 0.075 7.26 21.38 12.1
11/13/2021 12:45:00 PM 7.9 46.22 0.075 7.27 21.48 12.12
11/13/2021 1:00:00 PM 7.92 46.256 0.075 7.28 21.62 12.16
11/13/2021 1:15:00 PM 7.93 46.274 0.074 7.29 21.75 12.15
11/13/2021 1:30:00 PM 7.94 46.292 0.074 7.31 21.51 12.15
11/13/2021 1:45:00 PM 7.91 46.238 0.074 7.3 21.44 12.09
11/13/2021 2:00:00 PM 7.91 46.238 0.074 7.29 21.53 12.08
11/13/2021 2:15:00 PM 7.87 46.166 0.074 7.29 21.65 12.06
11/13/2021 2:30:00 PM 7.85 46.13 0.074 7.29 21.68 12.09
11/13/2021 2:45:00 PM 7.84 46.112 0.074 7.29 21.61 12.09
11/13/2021 3:00:00 PM 7.81 46.058 0.074 7.29 21.52 12.07
11/13/2021 3:15:00 PM 7.8 46.04 0.074 7.28 21.66 12.05
11/13/2021 3:30:00 PM 7.78 46.004 0.074 7.28 21.68 12.03
11/13/2021 3:45:00 PM 7.76 45.968 0.074 7.27 22.05 12
11/13/2021 4:00:00 PM 7.74 45.932 0.074 7.27 22.01 11.98
11/13/2021 4:15:00 PM 7.72 45.896 0.074 7.26 22.08 11.95
11/13/2021 4:30:00 PM 7.69 45.842 0.074 7.24 22.11 11.9
11/13/2021 4:45:00 PM 7.65 45.77 0.074 7.22 22.08 11.85
11/13/2021 5:00:00 PM 7.63 45.734 0.074 7.21 22.14 11.83
11/13/2021 5:15:00 PM 7.61 45.698 0.074 7.2 22.25 11.81
11/13/2021 5:30:00 PM 7.59 45.662 0.074 7.19 22.21 11.79
11/13/2021 5:45:00 PM 7.56 45.608 0.074 7.18 22.16 11.78
11/13/2021 6:00:00 PM 7.54 45.572 0.075 7.17 21.84 11.78
11/13/2021 6:15:00 PM 7.51 45.518 0.075 7.17 22.28 11.78
11/13/2021 6:30:00 PM 7.48 45.464 0.075 7.17 22.15 11.79
11/13/2021 6:45:00 PM 7.46 45.428 0.075 7.16 22.3 11.79
11/13/2021 7:00:00 PM 7.44 45.392 0.075 7.16 22.2 11.79
11/13/2021 7:15:00 PM 7.41 45.338 0.075 7.15 21.75 11.8
11/13/2021 7:30:00 PM 7.39 45.302 0.075 7.15 22.23 11.81
11/13/2021 7:45:00 PM 7.38 45.284 0.075 7.15 22.25 11.81
11/13/2021 8:00:00 PM 7.35 45.23 0.075 7.15 22.4 11.82
11/13/2021 8:15:00 PM 7.34 45.212 0.075 7.14 22.64 11.83
11/13/2021 8:30:00 PM 7.32 45.176 0.075 7.15 22.65 11.83
11/13/2021 8:45:00 PM 7.3 45.14 0.075 7.14 22.5 11.84
11/13/2021 9:00:00 PM 7.29 45.122 0.075 7.14 22.63 11.84
11/13/2021 9:15:00 PM 7.27 45.086 0.075 7.14 22.54 11.85
11/13/2021 9:30:00 PM 7.26 45.068 0.075 7.14 22.71 11.86
11/13/2021 9:45:00 PM 7.24 45.032 0.075 7.14 22.65 11.86
11/13/2021 10:00:00 PM 7.23 45.014 0.075 7.14 22.85 11.87
11/13/2021 10:15:00 PM 7.21 44.978 0.075 7.14 22.81 11.87
11/13/2021 10:30:00 PM 7.19 44.942 0.075 7.13 22.8 11.88
11/13/2021 10:45:00 PM 7.18 44.924 0.075 7.14 22.72 11.88
11/13/2021 11:00:00 PM 7.16 44.888 0.075 7.13 22.76 11.89
11/13/2021 11:15:00 PM 7.14 44.852 0.075 7.14 22.78 11.89
11/13/2021 11:30:00 PM 7.14 44.852 0.075 7.13 22.96 11.9
11/13/2021 11:45:00 PM 7.14 44.852 0.075 7.14 22.78 11.9
11/14/2021 12:00:00 AM 7.14 44.852 0.075 7.14 22.7 11.9
11/14/2021 12:15:00 AM 7.13 44.834 0.075 7.13 22.85 11.91
11/14/2021 12:30:00 AM 7.12 44.816 0.075 7.13 22.95 11.91
11/14/2021 12:45:00 AM 7.12 44.816 0.075 7.13 22.98 11.91
11/14/2021 1:00:00 AM 7.11 44.798 0.074 7.13 23.04 11.91
11/14/2021 1:15:00 AM 7.1 44.78 0.074 7.13 22.98 11.91
11/14/2021 1:30:00 AM 7.09 44.762 0.074 7.12 23.01 11.92
11/14/2021 1:45:00 AM 7.08 44.744 0.074 7.12 23.12 11.92
11/14/2021 2:00:00 AM 7.08 44.744 0.074 7.12 22.87 11.92
11/14/2021 2:15:00 AM 7.07 44.726 0.074 7.12 23.03 11.93
11/14/2021 2:30:00 AM 7.06 44.708 0.074 7.12 22.96 11.93
11/14/2021 2:45:00 AM 7.05 44.69 0.074 7.12 22.94 11.94
11/14/2021 3:00:00 AM 7.05 44.69 0.074 7.12 22.97 11.94
11/14/2021 3:15:00 AM 7.05 44.69 0.074 7.12 23.04 11.93
11/14/2021 3:30:00 AM 7.04 44.672 0.074 7.12 23.24 11.94
11/14/2021 3:45:00 AM 7.04 44.672 0.074 7.13 23.11 11.94
11/14/2021 4:00:00 AM 7.04 44.672 0.074 7.12 23.28 11.94
11/14/2021 4:15:00 AM 7.03 44.654 0.074 7.12 23.28 11.94
11/14/2021 4:30:00 AM 7.02 44.636 0.074 7.12 22.86 11.95
11/14/2021 4:45:00 AM 7.01 44.618 0.074 7.13 23.28 11.95
11/14/2021 5:00:00 AM 6.99 44.582 0.074 7.12 23.22 11.95
11/14/2021 5:15:00 AM 6.99 44.582 0.074 7.11 23.36 11.96
11/14/2021 5:30:00 AM 6.99 44.582 0.074 7.12 23.22 11.96
11/14/2021 5:45:00 AM 6.97 44.546 0.074 7.11 23.37 11.97
11/14/2021 6:00:00 AM 6.95 44.51 0.074 7.12 23.5 11.97
11/14/2021 6:15:00 AM 6.94 44.492 0.074 7.12 23.47 11.98
11/14/2021 6:30:00 AM 6.92 44.456 0.074 7.12 23.3 11.98
11/14/2021 6:45:00 AM 6.92 44.456 0.074 7.12 23.47 11.99
11/14/2021 7:00:00 AM 6.9 44.42 0.074 7.12 23.54 11.99
11/14/2021 7:15:00 AM 6.9 44.42 0.074 7.13 23.74 12.01
11/14/2021 7:30:00 AM 6.89 44.402 0.074 7.12 23.51 12.02
11/14/2021 7:45:00 AM 6.87 44.366 0.074 7.13 23.47 12.04
11/14/2021 8:00:00 AM 6.86 44.348 0.074 7.13 23.43 12.08
11/14/2021 8:15:00 AM 6.86 44.348 0.074 7.14 23.63 12.13
11/14/2021 8:30:00 AM 6.87 44.366 0.074 7.16 23.6 12.21
11/14/2021 8:45:00 AM 6.86 44.348 0.074 7.16 23.41 12.26
11/14/2021 9:00:00 AM 6.87 44.366 0.074 7.18 23.38 12.3
11/14/2021 9:15:00 AM 6.87 44.366 0.074 7.19 23.43 12.35
11/14/2021 9:30:00 AM 6.88 44.384 0.074 7.2 23.35 12.39
11/14/2021 9:45:00 AM 6.9 44.42 0.074 7.21 23.3 12.43
11/14/2021 10:00:00 AM 6.92 44.456 0.074 7.23 23.06 12.46
11/14/2021 10:15:00 AM 6.96 44.528 0.074 7.24 22.78 12.49
11/14/2021 10:30:00 AM 6.99 44.582 0.073 7.25 23.01 12.51
11/14/2021 10:45:00 AM 7.03 44.654 0.073 7.26 23.12 12.53
11/14/2021 11:00:00 AM 7.06 44.708 0.073 7.28 23.2 12.54
11/14/2021 11:15:00 AM 7.12 44.816 0.073 7.28 23.04 12.56
11/14/2021 11:30:00 AM 7.17 44.906 0.073 7.3 23.05 12.56
11/14/2021 11:45:00 AM 7.22 44.996 0.073 7.32 22.78 12.55
11/14/2021 12:00:00 PM 7.24 45.032 0.073 7.32 23.03 12.53
11/14/2021 12:15:00 PM 7.28 45.104 0.073 7.32 22.89 12.51
11/14/2021 12:30:00 PM 7.29 45.122 0.073 7.34 22.82 12.49
11/14/2021 12:45:00 PM 7.31 45.158 0.073 7.34 22.81 12.48
11/14/2021 1:00:00 PM 7.32 45.176 0.073 7.33 22.75 12.45
11/14/2021 1:15:00 PM 7.32 45.176 0.073 7.33 22.92 12.41
11/14/2021 1:30:00 PM 7.31 45.158 0.073 7.33 22.87 12.41
11/14/2021 1:45:00 PM 7.32 45.176 0.073 7.33 22.87 12.41
11/14/2021 2:00:00 PM 7.33 45.194 0.073 7.33 22.97 12.39
11/14/2021 2:15:00 PM 7.35 45.23 0.073 7.33 22.92 12.39
11/14/2021 2:30:00 PM 7.36 45.248 0.073 7.32 23.05 12.34
11/14/2021 2:45:00 PM 7.35 45.23 0.073 7.32 23.01 12.25
11/14/2021 3:00:00 PM 7.33 45.194 0.073 7.3 23.07 12.21
11/14/2021 3:15:00 PM 7.32 45.176 0.073 7.28 23.19 12.19
11/14/2021 3:30:00 PM 7.31 45.158 0.073 7.27 22.91 12.13
11/14/2021 3:45:00 PM 7.29 45.122 0.073 7.26 23.11 12.09
11/14/2021 4:00:00 PM 7.28 45.104 0.073 7.24 23.32 12.04
11/14/2021 4:15:00 PM 7.26 45.068 0.073 7.22 23.27 12
11/14/2021 4:30:00 PM 7.25 45.05 0.073 7.2 23.47 11.96
11/14/2021 4:45:00 PM 7.23 45.014 0.073 7.21 23.33 11.94
11/14/2021 5:00:00 PM 7.2 44.96 0.073 7.18 23.22 11.92
11/14/2021 5:15:00 PM 7.17 44.906 0.073 7.18 23.58 11.91
11/14/2021 5:30:00 PM 7.14 44.852 0.073 7.18 23.68 11.9
11/14/2021 5:45:00 PM 7.09 44.762 0.073 7.16 23.76 11.9
11/14/2021 6:00:00 PM 7.05 44.69 0.073 7.15 23.43 11.9
11/14/2021 6:15:00 PM 7.01 44.618 0.073 7.17 23.75 11.9
11/14/2021 6:30:00 PM 6.95 44.51 0.073 7.15 23.6 11.91
11/14/2021 6:45:00 PM 6.87 44.366 0.073 7.16 23.54 11.92
11/14/2021 7:00:00 PM 6.83 44.294 0.073 7.15 23.82 11.93
11/14/2021 7:15:00 PM 6.8 44.24 0.073 7.14 23.74 11.94
11/14/2021 7:30:00 PM 6.78 44.204 0.073 7.14 23.98 11.95
11/14/2021 7:45:00 PM 6.75 44.15 0.073 7.14 23.79 11.97
11/14/2021 8:00:00 PM 6.73 44.114 0.073 7.14 24.02 11.97
11/14/2021 8:15:00 PM 6.71 44.078 0.073 7.13 24.06 11.98
11/14/2021 8:30:00 PM 6.69 44.042 0.073 7.13 24.2 11.99
11/14/2021 8:45:00 PM 6.67 44.006 0.073 7.13 24.27 11.99
11/14/2021 9:00:00 PM 6.64 43.952 0.073 7.13 24.2 12
11/14/2021 9:15:00 PM 6.62 43.916 0.073 7.12 24.34 12.02
11/14/2021 9:30:00 PM 6.59 43.862 0.073 7.12 24.38 12.02
11/14/2021 9:45:00 PM 6.57 43.826 0.073 7.12 24.31 12.03
11/14/2021 10:00:00 PM 6.55 43.79 0.073 7.12 24.19 12.04
11/14/2021 10:15:00 PM 6.53 43.754 0.073 7.12 24.35 12.05
11/14/2021 10:30:00 PM 6.52 43.736 0.073 7.12 24.15 12.05
11/14/2021 10:45:00 PM 6.52 43.736 0.073 7.12 24.26 12.05
11/14/2021 11:00:00 PM 6.52 43.736 0.073 7.12 24.26 12.05
11/14/2021 11:15:00 PM 6.52 43.736 0.074 7.13 24.16 12.05
11/14/2021 11:30:00 PM 6.52 43.736 0.074 7.12 24.3 12.05
11/14/2021 11:45:00 PM 6.52 43.736 0.074 7.11 24.3 12.04
11/15/2021 12:00:00 AM 6.52 43.736 0.074 7.12 24.4 12.04
11/15/2021 12:15:00 AM 6.52 43.736 0.074 7.13 24.17 12.04
11/15/2021 12:30:00 AM 6.52 43.736 0.074 7.12 24.19 12.04
11/15/2021 12:45:00 AM 6.52 43.736 0.074 7.12 24.18 12.04
11/15/2021 1:00:00 AM 6.52 43.736 0.074 7.12 24.11 12.04
11/15/2021 1:15:00 AM 6.52 43.736 0.074 7.11 24.25 12.05
11/15/2021 1:30:00 AM 6.51 43.718 0.075 7.12 24.14 12.05
11/15/2021 1:45:00 AM 6.51 43.718 0.075 7.11 24.3 12.05
11/15/2021 2:00:00 AM 6.5 43.7 0.075 7.12 24.02 12.05
11/15/2021 2:15:00 AM 6.49 43.682 0.075 7.12 24.25 12.05
11/15/2021 2:30:00 AM 6.48 43.664 0.075 7.12 24.37 12.06
11/15/2021 2:45:00 AM 6.47 43.646 0.075 7.12 24.46 12.06
11/15/2021 3:00:00 AM 6.46 43.628 0.075 7.11 24.43 12.06
11/15/2021 3:15:00 AM 6.44 43.592 0.075 7.11 24.6 12.07
11/15/2021 3:30:00 AM 6.42 43.556 0.075 7.11 24.78 12.07
11/15/2021 3:45:00 AM 6.41 43.538 0.075 7.12 24.21 12.07
11/15/2021 4:00:00 AM 6.4 43.52 0.075 7.11 24.42 12.08
11/15/2021 4:15:00 AM 6.39 43.502 0.075 7.12 24.31 12.09
11/15/2021 4:30:00 AM 6.37 43.466 0.075 7.13 24.26 12.09
11/15/2021 4:45:00 AM 6.35 43.43 0.075 7.13 24.5 12.1
11/15/2021 5:00:00 AM 6.34 43.412 0.076 7.12 24.56 12.09
11/15/2021 5:15:00 AM 6.34 43.412 0.076 7.12 24.77 12.1
11/15/2021 5:30:00 AM 6.33 43.394 0.076 7.12 24.73 12.11
11/15/2021 5:45:00 AM 6.32 43.376 0.076 7.13 24.4 12.11
11/15/2021 6:00:00 AM 6.31 43.358 0.076 7.13 24.58 12.11
11/15/2021 6:15:00 AM 6.29 43.322 0.076 7.13 24.59 12.12
11/15/2021 6:30:00 AM 6.28 43.304 0.076 7.13 24.53 12.12
11/15/2021 6:45:00 AM 6.27 43.286 0.076 7.13 24.5 12.13
11/15/2021 7:00:00 AM 6.27 43.286 0.076 7.13 24.7 12.14
11/15/2021 7:15:00 AM 6.26 43.268 0.077 7.13 24.67 12.15
11/15/2021 7:30:00 AM 6.26 43.268 0.077 7.13 24.52 12.16